<?xml version="1.0" encoding="UTF-8" standalone="no" ?>
<gpx xmlns="http://www.topografix.com/GPX/1/1" xmlns:xsi="http://www.w3.org/2001/XMLSchema-instance" xsi:schemaLocation="http://www.topografix.com/GPX/1/1 http://www.topografix.com/GPX/1/1/gpx.xsd" version="1.1" creator="VisuGPX - https://www.visugpx.com">
  <metadata>
    <name>83-M-le Thoronet</name>
    <desc><![CDATA[83-M-le Thoronet : les Mines  -  l'Observatoire         ]]></desc>
  </metadata>
  <trk>
    <name><![CDATA[2017-01-18-M-thoronet]]></name>
    <trkseg>
      <trkpt lat="43.46017" lon="6.26199">
        <ele>184.6</ele>
        <time>2017-01-18T07:56:14Z</time>
      </trkpt>
      <trkpt lat="43.46017" lon="6.26199">
        <ele>184.6</ele>
        <time>2017-01-18T07:56:15Z</time>
      </trkpt>
      <trkpt lat="43.46025" lon="6.26203">
        <ele>183.8</ele>
        <time>2017-01-18T07:59:45Z</time>
      </trkpt>
      <trkpt lat="43.46019" lon="6.26211">
        <ele>182.3</ele>
        <time>2017-01-18T08:02:56Z</time>
      </trkpt>
      <trkpt lat="43.4601" lon="6.26216">
        <ele>182.4</ele>
        <time>2017-01-18T08:03:18Z</time>
      </trkpt>
      <trkpt lat="43.46003" lon="6.26224">
        <ele>182.6</ele>
        <time>2017-01-18T08:03:34Z</time>
      </trkpt>
      <trkpt lat="43.45994" lon="6.26231">
        <ele>182.9</ele>
        <time>2017-01-18T08:03:42Z</time>
      </trkpt>
      <trkpt lat="43.45987" lon="6.2624">
        <ele>183</ele>
        <time>2017-01-18T08:03:48Z</time>
      </trkpt>
      <trkpt lat="43.45979" lon="6.26248">
        <ele>182.7</ele>
        <time>2017-01-18T08:03:57Z</time>
      </trkpt>
      <trkpt lat="43.45972" lon="6.26255">
        <ele>182.6</ele>
        <time>2017-01-18T08:04:10Z</time>
      </trkpt>
      <trkpt lat="43.45967" lon="6.26265">
        <ele>183.7</ele>
        <time>2017-01-18T08:04:32Z</time>
      </trkpt>
      <trkpt lat="43.45962" lon="6.26276">
        <ele>185.5</ele>
        <time>2017-01-18T08:05:00Z</time>
      </trkpt>
      <trkpt lat="43.45955" lon="6.26284">
        <ele>186.9</ele>
        <time>2017-01-18T08:05:14Z</time>
      </trkpt>
      <trkpt lat="43.45949" lon="6.26296">
        <ele>188.9</ele>
        <time>2017-01-18T08:05:30Z</time>
      </trkpt>
      <trkpt lat="43.45941" lon="6.2629">
        <ele>191.2</ele>
        <time>2017-01-18T08:05:51Z</time>
      </trkpt>
      <trkpt lat="43.45941" lon="6.26278">
        <ele>192.2</ele>
        <time>2017-01-18T08:06:02Z</time>
      </trkpt>
      <trkpt lat="43.45939" lon="6.26265">
        <ele>193.3</ele>
        <time>2017-01-18T08:06:11Z</time>
      </trkpt>
      <trkpt lat="43.45937" lon="6.26253">
        <ele>194.4</ele>
        <time>2017-01-18T08:06:20Z</time>
      </trkpt>
      <trkpt lat="43.45934" lon="6.2624">
        <ele>195.3</ele>
        <time>2017-01-18T08:06:29Z</time>
      </trkpt>
      <trkpt lat="43.4593" lon="6.26228">
        <ele>196.7</ele>
        <time>2017-01-18T08:06:40Z</time>
      </trkpt>
      <trkpt lat="43.45924" lon="6.26217">
        <ele>197.4</ele>
        <time>2017-01-18T08:06:48Z</time>
      </trkpt>
      <trkpt lat="43.45918" lon="6.26206">
        <ele>198.1</ele>
        <time>2017-01-18T08:06:57Z</time>
      </trkpt>
      <trkpt lat="43.45914" lon="6.26195">
        <ele>198.6</ele>
        <time>2017-01-18T08:07:06Z</time>
      </trkpt>
      <trkpt lat="43.45911" lon="6.26182">
        <ele>199</ele>
        <time>2017-01-18T08:07:15Z</time>
      </trkpt>
      <trkpt lat="43.45906" lon="6.2617">
        <ele>199.4</ele>
        <time>2017-01-18T08:07:24Z</time>
      </trkpt>
      <trkpt lat="43.459" lon="6.26161">
        <ele>199.7</ele>
        <time>2017-01-18T08:07:31Z</time>
      </trkpt>
      <trkpt lat="43.45892" lon="6.26152">
        <ele>199.7</ele>
        <time>2017-01-18T08:07:38Z</time>
      </trkpt>
      <trkpt lat="43.45884" lon="6.26144">
        <ele>199.8</ele>
        <time>2017-01-18T08:07:46Z</time>
      </trkpt>
      <trkpt lat="43.45876" lon="6.26137">
        <ele>199.8</ele>
        <time>2017-01-18T08:07:53Z</time>
      </trkpt>
      <trkpt lat="43.45867" lon="6.26131">
        <ele>200.2</ele>
        <time>2017-01-18T08:08:01Z</time>
      </trkpt>
      <trkpt lat="43.45858" lon="6.26127">
        <ele>200.4</ele>
        <time>2017-01-18T08:08:07Z</time>
      </trkpt>
      <trkpt lat="43.45849" lon="6.26124">
        <ele>200.7</ele>
        <time>2017-01-18T08:08:15Z</time>
      </trkpt>
      <trkpt lat="43.4584" lon="6.2612">
        <ele>201</ele>
        <time>2017-01-18T08:08:23Z</time>
      </trkpt>
      <trkpt lat="43.45831" lon="6.26114">
        <ele>201.7</ele>
        <time>2017-01-18T08:08:31Z</time>
      </trkpt>
      <trkpt lat="43.45822" lon="6.2611">
        <ele>202.2</ele>
        <time>2017-01-18T08:08:39Z</time>
      </trkpt>
      <trkpt lat="43.45813" lon="6.26108">
        <ele>202.6</ele>
        <time>2017-01-18T08:08:47Z</time>
      </trkpt>
      <trkpt lat="43.45804" lon="6.26103">
        <ele>202.9</ele>
        <time>2017-01-18T08:08:57Z</time>
      </trkpt>
      <trkpt lat="43.45796" lon="6.26097">
        <ele>203.5</ele>
        <time>2017-01-18T08:09:07Z</time>
      </trkpt>
      <trkpt lat="43.45787" lon="6.26094">
        <ele>204.4</ele>
        <time>2017-01-18T08:09:17Z</time>
      </trkpt>
      <trkpt lat="43.45778" lon="6.2609">
        <ele>205.9</ele>
        <time>2017-01-18T08:09:27Z</time>
      </trkpt>
      <trkpt lat="43.45769" lon="6.26086">
        <ele>208</ele>
        <time>2017-01-18T08:09:39Z</time>
      </trkpt>
      <trkpt lat="43.4576" lon="6.26084">
        <ele>209.5</ele>
        <time>2017-01-18T08:09:54Z</time>
      </trkpt>
      <trkpt lat="43.45751" lon="6.26081">
        <ele>211.2</ele>
        <time>2017-01-18T08:10:05Z</time>
      </trkpt>
      <trkpt lat="43.45742" lon="6.26075">
        <ele>213.4</ele>
        <time>2017-01-18T08:10:21Z</time>
      </trkpt>
      <trkpt lat="43.45733" lon="6.26073">
        <ele>215.3</ele>
        <time>2017-01-18T08:10:35Z</time>
      </trkpt>
      <trkpt lat="43.45724" lon="6.26069">
        <ele>217</ele>
        <time>2017-01-18T08:10:46Z</time>
      </trkpt>
      <trkpt lat="43.45714" lon="6.26069">
        <ele>218.1</ele>
        <time>2017-01-18T08:10:55Z</time>
      </trkpt>
      <trkpt lat="43.45704" lon="6.26069">
        <ele>219.2</ele>
        <time>2017-01-18T08:11:01Z</time>
      </trkpt>
      <trkpt lat="43.45695" lon="6.2607">
        <ele>220</ele>
        <time>2017-01-18T08:11:07Z</time>
      </trkpt>
      <trkpt lat="43.45686" lon="6.26069">
        <ele>221</ele>
        <time>2017-01-18T08:11:15Z</time>
      </trkpt>
      <trkpt lat="43.45677" lon="6.26068">
        <ele>222</ele>
        <time>2017-01-18T08:11:23Z</time>
      </trkpt>
      <trkpt lat="43.45668" lon="6.26065">
        <ele>222.6</ele>
        <time>2017-01-18T08:11:29Z</time>
      </trkpt>
      <trkpt lat="43.45658" lon="6.26064">
        <ele>223.7</ele>
        <time>2017-01-18T08:11:38Z</time>
      </trkpt>
      <trkpt lat="43.45649" lon="6.26065">
        <ele>224.5</ele>
        <time>2017-01-18T08:11:46Z</time>
      </trkpt>
      <trkpt lat="43.4564" lon="6.26065">
        <ele>225.1</ele>
        <time>2017-01-18T08:11:56Z</time>
      </trkpt>
      <trkpt lat="43.4563" lon="6.26062">
        <ele>225.4</ele>
        <time>2017-01-18T08:12:06Z</time>
      </trkpt>
      <trkpt lat="43.45621" lon="6.26059">
        <ele>225.8</ele>
        <time>2017-01-18T08:12:18Z</time>
      </trkpt>
      <trkpt lat="43.45612" lon="6.26055">
        <ele>226.2</ele>
        <time>2017-01-18T08:12:26Z</time>
      </trkpt>
      <trkpt lat="43.45604" lon="6.26051">
        <ele>226.8</ele>
        <time>2017-01-18T08:12:35Z</time>
      </trkpt>
      <trkpt lat="43.45595" lon="6.26046">
        <ele>228</ele>
        <time>2017-01-18T08:12:47Z</time>
      </trkpt>
      <trkpt lat="43.45586" lon="6.26043">
        <ele>228.9</ele>
        <time>2017-01-18T08:12:57Z</time>
      </trkpt>
      <trkpt lat="43.45577" lon="6.26042">
        <ele>229.6</ele>
        <time>2017-01-18T08:13:05Z</time>
      </trkpt>
      <trkpt lat="43.45568" lon="6.2604">
        <ele>230.4</ele>
        <time>2017-01-18T08:13:15Z</time>
      </trkpt>
      <trkpt lat="43.45558" lon="6.26039">
        <ele>231.2</ele>
        <time>2017-01-18T08:13:22Z</time>
      </trkpt>
      <trkpt lat="43.45548" lon="6.26037">
        <ele>231.8</ele>
        <time>2017-01-18T08:13:29Z</time>
      </trkpt>
      <trkpt lat="43.45539" lon="6.26035">
        <ele>232.5</ele>
        <time>2017-01-18T08:13:37Z</time>
      </trkpt>
      <trkpt lat="43.45529" lon="6.26033">
        <ele>233.6</ele>
        <time>2017-01-18T08:13:48Z</time>
      </trkpt>
      <trkpt lat="43.4552" lon="6.26029">
        <ele>234.9</ele>
        <time>2017-01-18T08:13:58Z</time>
      </trkpt>
      <trkpt lat="43.45512" lon="6.26024">
        <ele>236.3</ele>
        <time>2017-01-18T08:14:07Z</time>
      </trkpt>
      <trkpt lat="43.45503" lon="6.2602">
        <ele>237.7</ele>
        <time>2017-01-18T08:14:17Z</time>
      </trkpt>
      <trkpt lat="43.45494" lon="6.26015">
        <ele>239.2</ele>
        <time>2017-01-18T08:14:28Z</time>
      </trkpt>
      <trkpt lat="43.45485" lon="6.26012">
        <ele>240.4</ele>
        <time>2017-01-18T08:14:37Z</time>
      </trkpt>
      <trkpt lat="43.45476" lon="6.26008">
        <ele>241.6</ele>
        <time>2017-01-18T08:14:46Z</time>
      </trkpt>
      <trkpt lat="43.45466" lon="6.26005">
        <ele>242.8</ele>
        <time>2017-01-18T08:14:54Z</time>
      </trkpt>
      <trkpt lat="43.45456" lon="6.26002">
        <ele>243.7</ele>
        <time>2017-01-18T08:15:02Z</time>
      </trkpt>
      <trkpt lat="43.45447" lon="6.26">
        <ele>244.3</ele>
        <time>2017-01-18T08:15:09Z</time>
      </trkpt>
      <trkpt lat="43.45438" lon="6.25996">
        <ele>245.3</ele>
        <time>2017-01-18T08:15:18Z</time>
      </trkpt>
      <trkpt lat="43.45429" lon="6.25989">
        <ele>245.9</ele>
        <time>2017-01-18T08:15:27Z</time>
      </trkpt>
      <trkpt lat="43.45422" lon="6.25982">
        <ele>246.4</ele>
        <time>2017-01-18T08:15:35Z</time>
      </trkpt>
      <trkpt lat="43.45417" lon="6.2597">
        <ele>247.1</ele>
        <time>2017-01-18T08:15:45Z</time>
      </trkpt>
      <trkpt lat="43.45412" lon="6.25959">
        <ele>248.3</ele>
        <time>2017-01-18T08:15:56Z</time>
      </trkpt>
      <trkpt lat="43.45405" lon="6.25949">
        <ele>249.3</ele>
        <time>2017-01-18T08:16:05Z</time>
      </trkpt>
      <trkpt lat="43.45398" lon="6.25942">
        <ele>249.9</ele>
        <time>2017-01-18T08:16:13Z</time>
      </trkpt>
      <trkpt lat="43.4539" lon="6.25934">
        <ele>250.6</ele>
        <time>2017-01-18T08:16:21Z</time>
      </trkpt>
      <trkpt lat="43.45382" lon="6.25926">
        <ele>251.1</ele>
        <time>2017-01-18T08:16:29Z</time>
      </trkpt>
      <trkpt lat="43.45375" lon="6.25916">
        <ele>251.7</ele>
        <time>2017-01-18T08:16:39Z</time>
      </trkpt>
      <trkpt lat="43.45368" lon="6.25909">
        <ele>252.3</ele>
        <time>2017-01-18T08:16:48Z</time>
      </trkpt>
      <trkpt lat="43.4536" lon="6.25902">
        <ele>253</ele>
        <time>2017-01-18T08:16:56Z</time>
      </trkpt>
      <trkpt lat="43.45351" lon="6.25897">
        <ele>253.7</ele>
        <time>2017-01-18T08:17:05Z</time>
      </trkpt>
      <trkpt lat="43.45343" lon="6.25891">
        <ele>254.8</ele>
        <time>2017-01-18T08:17:16Z</time>
      </trkpt>
      <trkpt lat="43.45335" lon="6.25884">
        <ele>256.3</ele>
        <time>2017-01-18T08:18:36Z</time>
      </trkpt>
      <trkpt lat="43.45326" lon="6.25878">
        <ele>256.4</ele>
        <time>2017-01-18T08:18:46Z</time>
      </trkpt>
      <trkpt lat="43.45317" lon="6.25874">
        <ele>256.7</ele>
        <time>2017-01-18T08:18:54Z</time>
      </trkpt>
      <trkpt lat="43.45309" lon="6.25867">
        <ele>257.1</ele>
        <time>2017-01-18T08:19:02Z</time>
      </trkpt>
      <trkpt lat="43.45302" lon="6.25858">
        <ele>257.7</ele>
        <time>2017-01-18T08:19:10Z</time>
      </trkpt>
      <trkpt lat="43.45299" lon="6.25845">
        <ele>258.1</ele>
        <time>2017-01-18T08:19:19Z</time>
      </trkpt>
      <trkpt lat="43.45297" lon="6.25832">
        <ele>258.5</ele>
        <time>2017-01-18T08:19:26Z</time>
      </trkpt>
      <trkpt lat="43.45294" lon="6.25819">
        <ele>259.3</ele>
        <time>2017-01-18T08:19:35Z</time>
      </trkpt>
      <trkpt lat="43.45291" lon="6.25807">
        <ele>259.8</ele>
        <time>2017-01-18T08:19:43Z</time>
      </trkpt>
      <trkpt lat="43.45288" lon="6.25795">
        <ele>260.1</ele>
        <time>2017-01-18T08:19:51Z</time>
      </trkpt>
      <trkpt lat="43.45285" lon="6.25782">
        <ele>260.6</ele>
        <time>2017-01-18T08:19:59Z</time>
      </trkpt>
      <trkpt lat="43.45283" lon="6.25769">
        <ele>261.1</ele>
        <time>2017-01-18T08:20:07Z</time>
      </trkpt>
      <trkpt lat="43.45283" lon="6.25755">
        <ele>261.8</ele>
        <time>2017-01-18T08:20:17Z</time>
      </trkpt>
      <trkpt lat="43.45283" lon="6.25742">
        <ele>262.4</ele>
        <time>2017-01-18T08:20:26Z</time>
      </trkpt>
      <trkpt lat="43.45284" lon="6.25728">
        <ele>262.8</ele>
        <time>2017-01-18T08:20:34Z</time>
      </trkpt>
      <trkpt lat="43.45285" lon="6.25716">
        <ele>263.4</ele>
        <time>2017-01-18T08:20:43Z</time>
      </trkpt>
      <trkpt lat="43.45286" lon="6.25703">
        <ele>263.7</ele>
        <time>2017-01-18T08:20:52Z</time>
      </trkpt>
      <trkpt lat="43.45292" lon="6.25691">
        <ele>263.4</ele>
        <time>2017-01-18T08:21:01Z</time>
      </trkpt>
      <trkpt lat="43.45295" lon="6.25679">
        <ele>262.6</ele>
        <time>2017-01-18T08:21:11Z</time>
      </trkpt>
      <trkpt lat="43.45301" lon="6.25669">
        <ele>261.4</ele>
        <time>2017-01-18T08:21:18Z</time>
      </trkpt>
      <trkpt lat="43.45306" lon="6.25657">
        <ele>260.2</ele>
        <time>2017-01-18T08:21:27Z</time>
      </trkpt>
      <trkpt lat="43.4531" lon="6.25645">
        <ele>260.1</ele>
        <time>2017-01-18T08:21:38Z</time>
      </trkpt>
      <trkpt lat="43.45312" lon="6.25632">
        <ele>260.6</ele>
        <time>2017-01-18T08:21:48Z</time>
      </trkpt>
      <trkpt lat="43.45315" lon="6.2562">
        <ele>261.5</ele>
        <time>2017-01-18T08:21:57Z</time>
      </trkpt>
      <trkpt lat="43.45319" lon="6.25608">
        <ele>262.8</ele>
        <time>2017-01-18T08:22:07Z</time>
      </trkpt>
      <trkpt lat="43.45324" lon="6.25597">
        <ele>264.1</ele>
        <time>2017-01-18T08:22:24Z</time>
      </trkpt>
      <trkpt lat="43.4532" lon="6.25585">
        <ele>265.6</ele>
        <time>2017-01-18T08:23:19Z</time>
      </trkpt>
      <trkpt lat="43.45311" lon="6.25588">
        <ele>269.9</ele>
        <time>2017-01-18T08:24:28Z</time>
      </trkpt>
      <trkpt lat="43.45302" lon="6.25594">
        <ele>271.2</ele>
        <time>2017-01-18T08:24:49Z</time>
      </trkpt>
      <trkpt lat="43.45293" lon="6.25598">
        <ele>273.5</ele>
        <time>2017-01-18T08:25:09Z</time>
      </trkpt>
      <trkpt lat="43.45285" lon="6.25602">
        <ele>275.9</ele>
        <time>2017-01-18T08:25:26Z</time>
      </trkpt>
      <trkpt lat="43.45276" lon="6.25608">
        <ele>278.4</ele>
        <time>2017-01-18T08:25:41Z</time>
      </trkpt>
      <trkpt lat="43.45268" lon="6.25614">
        <ele>280.3</ele>
        <time>2017-01-18T08:25:53Z</time>
      </trkpt>
      <trkpt lat="43.45258" lon="6.25614">
        <ele>281.9</ele>
        <time>2017-01-18T08:26:07Z</time>
      </trkpt>
      <trkpt lat="43.45249" lon="6.25611">
        <ele>283.6</ele>
        <time>2017-01-18T08:26:19Z</time>
      </trkpt>
      <trkpt lat="43.4524" lon="6.25609">
        <ele>286.2</ele>
        <time>2017-01-18T08:26:36Z</time>
      </trkpt>
      <trkpt lat="43.45231" lon="6.25604">
        <ele>287.8</ele>
        <time>2017-01-18T08:26:48Z</time>
      </trkpt>
      <trkpt lat="43.45224" lon="6.25596">
        <ele>290.3</ele>
        <time>2017-01-18T08:27:04Z</time>
      </trkpt>
      <trkpt lat="43.45216" lon="6.25589">
        <ele>292.5</ele>
        <time>2017-01-18T08:27:19Z</time>
      </trkpt>
      <trkpt lat="43.45207" lon="6.25585">
        <ele>294.3</ele>
        <time>2017-01-18T08:27:30Z</time>
      </trkpt>
      <trkpt lat="43.45198" lon="6.25581">
        <ele>295.8</ele>
        <time>2017-01-18T08:27:42Z</time>
      </trkpt>
      <trkpt lat="43.4519" lon="6.25575">
        <ele>298.2</ele>
        <time>2017-01-18T08:27:58Z</time>
      </trkpt>
      <trkpt lat="43.45182" lon="6.25569">
        <ele>301</ele>
        <time>2017-01-18T08:28:17Z</time>
      </trkpt>
      <trkpt lat="43.45173" lon="6.25564">
        <ele>303.7</ele>
        <time>2017-01-18T08:28:34Z</time>
      </trkpt>
      <trkpt lat="43.45168" lon="6.25554">
        <ele>306</ele>
        <time>2017-01-18T08:28:51Z</time>
      </trkpt>
      <trkpt lat="43.45163" lon="6.25543">
        <ele>307.3</ele>
        <time>2017-01-18T08:29:06Z</time>
      </trkpt>
      <trkpt lat="43.45165" lon="6.25531">
        <ele>309.3</ele>
        <time>2017-01-18T08:29:22Z</time>
      </trkpt>
      <trkpt lat="43.45166" lon="6.25518">
        <ele>311.2</ele>
        <time>2017-01-18T08:29:36Z</time>
      </trkpt>
      <trkpt lat="43.45166" lon="6.25505">
        <ele>311.9</ele>
        <time>2017-01-18T08:29:46Z</time>
      </trkpt>
      <trkpt lat="43.45165" lon="6.25492">
        <ele>313</ele>
        <time>2017-01-18T08:29:59Z</time>
      </trkpt>
      <trkpt lat="43.45164" lon="6.25479">
        <ele>313.6</ele>
        <time>2017-01-18T08:30:10Z</time>
      </trkpt>
      <trkpt lat="43.45168" lon="6.25468">
        <ele>314.3</ele>
        <time>2017-01-18T08:31:06Z</time>
      </trkpt>
      <trkpt lat="43.45164" lon="6.25457">
        <ele>314.5</ele>
        <time>2017-01-18T08:32:34Z</time>
      </trkpt>
      <trkpt lat="43.45168" lon="6.25445">
        <ele>314.4</ele>
        <time>2017-01-18T08:32:43Z</time>
      </trkpt>
      <trkpt lat="43.45169" lon="6.25433">
        <ele>313.9</ele>
        <time>2017-01-18T08:32:56Z</time>
      </trkpt>
      <trkpt lat="43.45163" lon="6.25423">
        <ele>312.5</ele>
        <time>2017-01-18T08:33:13Z</time>
      </trkpt>
      <trkpt lat="43.45159" lon="6.25411">
        <ele>311.2</ele>
        <time>2017-01-18T08:33:36Z</time>
      </trkpt>
      <trkpt lat="43.45155" lon="6.254">
        <ele>308.6</ele>
        <time>2017-01-18T08:33:51Z</time>
      </trkpt>
      <trkpt lat="43.45151" lon="6.25389">
        <ele>304.8</ele>
        <time>2017-01-18T08:34:12Z</time>
      </trkpt>
      <trkpt lat="43.45148" lon="6.25377">
        <ele>302.1</ele>
        <time>2017-01-18T08:34:28Z</time>
      </trkpt>
      <trkpt lat="43.45146" lon="6.25364">
        <ele>299.2</ele>
        <time>2017-01-18T08:34:45Z</time>
      </trkpt>
      <trkpt lat="43.45143" lon="6.25352">
        <ele>295.7</ele>
        <time>2017-01-18T08:35:03Z</time>
      </trkpt>
      <trkpt lat="43.45141" lon="6.25339">
        <ele>292.6</ele>
        <time>2017-01-18T08:35:19Z</time>
      </trkpt>
      <trkpt lat="43.45132" lon="6.25338">
        <ele>287</ele>
        <time>2017-01-18T08:36:46Z</time>
      </trkpt>
      <trkpt lat="43.45124" lon="6.25344">
        <ele>287.3</ele>
        <time>2017-01-18T08:36:56Z</time>
      </trkpt>
      <trkpt lat="43.45117" lon="6.25352">
        <ele>287.7</ele>
        <time>2017-01-18T08:37:05Z</time>
      </trkpt>
      <trkpt lat="43.45108" lon="6.25356">
        <ele>289</ele>
        <time>2017-01-18T08:37:18Z</time>
      </trkpt>
      <trkpt lat="43.45098" lon="6.25353">
        <ele>289.6</ele>
        <time>2017-01-18T08:37:29Z</time>
      </trkpt>
      <trkpt lat="43.45089" lon="6.25355">
        <ele>289.8</ele>
        <time>2017-01-18T08:37:39Z</time>
      </trkpt>
      <trkpt lat="43.4508" lon="6.25356">
        <ele>290.1</ele>
        <time>2017-01-18T08:37:48Z</time>
      </trkpt>
      <trkpt lat="43.45071" lon="6.25357">
        <ele>290.7</ele>
        <time>2017-01-18T08:37:56Z</time>
      </trkpt>
      <trkpt lat="43.45062" lon="6.25361">
        <ele>290.4</ele>
        <time>2017-01-18T08:38:05Z</time>
      </trkpt>
      <trkpt lat="43.45053" lon="6.25362">
        <ele>290.9</ele>
        <time>2017-01-18T08:38:16Z</time>
      </trkpt>
      <trkpt lat="43.45043" lon="6.25364">
        <ele>291.7</ele>
        <time>2017-01-18T08:38:27Z</time>
      </trkpt>
      <trkpt lat="43.45034" lon="6.25367">
        <ele>293</ele>
        <time>2017-01-18T08:38:39Z</time>
      </trkpt>
      <trkpt lat="43.45026" lon="6.25373">
        <ele>294.2</ele>
        <time>2017-01-18T08:38:51Z</time>
      </trkpt>
      <trkpt lat="43.45017" lon="6.25378">
        <ele>295.1</ele>
        <time>2017-01-18T08:39:00Z</time>
      </trkpt>
      <trkpt lat="43.45009" lon="6.25384">
        <ele>295.6</ele>
        <time>2017-01-18T08:39:10Z</time>
      </trkpt>
      <trkpt lat="43.45001" lon="6.25392">
        <ele>295.8</ele>
        <time>2017-01-18T08:39:20Z</time>
      </trkpt>
      <trkpt lat="43.44994" lon="6.254">
        <ele>296.1</ele>
        <time>2017-01-18T08:39:31Z</time>
      </trkpt>
      <trkpt lat="43.44988" lon="6.25411">
        <ele>296.5</ele>
        <time>2017-01-18T08:39:43Z</time>
      </trkpt>
      <trkpt lat="43.4498" lon="6.25417">
        <ele>296.7</ele>
        <time>2017-01-18T08:39:56Z</time>
      </trkpt>
      <trkpt lat="43.44971" lon="6.25423">
        <ele>296.8</ele>
        <time>2017-01-18T08:40:05Z</time>
      </trkpt>
      <trkpt lat="43.44964" lon="6.25431">
        <ele>296.9</ele>
        <time>2017-01-18T08:40:14Z</time>
      </trkpt>
      <trkpt lat="43.44959" lon="6.25442">
        <ele>297.1</ele>
        <time>2017-01-18T08:40:24Z</time>
      </trkpt>
      <trkpt lat="43.44955" lon="6.25456">
        <ele>297.6</ele>
        <time>2017-01-18T08:40:34Z</time>
      </trkpt>
      <trkpt lat="43.44949" lon="6.25466">
        <ele>298.3</ele>
        <time>2017-01-18T08:40:42Z</time>
      </trkpt>
      <trkpt lat="43.44942" lon="6.25473">
        <ele>299.1</ele>
        <time>2017-01-18T08:40:50Z</time>
      </trkpt>
      <trkpt lat="43.44934" lon="6.25482">
        <ele>299.6</ele>
        <time>2017-01-18T08:40:59Z</time>
      </trkpt>
      <trkpt lat="43.44927" lon="6.2549">
        <ele>299.8</ele>
        <time>2017-01-18T08:41:07Z</time>
      </trkpt>
      <trkpt lat="43.4492" lon="6.25498">
        <ele>300</ele>
        <time>2017-01-18T08:41:16Z</time>
      </trkpt>
      <trkpt lat="43.44913" lon="6.25507">
        <ele>300.6</ele>
        <time>2017-01-18T08:41:26Z</time>
      </trkpt>
      <trkpt lat="43.44906" lon="6.25515">
        <ele>300.9</ele>
        <time>2017-01-18T08:41:34Z</time>
      </trkpt>
      <trkpt lat="43.44898" lon="6.25522">
        <ele>301.1</ele>
        <time>2017-01-18T08:41:45Z</time>
      </trkpt>
      <trkpt lat="43.44888" lon="6.25523">
        <ele>301.1</ele>
        <time>2017-01-18T08:41:53Z</time>
      </trkpt>
      <trkpt lat="43.44879" lon="6.25522">
        <ele>301.2</ele>
        <time>2017-01-18T08:42:04Z</time>
      </trkpt>
      <trkpt lat="43.4487" lon="6.25524">
        <ele>301.4</ele>
        <time>2017-01-18T08:42:14Z</time>
      </trkpt>
      <trkpt lat="43.4486" lon="6.25523">
        <ele>302.2</ele>
        <time>2017-01-18T08:42:25Z</time>
      </trkpt>
      <trkpt lat="43.44851" lon="6.25525">
        <ele>303</ele>
        <time>2017-01-18T08:42:34Z</time>
      </trkpt>
      <trkpt lat="43.44841" lon="6.2553">
        <ele>303.5</ele>
        <time>2017-01-18T08:42:43Z</time>
      </trkpt>
      <trkpt lat="43.44832" lon="6.25537">
        <ele>303.8</ele>
        <time>2017-01-18T08:42:50Z</time>
      </trkpt>
      <trkpt lat="43.44827" lon="6.25547">
        <ele>304.1</ele>
        <time>2017-01-18T08:42:58Z</time>
      </trkpt>
      <trkpt lat="43.44819" lon="6.25556">
        <ele>304.4</ele>
        <time>2017-01-18T08:43:06Z</time>
      </trkpt>
      <trkpt lat="43.44811" lon="6.25563">
        <ele>304.6</ele>
        <time>2017-01-18T08:43:15Z</time>
      </trkpt>
      <trkpt lat="43.44804" lon="6.25573">
        <ele>304.9</ele>
        <time>2017-01-18T08:43:23Z</time>
      </trkpt>
      <trkpt lat="43.44801" lon="6.25585">
        <ele>305.1</ele>
        <time>2017-01-18T08:43:31Z</time>
      </trkpt>
      <trkpt lat="43.44795" lon="6.25595">
        <ele>305.3</ele>
        <time>2017-01-18T08:43:40Z</time>
      </trkpt>
      <trkpt lat="43.44789" lon="6.25605">
        <ele>305.3</ele>
        <time>2017-01-18T08:43:47Z</time>
      </trkpt>
      <trkpt lat="43.44781" lon="6.25612">
        <ele>305.2</ele>
        <time>2017-01-18T08:43:55Z</time>
      </trkpt>
      <trkpt lat="43.44773" lon="6.25621">
        <ele>305.4</ele>
        <time>2017-01-18T08:44:03Z</time>
      </trkpt>
      <trkpt lat="43.44767" lon="6.2563">
        <ele>305.5</ele>
        <time>2017-01-18T08:44:11Z</time>
      </trkpt>
      <trkpt lat="43.44761" lon="6.2564">
        <ele>305.5</ele>
        <time>2017-01-18T08:44:19Z</time>
      </trkpt>
      <trkpt lat="43.44757" lon="6.25654">
        <ele>305.5</ele>
        <time>2017-01-18T08:44:27Z</time>
      </trkpt>
      <trkpt lat="43.44754" lon="6.25667">
        <ele>305.6</ele>
        <time>2017-01-18T08:44:35Z</time>
      </trkpt>
      <trkpt lat="43.44752" lon="6.25679">
        <ele>305.6</ele>
        <time>2017-01-18T08:44:43Z</time>
      </trkpt>
      <trkpt lat="43.44748" lon="6.25692">
        <ele>305.7</ele>
        <time>2017-01-18T08:44:53Z</time>
      </trkpt>
      <trkpt lat="43.44747" lon="6.25705">
        <ele>305.9</ele>
        <time>2017-01-18T08:45:01Z</time>
      </trkpt>
      <trkpt lat="43.44747" lon="6.25718">
        <ele>306</ele>
        <time>2017-01-18T08:45:09Z</time>
      </trkpt>
      <trkpt lat="43.44746" lon="6.25731">
        <ele>306.4</ele>
        <time>2017-01-18T08:45:17Z</time>
      </trkpt>
      <trkpt lat="43.44747" lon="6.25744">
        <ele>307</ele>
        <time>2017-01-18T08:45:25Z</time>
      </trkpt>
      <trkpt lat="43.44747" lon="6.25758">
        <ele>307.6</ele>
        <time>2017-01-18T08:45:34Z</time>
      </trkpt>
      <trkpt lat="43.44747" lon="6.2577">
        <ele>308.1</ele>
        <time>2017-01-18T08:45:43Z</time>
      </trkpt>
      <trkpt lat="43.4475" lon="6.25783">
        <ele>308.8</ele>
        <time>2017-01-18T08:45:54Z</time>
      </trkpt>
      <trkpt lat="43.44748" lon="6.25796">
        <ele>309.3</ele>
        <time>2017-01-18T08:46:03Z</time>
      </trkpt>
      <trkpt lat="43.44749" lon="6.25809">
        <ele>309.6</ele>
        <time>2017-01-18T08:46:12Z</time>
      </trkpt>
      <trkpt lat="43.44747" lon="6.25821">
        <ele>309.6</ele>
        <time>2017-01-18T08:46:23Z</time>
      </trkpt>
      <trkpt lat="43.44745" lon="6.25834">
        <ele>309.7</ele>
        <time>2017-01-18T08:46:33Z</time>
      </trkpt>
      <trkpt lat="43.44742" lon="6.25846">
        <ele>309.8</ele>
        <time>2017-01-18T08:46:42Z</time>
      </trkpt>
      <trkpt lat="43.44736" lon="6.25858">
        <ele>310.3</ele>
        <time>2017-01-18T08:46:52Z</time>
      </trkpt>
      <trkpt lat="43.4473" lon="6.25867">
        <ele>310.6</ele>
        <time>2017-01-18T08:47:02Z</time>
      </trkpt>
      <trkpt lat="43.44724" lon="6.25876">
        <ele>310.8</ele>
        <time>2017-01-18T08:47:12Z</time>
      </trkpt>
      <trkpt lat="43.44718" lon="6.25888">
        <ele>310.9</ele>
        <time>2017-01-18T08:47:23Z</time>
      </trkpt>
      <trkpt lat="43.44713" lon="6.25898">
        <ele>311.1</ele>
        <time>2017-01-18T08:47:32Z</time>
      </trkpt>
      <trkpt lat="43.44708" lon="6.25909">
        <ele>311.5</ele>
        <time>2017-01-18T08:47:42Z</time>
      </trkpt>
      <trkpt lat="43.44707" lon="6.25922">
        <ele>311.9</ele>
        <time>2017-01-18T08:47:53Z</time>
      </trkpt>
      <trkpt lat="43.44701" lon="6.25932">
        <ele>312.3</ele>
        <time>2017-01-18T08:48:04Z</time>
      </trkpt>
      <trkpt lat="43.44693" lon="6.2594">
        <ele>312.8</ele>
        <time>2017-01-18T08:48:15Z</time>
      </trkpt>
      <trkpt lat="43.44688" lon="6.2595">
        <ele>313.1</ele>
        <time>2017-01-18T08:48:23Z</time>
      </trkpt>
      <trkpt lat="43.44684" lon="6.25962">
        <ele>313.3</ele>
        <time>2017-01-18T08:48:31Z</time>
      </trkpt>
      <trkpt lat="43.44678" lon="6.25973">
        <ele>313.6</ele>
        <time>2017-01-18T08:48:42Z</time>
      </trkpt>
      <trkpt lat="43.4467" lon="6.25979">
        <ele>314</ele>
        <time>2017-01-18T08:48:50Z</time>
      </trkpt>
      <trkpt lat="43.44661" lon="6.25982">
        <ele>314.3</ele>
        <time>2017-01-18T08:49:01Z</time>
      </trkpt>
      <trkpt lat="43.44652" lon="6.25986">
        <ele>314.4</ele>
        <time>2017-01-18T08:49:13Z</time>
      </trkpt>
      <trkpt lat="43.44645" lon="6.25994">
        <ele>314.6</ele>
        <time>2017-01-18T08:49:22Z</time>
      </trkpt>
      <trkpt lat="43.44636" lon="6.26002">
        <ele>314.9</ele>
        <time>2017-01-18T08:49:31Z</time>
      </trkpt>
      <trkpt lat="43.44627" lon="6.26004">
        <ele>315.3</ele>
        <time>2017-01-18T08:49:43Z</time>
      </trkpt>
      <trkpt lat="43.44617" lon="6.26007">
        <ele>315.8</ele>
        <time>2017-01-18T08:49:55Z</time>
      </trkpt>
      <trkpt lat="43.44608" lon="6.26013">
        <ele>316.3</ele>
        <time>2017-01-18T08:50:03Z</time>
      </trkpt>
      <trkpt lat="43.44599" lon="6.26017">
        <ele>316.7</ele>
        <time>2017-01-18T08:50:12Z</time>
      </trkpt>
      <trkpt lat="43.44591" lon="6.26026">
        <ele>317.2</ele>
        <time>2017-01-18T08:50:21Z</time>
      </trkpt>
      <trkpt lat="43.44583" lon="6.26033">
        <ele>317.6</ele>
        <time>2017-01-18T08:50:33Z</time>
      </trkpt>
      <trkpt lat="43.44576" lon="6.2604">
        <ele>318.2</ele>
        <time>2017-01-18T08:50:42Z</time>
      </trkpt>
      <trkpt lat="43.44568" lon="6.26047">
        <ele>319</ele>
        <time>2017-01-18T08:50:53Z</time>
      </trkpt>
      <trkpt lat="43.4456" lon="6.26053">
        <ele>319.6</ele>
        <time>2017-01-18T08:51:00Z</time>
      </trkpt>
      <trkpt lat="43.44552" lon="6.26062">
        <ele>320.6</ele>
        <time>2017-01-18T08:51:11Z</time>
      </trkpt>
      <trkpt lat="43.44554" lon="6.26075">
        <ele>321.6</ele>
        <time>2017-01-18T08:51:21Z</time>
      </trkpt>
      <trkpt lat="43.44559" lon="6.26088">
        <ele>322</ele>
        <time>2017-01-18T08:51:29Z</time>
      </trkpt>
      <trkpt lat="43.44563" lon="6.26099">
        <ele>322.5</ele>
        <time>2017-01-18T08:51:40Z</time>
      </trkpt>
      <trkpt lat="43.4456" lon="6.26111">
        <ele>323.3</ele>
        <time>2017-01-18T08:51:52Z</time>
      </trkpt>
      <trkpt lat="43.44553" lon="6.26119">
        <ele>323.7</ele>
        <time>2017-01-18T08:52:02Z</time>
      </trkpt>
      <trkpt lat="43.44546" lon="6.26127">
        <ele>324.3</ele>
        <time>2017-01-18T08:52:15Z</time>
      </trkpt>
      <trkpt lat="43.44542" lon="6.26139">
        <ele>325.7</ele>
        <time>2017-01-18T08:52:29Z</time>
      </trkpt>
      <trkpt lat="43.44538" lon="6.2615">
        <ele>327</ele>
        <time>2017-01-18T08:52:40Z</time>
      </trkpt>
      <trkpt lat="43.44538" lon="6.26163">
        <ele>328.6</ele>
        <time>2017-01-18T08:52:55Z</time>
      </trkpt>
      <trkpt lat="43.44539" lon="6.26176">
        <ele>329.6</ele>
        <time>2017-01-18T08:53:07Z</time>
      </trkpt>
      <trkpt lat="43.44541" lon="6.26188">
        <ele>330.9</ele>
        <time>2017-01-18T08:53:17Z</time>
      </trkpt>
      <trkpt lat="43.4454" lon="6.26201">
        <ele>333.3</ele>
        <time>2017-01-18T08:54:16Z</time>
      </trkpt>
      <trkpt lat="43.44537" lon="6.26214">
        <ele>334.3</ele>
        <time>2017-01-18T08:54:28Z</time>
      </trkpt>
      <trkpt lat="43.44538" lon="6.26227">
        <ele>335.7</ele>
        <time>2017-01-18T08:54:39Z</time>
      </trkpt>
      <trkpt lat="43.44538" lon="6.2624">
        <ele>337.1</ele>
        <time>2017-01-18T08:54:49Z</time>
      </trkpt>
      <trkpt lat="43.44538" lon="6.26253">
        <ele>338.7</ele>
        <time>2017-01-18T08:54:59Z</time>
      </trkpt>
      <trkpt lat="43.44544" lon="6.26264">
        <ele>339.9</ele>
        <time>2017-01-18T08:55:08Z</time>
      </trkpt>
      <trkpt lat="43.44552" lon="6.26271">
        <ele>340.6</ele>
        <time>2017-01-18T08:55:17Z</time>
      </trkpt>
      <trkpt lat="43.44557" lon="6.26282">
        <ele>341.3</ele>
        <time>2017-01-18T08:55:29Z</time>
      </trkpt>
      <trkpt lat="43.44558" lon="6.26294">
        <ele>342.8</ele>
        <time>2017-01-18T08:55:48Z</time>
      </trkpt>
      <trkpt lat="43.4456" lon="6.26307">
        <ele>344.1</ele>
        <time>2017-01-18T08:56:01Z</time>
      </trkpt>
      <trkpt lat="43.44563" lon="6.26319">
        <ele>345.3</ele>
        <time>2017-01-18T08:56:15Z</time>
      </trkpt>
      <trkpt lat="43.44568" lon="6.26329">
        <ele>346.6</ele>
        <time>2017-01-18T08:57:08Z</time>
      </trkpt>
      <trkpt lat="43.44575" lon="6.26339">
        <ele>346.7</ele>
        <time>2017-01-18T08:57:18Z</time>
      </trkpt>
      <trkpt lat="43.44581" lon="6.26349">
        <ele>346.6</ele>
        <time>2017-01-18T08:57:28Z</time>
      </trkpt>
      <trkpt lat="43.4459" lon="6.26353">
        <ele>346.3</ele>
        <time>2017-01-18T08:57:47Z</time>
      </trkpt>
      <trkpt lat="43.44591" lon="6.26365">
        <ele>345.3</ele>
        <time>2017-01-18T08:58:19Z</time>
      </trkpt>
      <trkpt lat="43.44584" lon="6.26375">
        <ele>344.8</ele>
        <time>2017-01-18T08:58:44Z</time>
      </trkpt>
      <trkpt lat="43.44591" lon="6.26366">
        <ele>344.8</ele>
        <time>2017-01-18T09:01:35Z</time>
      </trkpt>
      <trkpt lat="43.44598" lon="6.26357">
        <ele>350.1</ele>
        <time>2017-01-18T09:02:42Z</time>
      </trkpt>
      <trkpt lat="43.44592" lon="6.26348">
        <ele>346.3</ele>
        <time>2017-01-18T09:04:21Z</time>
      </trkpt>
      <trkpt lat="43.44588" lon="6.26336">
        <ele>346.6</ele>
        <time>2017-01-18T09:04:57Z</time>
      </trkpt>
      <trkpt lat="43.44583" lon="6.26325">
        <ele>346.6</ele>
        <time>2017-01-18T09:05:07Z</time>
      </trkpt>
      <trkpt lat="43.44573" lon="6.2632">
        <ele>346.5</ele>
        <time>2017-01-18T09:05:16Z</time>
      </trkpt>
      <trkpt lat="43.44564" lon="6.26318">
        <ele>346.5</ele>
        <time>2017-01-18T09:05:25Z</time>
      </trkpt>
      <trkpt lat="43.44555" lon="6.26317">
        <ele>346.8</ele>
        <time>2017-01-18T09:05:34Z</time>
      </trkpt>
      <trkpt lat="43.44546" lon="6.26315">
        <ele>347.3</ele>
        <time>2017-01-18T09:05:44Z</time>
      </trkpt>
      <trkpt lat="43.44536" lon="6.26313">
        <ele>348</ele>
        <time>2017-01-18T09:05:51Z</time>
      </trkpt>
      <trkpt lat="43.44526" lon="6.26312">
        <ele>348.1</ele>
        <time>2017-01-18T09:06:00Z</time>
      </trkpt>
      <trkpt lat="43.44517" lon="6.26308">
        <ele>348.3</ele>
        <time>2017-01-18T09:06:11Z</time>
      </trkpt>
      <trkpt lat="43.44507" lon="6.26303">
        <ele>348.8</ele>
        <time>2017-01-18T09:06:20Z</time>
      </trkpt>
      <trkpt lat="43.44498" lon="6.263">
        <ele>349.4</ele>
        <time>2017-01-18T09:06:28Z</time>
      </trkpt>
      <trkpt lat="43.44488" lon="6.26295">
        <ele>349.8</ele>
        <time>2017-01-18T09:06:37Z</time>
      </trkpt>
      <trkpt lat="43.44479" lon="6.26292">
        <ele>350.2</ele>
        <time>2017-01-18T09:06:47Z</time>
      </trkpt>
      <trkpt lat="43.44469" lon="6.2629">
        <ele>350.7</ele>
        <time>2017-01-18T09:06:56Z</time>
      </trkpt>
      <trkpt lat="43.4446" lon="6.26289">
        <ele>351.1</ele>
        <time>2017-01-18T09:07:06Z</time>
      </trkpt>
      <trkpt lat="43.4445" lon="6.26285">
        <ele>351.4</ele>
        <time>2017-01-18T09:07:14Z</time>
      </trkpt>
      <trkpt lat="43.44441" lon="6.26282">
        <ele>351.6</ele>
        <time>2017-01-18T09:07:20Z</time>
      </trkpt>
      <trkpt lat="43.44432" lon="6.26278">
        <ele>351.8</ele>
        <time>2017-01-18T09:07:28Z</time>
      </trkpt>
      <trkpt lat="43.44423" lon="6.26274">
        <ele>352.3</ele>
        <time>2017-01-18T09:07:40Z</time>
      </trkpt>
      <trkpt lat="43.44414" lon="6.2627">
        <ele>353.1</ele>
        <time>2017-01-18T09:07:51Z</time>
      </trkpt>
      <trkpt lat="43.44405" lon="6.26269">
        <ele>354.1</ele>
        <time>2017-01-18T09:08:01Z</time>
      </trkpt>
      <trkpt lat="43.44396" lon="6.26272">
        <ele>355.1</ele>
        <time>2017-01-18T09:08:11Z</time>
      </trkpt>
      <trkpt lat="43.4439" lon="6.26282">
        <ele>357.1</ele>
        <time>2017-01-18T09:08:28Z</time>
      </trkpt>
      <trkpt lat="43.4439" lon="6.26295">
        <ele>358.7</ele>
        <time>2017-01-18T09:08:39Z</time>
      </trkpt>
      <trkpt lat="43.44389" lon="6.26309">
        <ele>360.2</ele>
        <time>2017-01-18T09:08:49Z</time>
      </trkpt>
      <trkpt lat="43.44387" lon="6.26322">
        <ele>361.2</ele>
        <time>2017-01-18T09:09:00Z</time>
      </trkpt>
      <trkpt lat="43.44385" lon="6.26335">
        <ele>361.9</ele>
        <time>2017-01-18T09:09:09Z</time>
      </trkpt>
      <trkpt lat="43.44386" lon="6.26347">
        <ele>362.9</ele>
        <time>2017-01-18T09:09:20Z</time>
      </trkpt>
      <trkpt lat="43.4439" lon="6.26359">
        <ele>364</ele>
        <time>2017-01-18T09:09:33Z</time>
      </trkpt>
      <trkpt lat="43.44393" lon="6.26372">
        <ele>364.9</ele>
        <time>2017-01-18T09:09:41Z</time>
      </trkpt>
      <trkpt lat="43.44396" lon="6.26384">
        <ele>365.5</ele>
        <time>2017-01-18T09:09:49Z</time>
      </trkpt>
      <trkpt lat="43.44397" lon="6.26398">
        <ele>365.7</ele>
        <time>2017-01-18T09:09:57Z</time>
      </trkpt>
      <trkpt lat="43.44398" lon="6.2641">
        <ele>365.8</ele>
        <time>2017-01-18T09:10:05Z</time>
      </trkpt>
      <trkpt lat="43.44398" lon="6.26423">
        <ele>365.8</ele>
        <time>2017-01-18T09:10:13Z</time>
      </trkpt>
      <trkpt lat="43.444" lon="6.26437">
        <ele>365.8</ele>
        <time>2017-01-18T09:10:21Z</time>
      </trkpt>
      <trkpt lat="43.44402" lon="6.2645">
        <ele>365.9</ele>
        <time>2017-01-18T09:10:30Z</time>
      </trkpt>
      <trkpt lat="43.44403" lon="6.26464">
        <ele>366</ele>
        <time>2017-01-18T09:10:39Z</time>
      </trkpt>
      <trkpt lat="43.44401" lon="6.26477">
        <ele>366.1</ele>
        <time>2017-01-18T09:10:48Z</time>
      </trkpt>
      <trkpt lat="43.44397" lon="6.26489">
        <ele>366.7</ele>
        <time>2017-01-18T09:10:59Z</time>
      </trkpt>
      <trkpt lat="43.44395" lon="6.26501">
        <ele>367.5</ele>
        <time>2017-01-18T09:11:09Z</time>
      </trkpt>
      <trkpt lat="43.44391" lon="6.26514">
        <ele>368</ele>
        <time>2017-01-18T09:11:16Z</time>
      </trkpt>
      <trkpt lat="43.44392" lon="6.26527">
        <ele>368.4</ele>
        <time>2017-01-18T09:11:24Z</time>
      </trkpt>
      <trkpt lat="43.44391" lon="6.2654">
        <ele>368.6</ele>
        <time>2017-01-18T09:11:31Z</time>
      </trkpt>
      <trkpt lat="43.44392" lon="6.26553">
        <ele>368.7</ele>
        <time>2017-01-18T09:11:39Z</time>
      </trkpt>
      <trkpt lat="43.44389" lon="6.26567">
        <ele>368.8</ele>
        <time>2017-01-18T09:11:46Z</time>
      </trkpt>
      <trkpt lat="43.44389" lon="6.26582">
        <ele>369.1</ele>
        <time>2017-01-18T09:11:55Z</time>
      </trkpt>
      <trkpt lat="43.4439" lon="6.26596">
        <ele>369.4</ele>
        <time>2017-01-18T09:12:04Z</time>
      </trkpt>
      <trkpt lat="43.44391" lon="6.26609">
        <ele>369.7</ele>
        <time>2017-01-18T09:12:13Z</time>
      </trkpt>
      <trkpt lat="43.44388" lon="6.26622">
        <ele>369.9</ele>
        <time>2017-01-18T09:12:20Z</time>
      </trkpt>
      <trkpt lat="43.44388" lon="6.26635">
        <ele>370.4</ele>
        <time>2017-01-18T09:12:30Z</time>
      </trkpt>
      <trkpt lat="43.44389" lon="6.26648">
        <ele>370.7</ele>
        <time>2017-01-18T09:12:39Z</time>
      </trkpt>
      <trkpt lat="43.4439" lon="6.2666">
        <ele>371.4</ele>
        <time>2017-01-18T09:12:48Z</time>
      </trkpt>
      <trkpt lat="43.4439" lon="6.26674">
        <ele>371.9</ele>
        <time>2017-01-18T09:12:57Z</time>
      </trkpt>
      <trkpt lat="43.4439" lon="6.26687">
        <ele>372.1</ele>
        <time>2017-01-18T09:13:04Z</time>
      </trkpt>
      <trkpt lat="43.44389" lon="6.267">
        <ele>372.2</ele>
        <time>2017-01-18T09:13:13Z</time>
      </trkpt>
      <trkpt lat="43.44386" lon="6.26713">
        <ele>372.3</ele>
        <time>2017-01-18T09:13:23Z</time>
      </trkpt>
      <trkpt lat="43.44385" lon="6.26726">
        <ele>372.3</ele>
        <time>2017-01-18T09:13:31Z</time>
      </trkpt>
      <trkpt lat="43.44382" lon="6.26738">
        <ele>372.3</ele>
        <time>2017-01-18T09:13:40Z</time>
      </trkpt>
      <trkpt lat="43.44377" lon="6.26749">
        <ele>371.8</ele>
        <time>2017-01-18T09:13:49Z</time>
      </trkpt>
      <trkpt lat="43.44372" lon="6.26762">
        <ele>371.3</ele>
        <time>2017-01-18T09:13:58Z</time>
      </trkpt>
      <trkpt lat="43.44367" lon="6.26771">
        <ele>371.1</ele>
        <time>2017-01-18T09:14:07Z</time>
      </trkpt>
      <trkpt lat="43.44361" lon="6.26782">
        <ele>370.7</ele>
        <time>2017-01-18T09:14:15Z</time>
      </trkpt>
      <trkpt lat="43.44357" lon="6.26795">
        <ele>370.7</ele>
        <time>2017-01-18T09:14:23Z</time>
      </trkpt>
      <trkpt lat="43.44352" lon="6.26806">
        <ele>370.7</ele>
        <time>2017-01-18T09:14:31Z</time>
      </trkpt>
      <trkpt lat="43.44348" lon="6.26818">
        <ele>370.5</ele>
        <time>2017-01-18T09:14:39Z</time>
      </trkpt>
      <trkpt lat="43.44343" lon="6.26828">
        <ele>370.2</ele>
        <time>2017-01-18T09:14:47Z</time>
      </trkpt>
      <trkpt lat="43.4434" lon="6.26841">
        <ele>370</ele>
        <time>2017-01-18T09:14:55Z</time>
      </trkpt>
      <trkpt lat="43.44338" lon="6.26854">
        <ele>369.9</ele>
        <time>2017-01-18T09:15:03Z</time>
      </trkpt>
      <trkpt lat="43.44334" lon="6.26866">
        <ele>369.8</ele>
        <time>2017-01-18T09:15:12Z</time>
      </trkpt>
      <trkpt lat="43.44329" lon="6.26877">
        <ele>369.8</ele>
        <time>2017-01-18T09:15:20Z</time>
      </trkpt>
      <trkpt lat="43.44325" lon="6.2689">
        <ele>369.8</ele>
        <time>2017-01-18T09:15:29Z</time>
      </trkpt>
      <trkpt lat="43.44322" lon="6.26902">
        <ele>370</ele>
        <time>2017-01-18T09:15:38Z</time>
      </trkpt>
      <trkpt lat="43.44318" lon="6.26915">
        <ele>370.1</ele>
        <time>2017-01-18T09:15:46Z</time>
      </trkpt>
      <trkpt lat="43.44314" lon="6.26928">
        <ele>370.2</ele>
        <time>2017-01-18T09:15:54Z</time>
      </trkpt>
      <trkpt lat="43.44311" lon="6.2694">
        <ele>370.3</ele>
        <time>2017-01-18T09:16:01Z</time>
      </trkpt>
      <trkpt lat="43.44307" lon="6.26951">
        <ele>370.2</ele>
        <time>2017-01-18T09:16:08Z</time>
      </trkpt>
      <trkpt lat="43.44302" lon="6.26963">
        <ele>370</ele>
        <time>2017-01-18T09:16:16Z</time>
      </trkpt>
      <trkpt lat="43.44296" lon="6.26973">
        <ele>369.7</ele>
        <time>2017-01-18T09:16:24Z</time>
      </trkpt>
      <trkpt lat="43.44293" lon="6.26987">
        <ele>369.3</ele>
        <time>2017-01-18T09:16:32Z</time>
      </trkpt>
      <trkpt lat="43.4429" lon="6.27">
        <ele>369.1</ele>
        <time>2017-01-18T09:16:40Z</time>
      </trkpt>
      <trkpt lat="43.44286" lon="6.27011">
        <ele>369</ele>
        <time>2017-01-18T09:16:48Z</time>
      </trkpt>
      <trkpt lat="43.44284" lon="6.27024">
        <ele>368.6</ele>
        <time>2017-01-18T09:16:57Z</time>
      </trkpt>
      <trkpt lat="43.4428" lon="6.27036">
        <ele>368.2</ele>
        <time>2017-01-18T09:17:05Z</time>
      </trkpt>
      <trkpt lat="43.44278" lon="6.27049">
        <ele>367.7</ele>
        <time>2017-01-18T09:17:13Z</time>
      </trkpt>
      <trkpt lat="43.44275" lon="6.27061">
        <ele>367.4</ele>
        <time>2017-01-18T09:17:20Z</time>
      </trkpt>
      <trkpt lat="43.44271" lon="6.27073">
        <ele>366.5</ele>
        <time>2017-01-18T09:17:30Z</time>
      </trkpt>
      <trkpt lat="43.44269" lon="6.27086">
        <ele>366.3</ele>
        <time>2017-01-18T09:17:37Z</time>
      </trkpt>
      <trkpt lat="43.44264" lon="6.27098">
        <ele>366.3</ele>
        <time>2017-01-18T09:17:46Z</time>
      </trkpt>
      <trkpt lat="43.4426" lon="6.27111">
        <ele>366.4</ele>
        <time>2017-01-18T09:17:55Z</time>
      </trkpt>
      <trkpt lat="43.44256" lon="6.27123">
        <ele>366.6</ele>
        <time>2017-01-18T09:18:03Z</time>
      </trkpt>
      <trkpt lat="43.44252" lon="6.27136">
        <ele>366.6</ele>
        <time>2017-01-18T09:18:11Z</time>
      </trkpt>
      <trkpt lat="43.44251" lon="6.27148">
        <ele>366.6</ele>
        <time>2017-01-18T09:18:19Z</time>
      </trkpt>
      <trkpt lat="43.44246" lon="6.27159">
        <ele>366.5</ele>
        <time>2017-01-18T09:18:27Z</time>
      </trkpt>
      <trkpt lat="43.44241" lon="6.2717">
        <ele>366.4</ele>
        <time>2017-01-18T09:18:35Z</time>
      </trkpt>
      <trkpt lat="43.44237" lon="6.27182">
        <ele>366.3</ele>
        <time>2017-01-18T09:18:44Z</time>
      </trkpt>
      <trkpt lat="43.44231" lon="6.27192">
        <ele>366.1</ele>
        <time>2017-01-18T09:18:52Z</time>
      </trkpt>
      <trkpt lat="43.44227" lon="6.27205">
        <ele>365.8</ele>
        <time>2017-01-18T09:18:59Z</time>
      </trkpt>
      <trkpt lat="43.44223" lon="6.27216">
        <ele>365.3</ele>
        <time>2017-01-18T09:19:07Z</time>
      </trkpt>
      <trkpt lat="43.44221" lon="6.27229">
        <ele>364.7</ele>
        <time>2017-01-18T09:19:16Z</time>
      </trkpt>
      <trkpt lat="43.44215" lon="6.27239">
        <ele>364.2</ele>
        <time>2017-01-18T09:19:25Z</time>
      </trkpt>
      <trkpt lat="43.44209" lon="6.2725">
        <ele>363.9</ele>
        <time>2017-01-18T09:19:33Z</time>
      </trkpt>
      <trkpt lat="43.44202" lon="6.27261">
        <ele>363.2</ele>
        <time>2017-01-18T09:19:42Z</time>
      </trkpt>
      <trkpt lat="43.44196" lon="6.2727">
        <ele>362.5</ele>
        <time>2017-01-18T09:19:52Z</time>
      </trkpt>
      <trkpt lat="43.44189" lon="6.27279">
        <ele>361.3</ele>
        <time>2017-01-18T09:20:02Z</time>
      </trkpt>
      <trkpt lat="43.44181" lon="6.27287">
        <ele>360.2</ele>
        <time>2017-01-18T09:20:12Z</time>
      </trkpt>
      <trkpt lat="43.44172" lon="6.27293">
        <ele>359.4</ele>
        <time>2017-01-18T09:20:20Z</time>
      </trkpt>
      <trkpt lat="43.44166" lon="6.27301">
        <ele>358.6</ele>
        <time>2017-01-18T09:20:28Z</time>
      </trkpt>
      <trkpt lat="43.44159" lon="6.2731">
        <ele>357.7</ele>
        <time>2017-01-18T09:20:35Z</time>
      </trkpt>
      <trkpt lat="43.44153" lon="6.27321">
        <ele>356.9</ele>
        <time>2017-01-18T09:20:42Z</time>
      </trkpt>
      <trkpt lat="43.44151" lon="6.27334">
        <ele>355.5</ele>
        <time>2017-01-18T09:20:53Z</time>
      </trkpt>
      <trkpt lat="43.44149" lon="6.27347">
        <ele>354.5</ele>
        <time>2017-01-18T09:21:01Z</time>
      </trkpt>
      <trkpt lat="43.44144" lon="6.27359">
        <ele>353.9</ele>
        <time>2017-01-18T09:21:10Z</time>
      </trkpt>
      <trkpt lat="43.44139" lon="6.27369">
        <ele>353.3</ele>
        <time>2017-01-18T09:21:19Z</time>
      </trkpt>
      <trkpt lat="43.44135" lon="6.27381">
        <ele>352.9</ele>
        <time>2017-01-18T09:21:27Z</time>
      </trkpt>
      <trkpt lat="43.44128" lon="6.27391">
        <ele>352.6</ele>
        <time>2017-01-18T09:21:35Z</time>
      </trkpt>
      <trkpt lat="43.44119" lon="6.27398">
        <ele>352.3</ele>
        <time>2017-01-18T09:21:42Z</time>
      </trkpt>
      <trkpt lat="43.44113" lon="6.2741">
        <ele>351.8</ele>
        <time>2017-01-18T09:21:51Z</time>
      </trkpt>
      <trkpt lat="43.44108" lon="6.2742">
        <ele>351.3</ele>
        <time>2017-01-18T09:21:59Z</time>
      </trkpt>
      <trkpt lat="43.44099" lon="6.27426">
        <ele>350.9</ele>
        <time>2017-01-18T09:22:08Z</time>
      </trkpt>
      <trkpt lat="43.44091" lon="6.2743">
        <ele>350.5</ele>
        <time>2017-01-18T09:22:17Z</time>
      </trkpt>
      <trkpt lat="43.44083" lon="6.27438">
        <ele>349.8</ele>
        <time>2017-01-18T09:22:26Z</time>
      </trkpt>
      <trkpt lat="43.44076" lon="6.27447">
        <ele>349.2</ele>
        <time>2017-01-18T09:22:34Z</time>
      </trkpt>
      <trkpt lat="43.44069" lon="6.27457">
        <ele>349.2</ele>
        <time>2017-01-18T09:22:43Z</time>
      </trkpt>
      <trkpt lat="43.44062" lon="6.27464">
        <ele>348.5</ele>
        <time>2017-01-18T09:22:54Z</time>
      </trkpt>
      <trkpt lat="43.44052" lon="6.27465">
        <ele>348.1</ele>
        <time>2017-01-18T09:23:04Z</time>
      </trkpt>
      <trkpt lat="43.44043" lon="6.27466">
        <ele>347.5</ele>
        <time>2017-01-18T09:23:11Z</time>
      </trkpt>
      <trkpt lat="43.44034" lon="6.27469">
        <ele>346.8</ele>
        <time>2017-01-18T09:23:19Z</time>
      </trkpt>
      <trkpt lat="43.44026" lon="6.27477">
        <ele>346.3</ele>
        <time>2017-01-18T09:23:27Z</time>
      </trkpt>
      <trkpt lat="43.44018" lon="6.27483">
        <ele>345.7</ele>
        <time>2017-01-18T09:23:34Z</time>
      </trkpt>
      <trkpt lat="43.4401" lon="6.27491">
        <ele>345.1</ele>
        <time>2017-01-18T09:23:43Z</time>
      </trkpt>
      <trkpt lat="43.44002" lon="6.27496">
        <ele>344.3</ele>
        <time>2017-01-18T09:23:51Z</time>
      </trkpt>
      <trkpt lat="43.43993" lon="6.275">
        <ele>343.2</ele>
        <time>2017-01-18T09:24:00Z</time>
      </trkpt>
      <trkpt lat="43.43986" lon="6.2751">
        <ele>342.4</ele>
        <time>2017-01-18T09:24:10Z</time>
      </trkpt>
      <trkpt lat="43.43977" lon="6.27516">
        <ele>341.6</ele>
        <time>2017-01-18T09:24:19Z</time>
      </trkpt>
      <trkpt lat="43.43969" lon="6.27522">
        <ele>341.1</ele>
        <time>2017-01-18T09:24:28Z</time>
      </trkpt>
      <trkpt lat="43.43964" lon="6.27532">
        <ele>340.4</ele>
        <time>2017-01-18T09:24:36Z</time>
      </trkpt>
      <trkpt lat="43.43961" lon="6.27545">
        <ele>339.7</ele>
        <time>2017-01-18T09:24:44Z</time>
      </trkpt>
      <trkpt lat="43.43958" lon="6.27558">
        <ele>339.1</ele>
        <time>2017-01-18T09:24:52Z</time>
      </trkpt>
      <trkpt lat="43.43954" lon="6.2757">
        <ele>338.6</ele>
        <time>2017-01-18T09:25:02Z</time>
      </trkpt>
      <trkpt lat="43.43947" lon="6.27579">
        <ele>338.1</ele>
        <time>2017-01-18T09:25:10Z</time>
      </trkpt>
      <trkpt lat="43.4394" lon="6.27588">
        <ele>337.3</ele>
        <time>2017-01-18T09:25:20Z</time>
      </trkpt>
      <trkpt lat="43.43935" lon="6.276">
        <ele>336.9</ele>
        <time>2017-01-18T09:25:30Z</time>
      </trkpt>
      <trkpt lat="43.43934" lon="6.27614">
        <ele>336.7</ele>
        <time>2017-01-18T09:25:37Z</time>
      </trkpt>
      <trkpt lat="43.43932" lon="6.27627">
        <ele>336.4</ele>
        <time>2017-01-18T09:25:45Z</time>
      </trkpt>
      <trkpt lat="43.43931" lon="6.27641">
        <ele>335.9</ele>
        <time>2017-01-18T09:25:55Z</time>
      </trkpt>
      <trkpt lat="43.43927" lon="6.27653">
        <ele>335.6</ele>
        <time>2017-01-18T09:26:03Z</time>
      </trkpt>
      <trkpt lat="43.43925" lon="6.27665">
        <ele>335.2</ele>
        <time>2017-01-18T09:26:11Z</time>
      </trkpt>
      <trkpt lat="43.43922" lon="6.27677">
        <ele>334.8</ele>
        <time>2017-01-18T09:26:19Z</time>
      </trkpt>
      <trkpt lat="43.43919" lon="6.27689">
        <ele>334.5</ele>
        <time>2017-01-18T09:26:29Z</time>
      </trkpt>
      <trkpt lat="43.43915" lon="6.277">
        <ele>334.1</ele>
        <time>2017-01-18T09:26:39Z</time>
      </trkpt>
      <trkpt lat="43.43911" lon="6.27713">
        <ele>333.7</ele>
        <time>2017-01-18T09:26:47Z</time>
      </trkpt>
      <trkpt lat="43.43905" lon="6.27722">
        <ele>333.3</ele>
        <time>2017-01-18T09:26:55Z</time>
      </trkpt>
      <trkpt lat="43.43901" lon="6.27735">
        <ele>333</ele>
        <time>2017-01-18T09:27:01Z</time>
      </trkpt>
      <trkpt lat="43.43903" lon="6.27747">
        <ele>333</ele>
        <time>2017-01-18T09:27:10Z</time>
      </trkpt>
      <trkpt lat="43.43907" lon="6.27759">
        <ele>333.2</ele>
        <time>2017-01-18T09:27:18Z</time>
      </trkpt>
      <trkpt lat="43.43914" lon="6.27767">
        <ele>333.6</ele>
        <time>2017-01-18T09:27:30Z</time>
      </trkpt>
      <trkpt lat="43.43923" lon="6.27771">
        <ele>334</ele>
        <time>2017-01-18T09:27:36Z</time>
      </trkpt>
      <trkpt lat="43.43932" lon="6.27777">
        <ele>334.7</ele>
        <time>2017-01-18T09:27:44Z</time>
      </trkpt>
      <trkpt lat="43.43936" lon="6.27788">
        <ele>335.4</ele>
        <time>2017-01-18T09:27:52Z</time>
      </trkpt>
      <trkpt lat="43.43943" lon="6.27798">
        <ele>337.2</ele>
        <time>2017-01-18T09:28:05Z</time>
      </trkpt>
      <trkpt lat="43.43951" lon="6.27805">
        <ele>337.9</ele>
        <time>2017-01-18T09:28:14Z</time>
      </trkpt>
      <trkpt lat="43.43958" lon="6.27815">
        <ele>338.7</ele>
        <time>2017-01-18T09:28:24Z</time>
      </trkpt>
      <trkpt lat="43.43966" lon="6.27818">
        <ele>339.8</ele>
        <time>2017-01-18T09:28:34Z</time>
      </trkpt>
      <trkpt lat="43.43975" lon="6.27826">
        <ele>340.9</ele>
        <time>2017-01-18T09:28:46Z</time>
      </trkpt>
      <trkpt lat="43.43983" lon="6.27833">
        <ele>341.8</ele>
        <time>2017-01-18T09:28:56Z</time>
      </trkpt>
      <trkpt lat="43.43992" lon="6.27841">
        <ele>343.1</ele>
        <time>2017-01-18T09:29:07Z</time>
      </trkpt>
      <trkpt lat="43.44001" lon="6.27844">
        <ele>345.2</ele>
        <time>2017-01-18T09:29:30Z</time>
      </trkpt>
      <trkpt lat="43.44006" lon="6.27856">
        <ele>346.3</ele>
        <time>2017-01-18T09:30:13Z</time>
      </trkpt>
      <trkpt lat="43.44014" lon="6.27863">
        <ele>346.8</ele>
        <time>2017-01-18T09:30:23Z</time>
      </trkpt>
      <trkpt lat="43.4402" lon="6.27873">
        <ele>347</ele>
        <time>2017-01-18T09:30:33Z</time>
      </trkpt>
      <trkpt lat="43.44013" lon="6.27865">
        <ele>346.3</ele>
        <time>2017-01-18T09:31:52Z</time>
      </trkpt>
      <trkpt lat="43.44005" lon="6.27857">
        <ele>346.5</ele>
        <time>2017-01-18T09:32:00Z</time>
      </trkpt>
      <trkpt lat="43.43996" lon="6.27856">
        <ele>346.6</ele>
        <time>2017-01-18T09:32:08Z</time>
      </trkpt>
      <trkpt lat="43.43988" lon="6.27862">
        <ele>345.8</ele>
        <time>2017-01-18T09:32:18Z</time>
      </trkpt>
      <trkpt lat="43.43979" lon="6.27859">
        <ele>344.4</ele>
        <time>2017-01-18T09:32:30Z</time>
      </trkpt>
      <trkpt lat="43.43969" lon="6.27858">
        <ele>343.2</ele>
        <time>2017-01-18T09:32:41Z</time>
      </trkpt>
      <trkpt lat="43.43959" lon="6.27861">
        <ele>342</ele>
        <time>2017-01-18T09:32:52Z</time>
      </trkpt>
      <trkpt lat="43.4395" lon="6.27863">
        <ele>341.1</ele>
        <time>2017-01-18T09:33:01Z</time>
      </trkpt>
      <trkpt lat="43.43941" lon="6.2786">
        <ele>339.9</ele>
        <time>2017-01-18T09:33:11Z</time>
      </trkpt>
      <trkpt lat="43.43936" lon="6.27871">
        <ele>339</ele>
        <time>2017-01-18T09:33:21Z</time>
      </trkpt>
      <trkpt lat="43.43937" lon="6.27884">
        <ele>338.3</ele>
        <time>2017-01-18T09:33:31Z</time>
      </trkpt>
      <trkpt lat="43.4393" lon="6.27891">
        <ele>337.5</ele>
        <time>2017-01-18T09:33:39Z</time>
      </trkpt>
      <trkpt lat="43.4393" lon="6.27904">
        <ele>336.6</ele>
        <time>2017-01-18T09:33:53Z</time>
      </trkpt>
      <trkpt lat="43.43927" lon="6.27917">
        <ele>335.3</ele>
        <time>2017-01-18T09:34:03Z</time>
      </trkpt>
      <trkpt lat="43.43925" lon="6.2793">
        <ele>334.6</ele>
        <time>2017-01-18T09:34:12Z</time>
      </trkpt>
      <trkpt lat="43.4392" lon="6.27942">
        <ele>334.4</ele>
        <time>2017-01-18T09:34:23Z</time>
      </trkpt>
      <trkpt lat="43.43915" lon="6.27954">
        <ele>334.8</ele>
        <time>2017-01-18T09:34:31Z</time>
      </trkpt>
      <trkpt lat="43.43912" lon="6.27966">
        <ele>335.1</ele>
        <time>2017-01-18T09:34:38Z</time>
      </trkpt>
      <trkpt lat="43.43913" lon="6.27978">
        <ele>335.3</ele>
        <time>2017-01-18T09:34:48Z</time>
      </trkpt>
      <trkpt lat="43.43914" lon="6.27991">
        <ele>335.4</ele>
        <time>2017-01-18T09:34:59Z</time>
      </trkpt>
      <trkpt lat="43.43918" lon="6.28003">
        <ele>335.4</ele>
        <time>2017-01-18T09:35:06Z</time>
      </trkpt>
      <trkpt lat="43.43925" lon="6.28012">
        <ele>335.4</ele>
        <time>2017-01-18T09:35:15Z</time>
      </trkpt>
      <trkpt lat="43.43929" lon="6.28024">
        <ele>334.6</ele>
        <time>2017-01-18T09:35:25Z</time>
      </trkpt>
      <trkpt lat="43.43932" lon="6.28038">
        <ele>333.8</ele>
        <time>2017-01-18T09:35:34Z</time>
      </trkpt>
      <trkpt lat="43.43931" lon="6.2805">
        <ele>333.1</ele>
        <time>2017-01-18T09:35:43Z</time>
      </trkpt>
      <trkpt lat="43.43932" lon="6.28063">
        <ele>332.8</ele>
        <time>2017-01-18T09:35:52Z</time>
      </trkpt>
      <trkpt lat="43.43931" lon="6.28076">
        <ele>333</ele>
        <time>2017-01-18T09:36:03Z</time>
      </trkpt>
      <trkpt lat="43.43931" lon="6.28088">
        <ele>333.4</ele>
        <time>2017-01-18T09:36:11Z</time>
      </trkpt>
      <trkpt lat="43.43931" lon="6.28101">
        <ele>334.1</ele>
        <time>2017-01-18T09:36:22Z</time>
      </trkpt>
      <trkpt lat="43.43938" lon="6.28112">
        <ele>334.8</ele>
        <time>2017-01-18T09:36:30Z</time>
      </trkpt>
      <trkpt lat="43.43938" lon="6.28125">
        <ele>335.5</ele>
        <time>2017-01-18T09:36:39Z</time>
      </trkpt>
      <trkpt lat="43.43936" lon="6.28138">
        <ele>336.4</ele>
        <time>2017-01-18T09:36:52Z</time>
      </trkpt>
      <trkpt lat="43.43937" lon="6.2815">
        <ele>337.3</ele>
        <time>2017-01-18T09:37:09Z</time>
      </trkpt>
      <trkpt lat="43.43939" lon="6.28163">
        <ele>338.2</ele>
        <time>2017-01-18T09:37:20Z</time>
      </trkpt>
      <trkpt lat="43.43944" lon="6.28174">
        <ele>338.6</ele>
        <time>2017-01-18T09:37:28Z</time>
      </trkpt>
      <trkpt lat="43.4394" lon="6.28187">
        <ele>339.1</ele>
        <time>2017-01-18T09:37:37Z</time>
      </trkpt>
      <trkpt lat="43.43941" lon="6.282">
        <ele>339.5</ele>
        <time>2017-01-18T09:37:46Z</time>
      </trkpt>
      <trkpt lat="43.43934" lon="6.28208">
        <ele>340.4</ele>
        <time>2017-01-18T09:37:55Z</time>
      </trkpt>
      <trkpt lat="43.43933" lon="6.28222">
        <ele>341.4</ele>
        <time>2017-01-18T09:38:03Z</time>
      </trkpt>
      <trkpt lat="43.43931" lon="6.28234">
        <ele>342.8</ele>
        <time>2017-01-18T09:38:15Z</time>
      </trkpt>
      <trkpt lat="43.43928" lon="6.28246">
        <ele>344.2</ele>
        <time>2017-01-18T09:38:25Z</time>
      </trkpt>
      <trkpt lat="43.43927" lon="6.28259">
        <ele>345.5</ele>
        <time>2017-01-18T09:38:39Z</time>
      </trkpt>
      <trkpt lat="43.43926" lon="6.28272">
        <ele>346.9</ele>
        <time>2017-01-18T09:38:55Z</time>
      </trkpt>
      <trkpt lat="43.43924" lon="6.28286">
        <ele>348.2</ele>
        <time>2017-01-18T09:39:07Z</time>
      </trkpt>
      <trkpt lat="43.43925" lon="6.28298">
        <ele>349.2</ele>
        <time>2017-01-18T09:39:18Z</time>
      </trkpt>
      <trkpt lat="43.43926" lon="6.28311">
        <ele>350.4</ele>
        <time>2017-01-18T09:39:33Z</time>
      </trkpt>
      <trkpt lat="43.43919" lon="6.2832">
        <ele>352.6</ele>
        <time>2017-01-18T09:41:14Z</time>
      </trkpt>
      <trkpt lat="43.43928" lon="6.2832">
        <ele>352.5</ele>
        <time>2017-01-18T09:47:43Z</time>
      </trkpt>
      <trkpt lat="43.43922" lon="6.28328">
        <ele>351.6</ele>
        <time>2017-01-18T09:48:11Z</time>
      </trkpt>
      <trkpt lat="43.4392" lon="6.28341">
        <ele>352</ele>
        <time>2017-01-18T09:48:22Z</time>
      </trkpt>
      <trkpt lat="43.4392" lon="6.28354">
        <ele>352.3</ele>
        <time>2017-01-18T09:48:31Z</time>
      </trkpt>
      <trkpt lat="43.4392" lon="6.28366">
        <ele>352.9</ele>
        <time>2017-01-18T09:48:47Z</time>
      </trkpt>
      <trkpt lat="43.43918" lon="6.2838">
        <ele>353.1</ele>
        <time>2017-01-18T09:48:58Z</time>
      </trkpt>
      <trkpt lat="43.43917" lon="6.28392">
        <ele>352.9</ele>
        <time>2017-01-18T09:49:07Z</time>
      </trkpt>
      <trkpt lat="43.43915" lon="6.28404">
        <ele>352.1</ele>
        <time>2017-01-18T09:49:22Z</time>
      </trkpt>
      <trkpt lat="43.43914" lon="6.28418">
        <ele>350.7</ele>
        <time>2017-01-18T09:49:38Z</time>
      </trkpt>
      <trkpt lat="43.43909" lon="6.28431">
        <ele>350.1</ele>
        <time>2017-01-18T09:49:47Z</time>
      </trkpt>
      <trkpt lat="43.43906" lon="6.28443">
        <ele>349.8</ele>
        <time>2017-01-18T09:49:55Z</time>
      </trkpt>
      <trkpt lat="43.43902" lon="6.28457">
        <ele>349.4</ele>
        <time>2017-01-18T09:50:05Z</time>
      </trkpt>
      <trkpt lat="43.43899" lon="6.28469">
        <ele>349.3</ele>
        <time>2017-01-18T09:50:10Z</time>
      </trkpt>
      <trkpt lat="43.43899" lon="6.28482">
        <ele>349.2</ele>
        <time>2017-01-18T09:50:21Z</time>
      </trkpt>
      <trkpt lat="43.43897" lon="6.28495">
        <ele>349.2</ele>
        <time>2017-01-18T09:50:29Z</time>
      </trkpt>
      <trkpt lat="43.43897" lon="6.28508">
        <ele>349.2</ele>
        <time>2017-01-18T09:50:37Z</time>
      </trkpt>
      <trkpt lat="43.43896" lon="6.2852">
        <ele>349.3</ele>
        <time>2017-01-18T09:50:45Z</time>
      </trkpt>
      <trkpt lat="43.43898" lon="6.28533">
        <ele>349.3</ele>
        <time>2017-01-18T09:50:54Z</time>
      </trkpt>
      <trkpt lat="43.43895" lon="6.28545">
        <ele>349.4</ele>
        <time>2017-01-18T09:51:04Z</time>
      </trkpt>
      <trkpt lat="43.43889" lon="6.28556">
        <ele>350.3</ele>
        <time>2017-01-18T09:51:16Z</time>
      </trkpt>
      <trkpt lat="43.43882" lon="6.28565">
        <ele>351.6</ele>
        <time>2017-01-18T09:51:28Z</time>
      </trkpt>
      <trkpt lat="43.43877" lon="6.28575">
        <ele>354.4</ele>
        <time>2017-01-18T09:51:48Z</time>
      </trkpt>
      <trkpt lat="43.43872" lon="6.28586">
        <ele>356.5</ele>
        <time>2017-01-18T09:52:03Z</time>
      </trkpt>
      <trkpt lat="43.43871" lon="6.28599">
        <ele>358.4</ele>
        <time>2017-01-18T09:52:15Z</time>
      </trkpt>
      <trkpt lat="43.43869" lon="6.28612">
        <ele>359.6</ele>
        <time>2017-01-18T09:52:24Z</time>
      </trkpt>
      <trkpt lat="43.43869" lon="6.28624">
        <ele>360.7</ele>
        <time>2017-01-18T09:52:35Z</time>
      </trkpt>
      <trkpt lat="43.43869" lon="6.28637">
        <ele>362.2</ele>
        <time>2017-01-18T09:52:47Z</time>
      </trkpt>
      <trkpt lat="43.43864" lon="6.28648">
        <ele>364</ele>
        <time>2017-01-18T09:53:00Z</time>
      </trkpt>
      <trkpt lat="43.43863" lon="6.28661">
        <ele>366</ele>
        <time>2017-01-18T09:53:16Z</time>
      </trkpt>
      <trkpt lat="43.43858" lon="6.28672">
        <ele>368</ele>
        <time>2017-01-18T09:53:32Z</time>
      </trkpt>
      <trkpt lat="43.43851" lon="6.2868">
        <ele>370.1</ele>
        <time>2017-01-18T09:53:45Z</time>
      </trkpt>
      <trkpt lat="43.43848" lon="6.28692">
        <ele>372.2</ele>
        <time>2017-01-18T09:54:02Z</time>
      </trkpt>
      <trkpt lat="43.43843" lon="6.28703">
        <ele>373.3</ele>
        <time>2017-01-18T09:54:20Z</time>
      </trkpt>
      <trkpt lat="43.43839" lon="6.28715">
        <ele>374.5</ele>
        <time>2017-01-18T09:54:33Z</time>
      </trkpt>
      <trkpt lat="43.4383" lon="6.28718">
        <ele>378.3</ele>
        <time>2017-01-18T09:56:09Z</time>
      </trkpt>
      <trkpt lat="43.43832" lon="6.28731">
        <ele>378.9</ele>
        <time>2017-01-18T09:57:24Z</time>
      </trkpt>
      <trkpt lat="43.43826" lon="6.28741">
        <ele>379.9</ele>
        <time>2017-01-18T09:57:36Z</time>
      </trkpt>
      <trkpt lat="43.43824" lon="6.28754">
        <ele>381.1</ele>
        <time>2017-01-18T09:57:49Z</time>
      </trkpt>
      <trkpt lat="43.43818" lon="6.28763">
        <ele>382.8</ele>
        <time>2017-01-18T09:58:26Z</time>
      </trkpt>
      <trkpt lat="43.43813" lon="6.28775">
        <ele>383.6</ele>
        <time>2017-01-18T09:58:37Z</time>
      </trkpt>
      <trkpt lat="43.4381" lon="6.28787">
        <ele>384.5</ele>
        <time>2017-01-18T09:58:48Z</time>
      </trkpt>
      <trkpt lat="43.43808" lon="6.28799">
        <ele>385.5</ele>
        <time>2017-01-18T09:58:58Z</time>
      </trkpt>
      <trkpt lat="43.43803" lon="6.2881">
        <ele>386.6</ele>
        <time>2017-01-18T09:59:08Z</time>
      </trkpt>
      <trkpt lat="43.438" lon="6.28822">
        <ele>387.9</ele>
        <time>2017-01-18T09:59:20Z</time>
      </trkpt>
      <trkpt lat="43.43796" lon="6.28834">
        <ele>389</ele>
        <time>2017-01-18T09:59:30Z</time>
      </trkpt>
      <trkpt lat="43.43792" lon="6.28846">
        <ele>390.6</ele>
        <time>2017-01-18T09:59:40Z</time>
      </trkpt>
      <trkpt lat="43.43794" lon="6.28859">
        <ele>392.2</ele>
        <time>2017-01-18T09:59:51Z</time>
      </trkpt>
      <trkpt lat="43.43795" lon="6.28871">
        <ele>394.3</ele>
        <time>2017-01-18T10:00:04Z</time>
      </trkpt>
      <trkpt lat="43.43793" lon="6.28884">
        <ele>396.8</ele>
        <time>2017-01-18T10:00:18Z</time>
      </trkpt>
      <trkpt lat="43.43795" lon="6.28897">
        <ele>399.2</ele>
        <time>2017-01-18T10:00:30Z</time>
      </trkpt>
      <trkpt lat="43.43796" lon="6.2891">
        <ele>401.1</ele>
        <time>2017-01-18T10:00:42Z</time>
      </trkpt>
      <trkpt lat="43.43793" lon="6.28922">
        <ele>402.6</ele>
        <time>2017-01-18T10:00:55Z</time>
      </trkpt>
      <trkpt lat="43.43786" lon="6.28931">
        <ele>404.5</ele>
        <time>2017-01-18T10:01:08Z</time>
      </trkpt>
      <trkpt lat="43.4378" lon="6.28942">
        <ele>406.2</ele>
        <time>2017-01-18T10:01:19Z</time>
      </trkpt>
      <trkpt lat="43.43776" lon="6.28954">
        <ele>407.4</ele>
        <time>2017-01-18T10:01:28Z</time>
      </trkpt>
      <trkpt lat="43.4377" lon="6.28963">
        <ele>409</ele>
        <time>2017-01-18T10:01:40Z</time>
      </trkpt>
      <trkpt lat="43.43763" lon="6.28972">
        <ele>409.9</ele>
        <time>2017-01-18T10:01:49Z</time>
      </trkpt>
      <trkpt lat="43.4376" lon="6.28984">
        <ele>410.8</ele>
        <time>2017-01-18T10:02:10Z</time>
      </trkpt>
      <trkpt lat="43.43759" lon="6.28996">
        <ele>410.9</ele>
        <time>2017-01-18T10:02:23Z</time>
      </trkpt>
      <trkpt lat="43.43753" lon="6.29007">
        <ele>410.9</ele>
        <time>2017-01-18T10:02:32Z</time>
      </trkpt>
      <trkpt lat="43.43748" lon="6.29017">
        <ele>411</ele>
        <time>2017-01-18T10:02:42Z</time>
      </trkpt>
      <trkpt lat="43.43743" lon="6.29029">
        <ele>411.1</ele>
        <time>2017-01-18T10:02:51Z</time>
      </trkpt>
      <trkpt lat="43.43736" lon="6.29037">
        <ele>411.1</ele>
        <time>2017-01-18T10:02:59Z</time>
      </trkpt>
      <trkpt lat="43.43731" lon="6.29048">
        <ele>410.8</ele>
        <time>2017-01-18T10:03:08Z</time>
      </trkpt>
      <trkpt lat="43.43724" lon="6.29058">
        <ele>410.6</ele>
        <time>2017-01-18T10:03:17Z</time>
      </trkpt>
      <trkpt lat="43.43717" lon="6.29066">
        <ele>410.5</ele>
        <time>2017-01-18T10:03:26Z</time>
      </trkpt>
      <trkpt lat="43.4371" lon="6.29076">
        <ele>410.5</ele>
        <time>2017-01-18T10:03:36Z</time>
      </trkpt>
      <trkpt lat="43.43703" lon="6.29083">
        <ele>410.6</ele>
        <time>2017-01-18T10:03:45Z</time>
      </trkpt>
      <trkpt lat="43.43697" lon="6.29093">
        <ele>410.6</ele>
        <time>2017-01-18T10:03:54Z</time>
      </trkpt>
      <trkpt lat="43.4369" lon="6.29102">
        <ele>410.6</ele>
        <time>2017-01-18T10:04:05Z</time>
      </trkpt>
      <trkpt lat="43.43682" lon="6.2911">
        <ele>410.7</ele>
        <time>2017-01-18T10:04:13Z</time>
      </trkpt>
      <trkpt lat="43.43676" lon="6.29119">
        <ele>410.9</ele>
        <time>2017-01-18T10:04:21Z</time>
      </trkpt>
      <trkpt lat="43.4367" lon="6.2913">
        <ele>411.1</ele>
        <time>2017-01-18T10:04:29Z</time>
      </trkpt>
      <trkpt lat="43.43663" lon="6.29139">
        <ele>411.2</ele>
        <time>2017-01-18T10:04:39Z</time>
      </trkpt>
      <trkpt lat="43.43655" lon="6.29148">
        <ele>411.2</ele>
        <time>2017-01-18T10:04:47Z</time>
      </trkpt>
      <trkpt lat="43.4365" lon="6.29158">
        <ele>411.3</ele>
        <time>2017-01-18T10:04:59Z</time>
      </trkpt>
      <trkpt lat="43.43644" lon="6.29169">
        <ele>411.3</ele>
        <time>2017-01-18T10:05:07Z</time>
      </trkpt>
      <trkpt lat="43.4364" lon="6.29182">
        <ele>411.3</ele>
        <time>2017-01-18T10:05:16Z</time>
      </trkpt>
      <trkpt lat="43.43633" lon="6.29191">
        <ele>411.3</ele>
        <time>2017-01-18T10:05:24Z</time>
      </trkpt>
      <trkpt lat="43.43626" lon="6.292">
        <ele>411.3</ele>
        <time>2017-01-18T10:05:33Z</time>
      </trkpt>
      <trkpt lat="43.43618" lon="6.29208">
        <ele>411.3</ele>
        <time>2017-01-18T10:05:41Z</time>
      </trkpt>
      <trkpt lat="43.43611" lon="6.29217">
        <ele>411.2</ele>
        <time>2017-01-18T10:05:49Z</time>
      </trkpt>
      <trkpt lat="43.43603" lon="6.29226">
        <ele>411</ele>
        <time>2017-01-18T10:05:57Z</time>
      </trkpt>
      <trkpt lat="43.43596" lon="6.29235">
        <ele>410.8</ele>
        <time>2017-01-18T10:06:05Z</time>
      </trkpt>
      <trkpt lat="43.43589" lon="6.29245">
        <ele>410.4</ele>
        <time>2017-01-18T10:06:13Z</time>
      </trkpt>
      <trkpt lat="43.43581" lon="6.29253">
        <ele>409.8</ele>
        <time>2017-01-18T10:06:21Z</time>
      </trkpt>
      <trkpt lat="43.43575" lon="6.29263">
        <ele>409.3</ele>
        <time>2017-01-18T10:06:28Z</time>
      </trkpt>
      <trkpt lat="43.4357" lon="6.29275">
        <ele>408.9</ele>
        <time>2017-01-18T10:06:37Z</time>
      </trkpt>
      <trkpt lat="43.43566" lon="6.29287">
        <ele>408.5</ele>
        <time>2017-01-18T10:06:45Z</time>
      </trkpt>
      <trkpt lat="43.43559" lon="6.29296">
        <ele>408.3</ele>
        <time>2017-01-18T10:06:53Z</time>
      </trkpt>
      <trkpt lat="43.43553" lon="6.29306">
        <ele>408.1</ele>
        <time>2017-01-18T10:07:03Z</time>
      </trkpt>
      <trkpt lat="43.43546" lon="6.29315">
        <ele>408</ele>
        <time>2017-01-18T10:07:11Z</time>
      </trkpt>
      <trkpt lat="43.43538" lon="6.29323">
        <ele>408</ele>
        <time>2017-01-18T10:07:18Z</time>
      </trkpt>
      <trkpt lat="43.43531" lon="6.29333">
        <ele>407.9</ele>
        <time>2017-01-18T10:07:26Z</time>
      </trkpt>
      <trkpt lat="43.43525" lon="6.29344">
        <ele>407.9</ele>
        <time>2017-01-18T10:07:34Z</time>
      </trkpt>
      <trkpt lat="43.43519" lon="6.29353">
        <ele>407.8</ele>
        <time>2017-01-18T10:07:41Z</time>
      </trkpt>
      <trkpt lat="43.43518" lon="6.29366">
        <ele>408</ele>
        <time>2017-01-18T10:07:51Z</time>
      </trkpt>
      <trkpt lat="43.43516" lon="6.29378">
        <ele>408.1</ele>
        <time>2017-01-18T10:08:01Z</time>
      </trkpt>
      <trkpt lat="43.43514" lon="6.29391">
        <ele>408.7</ele>
        <time>2017-01-18T10:08:11Z</time>
      </trkpt>
      <trkpt lat="43.43511" lon="6.29403">
        <ele>409.1</ele>
        <time>2017-01-18T10:08:19Z</time>
      </trkpt>
      <trkpt lat="43.43507" lon="6.29414">
        <ele>409.6</ele>
        <time>2017-01-18T10:08:30Z</time>
      </trkpt>
      <trkpt lat="43.43501" lon="6.29423">
        <ele>410</ele>
        <time>2017-01-18T10:08:39Z</time>
      </trkpt>
      <trkpt lat="43.43494" lon="6.29432">
        <ele>410.5</ele>
        <time>2017-01-18T10:08:48Z</time>
      </trkpt>
      <trkpt lat="43.43488" lon="6.29441">
        <ele>410.7</ele>
        <time>2017-01-18T10:08:55Z</time>
      </trkpt>
      <trkpt lat="43.43484" lon="6.29453">
        <ele>410.9</ele>
        <time>2017-01-18T10:09:05Z</time>
      </trkpt>
      <trkpt lat="43.43478" lon="6.29463">
        <ele>410.9</ele>
        <time>2017-01-18T10:09:12Z</time>
      </trkpt>
      <trkpt lat="43.43475" lon="6.29476">
        <ele>410.9</ele>
        <time>2017-01-18T10:09:21Z</time>
      </trkpt>
      <trkpt lat="43.43472" lon="6.29488">
        <ele>410.7</ele>
        <time>2017-01-18T10:09:30Z</time>
      </trkpt>
      <trkpt lat="43.43471" lon="6.29501">
        <ele>410.4</ele>
        <time>2017-01-18T10:09:39Z</time>
      </trkpt>
      <trkpt lat="43.43467" lon="6.29513">
        <ele>410</ele>
        <time>2017-01-18T10:09:47Z</time>
      </trkpt>
      <trkpt lat="43.43464" lon="6.29526">
        <ele>409.8</ele>
        <time>2017-01-18T10:09:54Z</time>
      </trkpt>
      <trkpt lat="43.43468" lon="6.29538">
        <ele>409.8</ele>
        <time>2017-01-18T10:10:03Z</time>
      </trkpt>
      <trkpt lat="43.4347" lon="6.29551">
        <ele>409.8</ele>
        <time>2017-01-18T10:10:12Z</time>
      </trkpt>
      <trkpt lat="43.43469" lon="6.29563">
        <ele>409.9</ele>
        <time>2017-01-18T10:10:20Z</time>
      </trkpt>
      <trkpt lat="43.43469" lon="6.29576">
        <ele>410.1</ele>
        <time>2017-01-18T10:10:44Z</time>
      </trkpt>
      <trkpt lat="43.43467" lon="6.29589">
        <ele>410.2</ele>
        <time>2017-01-18T10:10:56Z</time>
      </trkpt>
      <trkpt lat="43.43463" lon="6.296">
        <ele>410.2</ele>
        <time>2017-01-18T10:11:04Z</time>
      </trkpt>
      <trkpt lat="43.43461" lon="6.29612">
        <ele>410.2</ele>
        <time>2017-01-18T10:11:13Z</time>
      </trkpt>
      <trkpt lat="43.43461" lon="6.29625">
        <ele>410.2</ele>
        <time>2017-01-18T10:11:18Z</time>
      </trkpt>
      <trkpt lat="43.43462" lon="6.29638">
        <ele>410</ele>
        <time>2017-01-18T10:11:29Z</time>
      </trkpt>
      <trkpt lat="43.43464" lon="6.29651">
        <ele>409.6</ele>
        <time>2017-01-18T10:11:38Z</time>
      </trkpt>
      <trkpt lat="43.43463" lon="6.29663">
        <ele>409.1</ele>
        <time>2017-01-18T10:11:48Z</time>
      </trkpt>
      <trkpt lat="43.43462" lon="6.29676">
        <ele>408.4</ele>
        <time>2017-01-18T10:11:57Z</time>
      </trkpt>
      <trkpt lat="43.43458" lon="6.29687">
        <ele>407.9</ele>
        <time>2017-01-18T10:12:06Z</time>
      </trkpt>
      <trkpt lat="43.43456" lon="6.297">
        <ele>407.5</ele>
        <time>2017-01-18T10:12:16Z</time>
      </trkpt>
      <trkpt lat="43.43455" lon="6.29713">
        <ele>407</ele>
        <time>2017-01-18T10:12:26Z</time>
      </trkpt>
      <trkpt lat="43.43455" lon="6.29727">
        <ele>406.1</ele>
        <time>2017-01-18T10:12:37Z</time>
      </trkpt>
      <trkpt lat="43.43456" lon="6.2974">
        <ele>405.3</ele>
        <time>2017-01-18T10:12:47Z</time>
      </trkpt>
      <trkpt lat="43.43455" lon="6.29753">
        <ele>404.6</ele>
        <time>2017-01-18T10:12:56Z</time>
      </trkpt>
      <trkpt lat="43.43453" lon="6.29765">
        <ele>403.5</ele>
        <time>2017-01-18T10:13:08Z</time>
      </trkpt>
      <trkpt lat="43.43451" lon="6.29778">
        <ele>402.9</ele>
        <time>2017-01-18T10:13:16Z</time>
      </trkpt>
      <trkpt lat="43.43447" lon="6.29789">
        <ele>402.5</ele>
        <time>2017-01-18T10:13:23Z</time>
      </trkpt>
      <trkpt lat="43.43441" lon="6.298">
        <ele>402</ele>
        <time>2017-01-18T10:13:37Z</time>
      </trkpt>
      <trkpt lat="43.43441" lon="6.29814">
        <ele>402</ele>
        <time>2017-01-18T10:13:47Z</time>
      </trkpt>
      <trkpt lat="43.43442" lon="6.29826">
        <ele>402.3</ele>
        <time>2017-01-18T10:14:02Z</time>
      </trkpt>
      <trkpt lat="43.43441" lon="6.29839">
        <ele>402.6</ele>
        <time>2017-01-18T10:14:33Z</time>
      </trkpt>
      <trkpt lat="43.43439" lon="6.29851">
        <ele>403.4</ele>
        <time>2017-01-18T10:14:49Z</time>
      </trkpt>
      <trkpt lat="43.43437" lon="6.29864">
        <ele>404.6</ele>
        <time>2017-01-18T10:15:02Z</time>
      </trkpt>
      <trkpt lat="43.4344" lon="6.29876">
        <ele>405.6</ele>
        <time>2017-01-18T10:15:13Z</time>
      </trkpt>
      <trkpt lat="43.43444" lon="6.29888">
        <ele>407.3</ele>
        <time>2017-01-18T10:15:24Z</time>
      </trkpt>
      <trkpt lat="43.43441" lon="6.299">
        <ele>409.2</ele>
        <time>2017-01-18T10:15:39Z</time>
      </trkpt>
      <trkpt lat="43.43434" lon="6.29908">
        <ele>411.3</ele>
        <time>2017-01-18T10:15:54Z</time>
      </trkpt>
      <trkpt lat="43.43424" lon="6.29912">
        <ele>412.4</ele>
        <time>2017-01-18T10:16:05Z</time>
      </trkpt>
      <trkpt lat="43.43418" lon="6.29921">
        <ele>413.4</ele>
        <time>2017-01-18T10:16:16Z</time>
      </trkpt>
      <trkpt lat="43.43414" lon="6.29934">
        <ele>414.9</ele>
        <time>2017-01-18T10:16:28Z</time>
      </trkpt>
      <trkpt lat="43.43417" lon="6.29946">
        <ele>416.8</ele>
        <time>2017-01-18T10:16:41Z</time>
      </trkpt>
      <trkpt lat="43.43422" lon="6.29957">
        <ele>419.2</ele>
        <time>2017-01-18T10:16:55Z</time>
      </trkpt>
      <trkpt lat="43.43424" lon="6.2997">
        <ele>421.1</ele>
        <time>2017-01-18T10:17:08Z</time>
      </trkpt>
      <trkpt lat="43.43421" lon="6.29982">
        <ele>422.9</ele>
        <time>2017-01-18T10:17:25Z</time>
      </trkpt>
      <trkpt lat="43.43418" lon="6.29994">
        <ele>424.7</ele>
        <time>2017-01-18T10:17:55Z</time>
      </trkpt>
      <trkpt lat="43.43409" lon="6.29997">
        <ele>425.9</ele>
        <time>2017-01-18T10:18:13Z</time>
      </trkpt>
      <trkpt lat="43.43402" lon="6.30005">
        <ele>427.9</ele>
        <time>2017-01-18T10:18:37Z</time>
      </trkpt>
      <trkpt lat="43.43393" lon="6.30006">
        <ele>429.2</ele>
        <time>2017-01-18T10:18:48Z</time>
      </trkpt>
      <trkpt lat="43.43384" lon="6.30012">
        <ele>430.5</ele>
        <time>2017-01-18T10:18:59Z</time>
      </trkpt>
      <trkpt lat="43.43376" lon="6.30016">
        <ele>431.5</ele>
        <time>2017-01-18T10:19:09Z</time>
      </trkpt>
      <trkpt lat="43.43364" lon="6.30021">
        <ele>433.4</ele>
        <time>2017-01-18T10:20:06Z</time>
      </trkpt>
      <trkpt lat="43.43358" lon="6.3003">
        <ele>433.4</ele>
        <time>2017-01-18T10:20:28Z</time>
      </trkpt>
      <trkpt lat="43.4335" lon="6.30038">
        <ele>433.3</ele>
        <time>2017-01-18T10:20:38Z</time>
      </trkpt>
      <trkpt lat="43.43346" lon="6.3005">
        <ele>434.5</ele>
        <time>2017-01-18T10:22:12Z</time>
      </trkpt>
      <trkpt lat="43.43338" lon="6.30056">
        <ele>434.6</ele>
        <time>2017-01-18T10:22:21Z</time>
      </trkpt>
      <trkpt lat="43.4333" lon="6.30062">
        <ele>434.7</ele>
        <time>2017-01-18T10:22:29Z</time>
      </trkpt>
      <trkpt lat="43.43321" lon="6.30068">
        <ele>435.2</ele>
        <time>2017-01-18T10:22:40Z</time>
      </trkpt>
      <trkpt lat="43.43313" lon="6.30075">
        <ele>435.5</ele>
        <time>2017-01-18T10:22:49Z</time>
      </trkpt>
      <trkpt lat="43.43304" lon="6.30078">
        <ele>435.9</ele>
        <time>2017-01-18T10:22:55Z</time>
      </trkpt>
      <trkpt lat="43.43295" lon="6.30083">
        <ele>436.3</ele>
        <time>2017-01-18T10:23:03Z</time>
      </trkpt>
      <trkpt lat="43.43287" lon="6.30089">
        <ele>436.8</ele>
        <time>2017-01-18T10:23:12Z</time>
      </trkpt>
      <trkpt lat="43.43278" lon="6.30095">
        <ele>437.3</ele>
        <time>2017-01-18T10:23:21Z</time>
      </trkpt>
      <trkpt lat="43.43269" lon="6.30101">
        <ele>437.5</ele>
        <time>2017-01-18T10:23:30Z</time>
      </trkpt>
      <trkpt lat="43.43261" lon="6.30108">
        <ele>437.9</ele>
        <time>2017-01-18T10:23:41Z</time>
      </trkpt>
      <trkpt lat="43.43254" lon="6.30116">
        <ele>438.2</ele>
        <time>2017-01-18T10:23:51Z</time>
      </trkpt>
      <trkpt lat="43.43249" lon="6.30126">
        <ele>439.9</ele>
        <time>2017-01-18T10:24:04Z</time>
      </trkpt>
      <trkpt lat="43.43242" lon="6.30135">
        <ele>440.9</ele>
        <time>2017-01-18T10:24:14Z</time>
      </trkpt>
      <trkpt lat="43.43234" lon="6.30143">
        <ele>442.1</ele>
        <time>2017-01-18T10:24:26Z</time>
      </trkpt>
      <trkpt lat="43.43226" lon="6.30149">
        <ele>443.3</ele>
        <time>2017-01-18T10:24:35Z</time>
      </trkpt>
      <trkpt lat="43.43218" lon="6.30157">
        <ele>444.5</ele>
        <time>2017-01-18T10:24:46Z</time>
      </trkpt>
      <trkpt lat="43.43211" lon="6.30167">
        <ele>445.2</ele>
        <time>2017-01-18T10:24:56Z</time>
      </trkpt>
      <trkpt lat="43.43208" lon="6.3018">
        <ele>446.1</ele>
        <time>2017-01-18T10:25:16Z</time>
      </trkpt>
      <trkpt lat="43.43207" lon="6.30192">
        <ele>446.8</ele>
        <time>2017-01-18T10:25:30Z</time>
      </trkpt>
      <trkpt lat="43.43209" lon="6.30205">
        <ele>448.1</ele>
        <time>2017-01-18T10:30:35Z</time>
      </trkpt>
      <trkpt lat="43.43213" lon="6.30194">
        <ele>449.3</ele>
        <time>2017-01-18T10:32:18Z</time>
      </trkpt>
      <trkpt lat="43.4321" lon="6.30207">
        <ele>454.2</ele>
        <time>2017-01-18T10:36:24Z</time>
      </trkpt>
      <trkpt lat="43.43218" lon="6.30199">
        <ele>454.2</ele>
        <time>2017-01-18T10:37:27Z</time>
      </trkpt>
      <trkpt lat="43.43212" lon="6.3019">
        <ele>452.7</ele>
        <time>2017-01-18T10:38:04Z</time>
      </trkpt>
      <trkpt lat="43.43208" lon="6.30202">
        <ele>450</ele>
        <time>2017-01-18T10:38:48Z</time>
      </trkpt>
      <trkpt lat="43.43211" lon="6.30188">
        <ele>451.7</ele>
        <time>2017-01-18T10:41:23Z</time>
      </trkpt>
      <trkpt lat="43.43215" lon="6.30177">
        <ele>451.6</ele>
        <time>2017-01-18T10:41:30Z</time>
      </trkpt>
      <trkpt lat="43.43222" lon="6.30168">
        <ele>451.1</ele>
        <time>2017-01-18T10:41:40Z</time>
      </trkpt>
      <trkpt lat="43.4323" lon="6.30162">
        <ele>450.6</ele>
        <time>2017-01-18T10:41:48Z</time>
      </trkpt>
      <trkpt lat="43.43238" lon="6.30156">
        <ele>450.1</ele>
        <time>2017-01-18T10:41:56Z</time>
      </trkpt>
      <trkpt lat="43.43246" lon="6.30147">
        <ele>449</ele>
        <time>2017-01-18T10:42:05Z</time>
      </trkpt>
      <trkpt lat="43.43252" lon="6.30137">
        <ele>448.3</ele>
        <time>2017-01-18T10:42:13Z</time>
      </trkpt>
      <trkpt lat="43.43256" lon="6.30125">
        <ele>447</ele>
        <time>2017-01-18T10:42:24Z</time>
      </trkpt>
      <trkpt lat="43.43263" lon="6.30116">
        <ele>445.3</ele>
        <time>2017-01-18T10:42:35Z</time>
      </trkpt>
      <trkpt lat="43.43272" lon="6.30111">
        <ele>444.3</ele>
        <time>2017-01-18T10:42:43Z</time>
      </trkpt>
      <trkpt lat="43.43281" lon="6.30105">
        <ele>443.6</ele>
        <time>2017-01-18T10:42:52Z</time>
      </trkpt>
      <trkpt lat="43.43289" lon="6.30099">
        <ele>443</ele>
        <time>2017-01-18T10:43:02Z</time>
      </trkpt>
      <trkpt lat="43.43298" lon="6.30093">
        <ele>442.7</ele>
        <time>2017-01-18T10:43:09Z</time>
      </trkpt>
      <trkpt lat="43.43307" lon="6.30087">
        <ele>442.3</ele>
        <time>2017-01-18T10:43:16Z</time>
      </trkpt>
      <trkpt lat="43.43315" lon="6.30082">
        <ele>442</ele>
        <time>2017-01-18T10:43:25Z</time>
      </trkpt>
      <trkpt lat="43.43324" lon="6.30077">
        <ele>441.8</ele>
        <time>2017-01-18T10:43:33Z</time>
      </trkpt>
      <trkpt lat="43.43333" lon="6.3007">
        <ele>441.2</ele>
        <time>2017-01-18T10:43:43Z</time>
      </trkpt>
      <trkpt lat="43.43339" lon="6.30061">
        <ele>439.9</ele>
        <time>2017-01-18T10:43:53Z</time>
      </trkpt>
      <trkpt lat="43.43348" lon="6.30053">
        <ele>438.9</ele>
        <time>2017-01-18T10:44:02Z</time>
      </trkpt>
      <trkpt lat="43.43354" lon="6.30044">
        <ele>438.4</ele>
        <time>2017-01-18T10:44:12Z</time>
      </trkpt>
      <trkpt lat="43.43362" lon="6.30035">
        <ele>437.6</ele>
        <time>2017-01-18T10:44:22Z</time>
      </trkpt>
      <trkpt lat="43.43369" lon="6.30027">
        <ele>437.3</ele>
        <time>2017-01-18T10:44:30Z</time>
      </trkpt>
      <trkpt lat="43.43377" lon="6.30021">
        <ele>437.1</ele>
        <time>2017-01-18T10:44:39Z</time>
      </trkpt>
      <trkpt lat="43.43385" lon="6.30016">
        <ele>436.9</ele>
        <time>2017-01-18T10:44:48Z</time>
      </trkpt>
      <trkpt lat="43.43394" lon="6.30014">
        <ele>436.4</ele>
        <time>2017-01-18T10:44:57Z</time>
      </trkpt>
      <trkpt lat="43.43404" lon="6.30011">
        <ele>435.3</ele>
        <time>2017-01-18T10:45:06Z</time>
      </trkpt>
      <trkpt lat="43.43411" lon="6.30005">
        <ele>434.2</ele>
        <time>2017-01-18T10:45:14Z</time>
      </trkpt>
      <trkpt lat="43.43418" lon="6.29996">
        <ele>432.5</ele>
        <time>2017-01-18T10:45:25Z</time>
      </trkpt>
      <trkpt lat="43.43424" lon="6.29986">
        <ele>431.1</ele>
        <time>2017-01-18T10:45:33Z</time>
      </trkpt>
      <trkpt lat="43.43428" lon="6.29974">
        <ele>429.9</ele>
        <time>2017-01-18T10:45:42Z</time>
      </trkpt>
      <trkpt lat="43.43425" lon="6.29962">
        <ele>428.9</ele>
        <time>2017-01-18T10:45:50Z</time>
      </trkpt>
      <trkpt lat="43.43421" lon="6.2995">
        <ele>426.9</ele>
        <time>2017-01-18T10:46:03Z</time>
      </trkpt>
      <trkpt lat="43.4342" lon="6.29937">
        <ele>424.4</ele>
        <time>2017-01-18T10:46:17Z</time>
      </trkpt>
      <trkpt lat="43.43426" lon="6.29926">
        <ele>421.8</ele>
        <time>2017-01-18T10:46:29Z</time>
      </trkpt>
      <trkpt lat="43.43434" lon="6.2992">
        <ele>420.3</ele>
        <time>2017-01-18T10:46:38Z</time>
      </trkpt>
      <trkpt lat="43.43443" lon="6.29917">
        <ele>418.6</ele>
        <time>2017-01-18T10:46:47Z</time>
      </trkpt>
      <trkpt lat="43.4345" lon="6.29908">
        <ele>417.6</ele>
        <time>2017-01-18T10:46:54Z</time>
      </trkpt>
      <trkpt lat="43.43454" lon="6.29896">
        <ele>416.2</ele>
        <time>2017-01-18T10:47:03Z</time>
      </trkpt>
      <trkpt lat="43.43452" lon="6.29883">
        <ele>414.8</ele>
        <time>2017-01-18T10:47:13Z</time>
      </trkpt>
      <trkpt lat="43.43447" lon="6.29873">
        <ele>412.8</ele>
        <time>2017-01-18T10:47:25Z</time>
      </trkpt>
      <trkpt lat="43.43445" lon="6.2986">
        <ele>410.9</ele>
        <time>2017-01-18T10:47:37Z</time>
      </trkpt>
      <trkpt lat="43.43448" lon="6.29848">
        <ele>409.5</ele>
        <time>2017-01-18T10:47:48Z</time>
      </trkpt>
      <trkpt lat="43.43453" lon="6.29837">
        <ele>406.7</ele>
        <time>2017-01-18T10:48:19Z</time>
      </trkpt>
      <trkpt lat="43.43462" lon="6.29841">
        <ele>405.9</ele>
        <time>2017-01-18T10:48:35Z</time>
      </trkpt>
      <trkpt lat="43.43471" lon="6.29834">
        <ele>404.7</ele>
        <time>2017-01-18T10:48:47Z</time>
      </trkpt>
      <trkpt lat="43.43478" lon="6.29826">
        <ele>404.1</ele>
        <time>2017-01-18T10:48:56Z</time>
      </trkpt>
      <trkpt lat="43.43485" lon="6.29817">
        <ele>403.7</ele>
        <time>2017-01-18T10:49:09Z</time>
      </trkpt>
      <trkpt lat="43.43493" lon="6.29811">
        <ele>402.5</ele>
        <time>2017-01-18T10:49:24Z</time>
      </trkpt>
      <trkpt lat="43.435" lon="6.298">
        <ele>401.3</ele>
        <time>2017-01-18T10:49:34Z</time>
      </trkpt>
      <trkpt lat="43.43503" lon="6.29788">
        <ele>400</ele>
        <time>2017-01-18T10:49:43Z</time>
      </trkpt>
      <trkpt lat="43.43505" lon="6.29775">
        <ele>399</ele>
        <time>2017-01-18T10:49:52Z</time>
      </trkpt>
      <trkpt lat="43.4351" lon="6.29764">
        <ele>397.6</ele>
        <time>2017-01-18T10:50:03Z</time>
      </trkpt>
      <trkpt lat="43.43516" lon="6.29755">
        <ele>396.4</ele>
        <time>2017-01-18T10:50:13Z</time>
      </trkpt>
      <trkpt lat="43.43522" lon="6.29745">
        <ele>395.4</ele>
        <time>2017-01-18T10:50:24Z</time>
      </trkpt>
      <trkpt lat="43.43528" lon="6.29736">
        <ele>394</ele>
        <time>2017-01-18T10:50:36Z</time>
      </trkpt>
      <trkpt lat="43.43534" lon="6.29727">
        <ele>392.4</ele>
        <time>2017-01-18T10:50:49Z</time>
      </trkpt>
      <trkpt lat="43.4354" lon="6.29716">
        <ele>391</ele>
        <time>2017-01-18T10:51:00Z</time>
      </trkpt>
      <trkpt lat="43.43547" lon="6.29706">
        <ele>389.7</ele>
        <time>2017-01-18T10:51:11Z</time>
      </trkpt>
      <trkpt lat="43.43554" lon="6.29697">
        <ele>388.5</ele>
        <time>2017-01-18T10:51:20Z</time>
      </trkpt>
      <trkpt lat="43.43559" lon="6.29687">
        <ele>387.5</ele>
        <time>2017-01-18T10:51:29Z</time>
      </trkpt>
      <trkpt lat="43.43565" lon="6.29676">
        <ele>386.3</ele>
        <time>2017-01-18T10:51:41Z</time>
      </trkpt>
      <trkpt lat="43.4357" lon="6.29666">
        <ele>385.2</ele>
        <time>2017-01-18T10:51:51Z</time>
      </trkpt>
      <trkpt lat="43.43575" lon="6.29656">
        <ele>383.7</ele>
        <time>2017-01-18T10:52:03Z</time>
      </trkpt>
      <trkpt lat="43.43581" lon="6.29647">
        <ele>382</ele>
        <time>2017-01-18T10:52:15Z</time>
      </trkpt>
      <trkpt lat="43.43585" lon="6.29635">
        <ele>380.7</ele>
        <time>2017-01-18T10:52:27Z</time>
      </trkpt>
      <trkpt lat="43.4359" lon="6.29624">
        <ele>379.3</ele>
        <time>2017-01-18T10:52:39Z</time>
      </trkpt>
      <trkpt lat="43.43593" lon="6.29612">
        <ele>377.6</ele>
        <time>2017-01-18T10:52:58Z</time>
      </trkpt>
      <trkpt lat="43.43585" lon="6.29605">
        <ele>376.8</ele>
        <time>2017-01-18T10:53:39Z</time>
      </trkpt>
      <trkpt lat="43.43577" lon="6.29599">
        <ele>378.6</ele>
        <time>2017-01-18T10:54:05Z</time>
      </trkpt>
      <trkpt lat="43.43567" lon="6.29601">
        <ele>380</ele>
        <time>2017-01-18T10:54:34Z</time>
      </trkpt>
      <trkpt lat="43.43577" lon="6.29599">
        <ele>381.3</ele>
        <time>2017-01-18T10:55:55Z</time>
      </trkpt>
      <trkpt lat="43.43569" lon="6.29592">
        <ele>381.6</ele>
        <time>2017-01-18T10:57:40Z</time>
      </trkpt>
      <trkpt lat="43.43562" lon="6.29584">
        <ele>382</ele>
        <time>2017-01-18T11:00:01Z</time>
      </trkpt>
      <trkpt lat="43.43567" lon="6.29595">
        <ele>382</ele>
        <time>2017-01-18T11:00:47Z</time>
      </trkpt>
      <trkpt lat="43.43573" lon="6.29603">
        <ele>381.7</ele>
        <time>2017-01-18T11:03:15Z</time>
      </trkpt>
      <trkpt lat="43.43582" lon="6.29607">
        <ele>382</ele>
        <time>2017-01-18T11:07:00Z</time>
      </trkpt>
      <trkpt lat="43.43574" lon="6.29601">
        <ele>380.4</ele>
        <time>2017-01-18T11:08:45Z</time>
      </trkpt>
      <trkpt lat="43.43568" lon="6.29591">
        <ele>383.8</ele>
        <time>2017-01-18T11:13:37Z</time>
      </trkpt>
      <trkpt lat="43.43576" lon="6.29598">
        <ele>383</ele>
        <time>2017-01-18T11:17:15Z</time>
      </trkpt>
      <trkpt lat="43.43568" lon="6.29604">
        <ele>383</ele>
        <time>2017-01-18T11:22:34Z</time>
      </trkpt>
      <trkpt lat="43.43577" lon="6.29609">
        <ele>380.1</ele>
        <time>2017-01-18T11:33:01Z</time>
      </trkpt>
      <trkpt lat="43.43585" lon="6.29615">
        <ele>379.3</ele>
        <time>2017-01-18T11:33:24Z</time>
      </trkpt>
      <trkpt lat="43.43593" lon="6.2961">
        <ele>378.6</ele>
        <time>2017-01-18T11:33:40Z</time>
      </trkpt>
      <trkpt lat="43.43594" lon="6.29597">
        <ele>377</ele>
        <time>2017-01-18T11:35:12Z</time>
      </trkpt>
      <trkpt lat="43.43593" lon="6.29584">
        <ele>376.8</ele>
        <time>2017-01-18T11:35:25Z</time>
      </trkpt>
      <trkpt lat="43.4359" lon="6.29572">
        <ele>376</ele>
        <time>2017-01-18T11:35:41Z</time>
      </trkpt>
      <trkpt lat="43.43593" lon="6.2956">
        <ele>375.3</ele>
        <time>2017-01-18T11:35:52Z</time>
      </trkpt>
      <trkpt lat="43.436" lon="6.2955">
        <ele>374.4</ele>
        <time>2017-01-18T11:36:04Z</time>
      </trkpt>
      <trkpt lat="43.43605" lon="6.2954">
        <ele>373.3</ele>
        <time>2017-01-18T11:36:15Z</time>
      </trkpt>
      <trkpt lat="43.43609" lon="6.29528">
        <ele>372.4</ele>
        <time>2017-01-18T11:36:26Z</time>
      </trkpt>
      <trkpt lat="43.43614" lon="6.29517">
        <ele>371.4</ele>
        <time>2017-01-18T11:36:38Z</time>
      </trkpt>
      <trkpt lat="43.43618" lon="6.29505">
        <ele>370.1</ele>
        <time>2017-01-18T11:36:49Z</time>
      </trkpt>
      <trkpt lat="43.43623" lon="6.29494">
        <ele>368.5</ele>
        <time>2017-01-18T11:37:02Z</time>
      </trkpt>
      <trkpt lat="43.43629" lon="6.29484">
        <ele>366.9</ele>
        <time>2017-01-18T11:37:19Z</time>
      </trkpt>
      <trkpt lat="43.43635" lon="6.29474">
        <ele>366.2</ele>
        <time>2017-01-18T11:37:29Z</time>
      </trkpt>
      <trkpt lat="43.4364" lon="6.29463">
        <ele>365.7</ele>
        <time>2017-01-18T11:37:39Z</time>
      </trkpt>
      <trkpt lat="43.43644" lon="6.29452">
        <ele>364.2</ele>
        <time>2017-01-18T11:37:52Z</time>
      </trkpt>
      <trkpt lat="43.4365" lon="6.29441">
        <ele>363.2</ele>
        <time>2017-01-18T11:38:03Z</time>
      </trkpt>
      <trkpt lat="43.43656" lon="6.29431">
        <ele>362.4</ele>
        <time>2017-01-18T11:38:10Z</time>
      </trkpt>
      <trkpt lat="43.43663" lon="6.29423">
        <ele>361.7</ele>
        <time>2017-01-18T11:38:18Z</time>
      </trkpt>
      <trkpt lat="43.4367" lon="6.29414">
        <ele>360.9</ele>
        <time>2017-01-18T11:38:26Z</time>
      </trkpt>
      <trkpt lat="43.43674" lon="6.29402">
        <ele>359.5</ele>
        <time>2017-01-18T11:38:47Z</time>
      </trkpt>
      <trkpt lat="43.4368" lon="6.29392">
        <ele>358.7</ele>
        <time>2017-01-18T11:38:58Z</time>
      </trkpt>
      <trkpt lat="43.43688" lon="6.29385">
        <ele>357.9</ele>
        <time>2017-01-18T11:39:07Z</time>
      </trkpt>
      <trkpt lat="43.43697" lon="6.29382">
        <ele>356.2</ele>
        <time>2017-01-18T11:39:22Z</time>
      </trkpt>
      <trkpt lat="43.43705" lon="6.29378">
        <ele>353.9</ele>
        <time>2017-01-18T11:39:41Z</time>
      </trkpt>
      <trkpt lat="43.43714" lon="6.29374">
        <ele>352.1</ele>
        <time>2017-01-18T11:39:54Z</time>
      </trkpt>
      <trkpt lat="43.43723" lon="6.2937">
        <ele>350.6</ele>
        <time>2017-01-18T11:40:04Z</time>
      </trkpt>
      <trkpt lat="43.43732" lon="6.29362">
        <ele>349.2</ele>
        <time>2017-01-18T11:40:13Z</time>
      </trkpt>
      <trkpt lat="43.4374" lon="6.29355">
        <ele>347.7</ele>
        <time>2017-01-18T11:40:24Z</time>
      </trkpt>
      <trkpt lat="43.43748" lon="6.29346">
        <ele>346.6</ele>
        <time>2017-01-18T11:40:33Z</time>
      </trkpt>
      <trkpt lat="43.43754" lon="6.29337">
        <ele>345.6</ele>
        <time>2017-01-18T11:40:41Z</time>
      </trkpt>
      <trkpt lat="43.43762" lon="6.29329">
        <ele>344.5</ele>
        <time>2017-01-18T11:40:51Z</time>
      </trkpt>
      <trkpt lat="43.43771" lon="6.29323">
        <ele>343.7</ele>
        <time>2017-01-18T11:41:00Z</time>
      </trkpt>
      <trkpt lat="43.43779" lon="6.29316">
        <ele>342.6</ele>
        <time>2017-01-18T11:41:11Z</time>
      </trkpt>
      <trkpt lat="43.43787" lon="6.2931">
        <ele>341.8</ele>
        <time>2017-01-18T11:41:21Z</time>
      </trkpt>
      <trkpt lat="43.43795" lon="6.29304">
        <ele>340.7</ele>
        <time>2017-01-18T11:41:32Z</time>
      </trkpt>
      <trkpt lat="43.43803" lon="6.29299">
        <ele>339.8</ele>
        <time>2017-01-18T11:41:41Z</time>
      </trkpt>
      <trkpt lat="43.43811" lon="6.29291">
        <ele>338.3</ele>
        <time>2017-01-18T11:41:55Z</time>
      </trkpt>
      <trkpt lat="43.43818" lon="6.29283">
        <ele>336.4</ele>
        <time>2017-01-18T11:42:06Z</time>
      </trkpt>
      <trkpt lat="43.43827" lon="6.29279">
        <ele>334.2</ele>
        <time>2017-01-18T11:42:18Z</time>
      </trkpt>
      <trkpt lat="43.43835" lon="6.29275">
        <ele>332.6</ele>
        <time>2017-01-18T11:42:27Z</time>
      </trkpt>
      <trkpt lat="43.43843" lon="6.29269">
        <ele>331</ele>
        <time>2017-01-18T11:42:37Z</time>
      </trkpt>
      <trkpt lat="43.43852" lon="6.29266">
        <ele>328.8</ele>
        <time>2017-01-18T11:42:51Z</time>
      </trkpt>
      <trkpt lat="43.43861" lon="6.2926">
        <ele>326.6</ele>
        <time>2017-01-18T11:43:03Z</time>
      </trkpt>
      <trkpt lat="43.4387" lon="6.29255">
        <ele>324.5</ele>
        <time>2017-01-18T11:43:15Z</time>
      </trkpt>
      <trkpt lat="43.43879" lon="6.2925">
        <ele>323.2</ele>
        <time>2017-01-18T11:43:26Z</time>
      </trkpt>
      <trkpt lat="43.43889" lon="6.29248">
        <ele>322.1</ele>
        <time>2017-01-18T11:43:36Z</time>
      </trkpt>
      <trkpt lat="43.43898" lon="6.29253">
        <ele>319.8</ele>
        <time>2017-01-18T11:43:49Z</time>
      </trkpt>
      <trkpt lat="43.43907" lon="6.29256">
        <ele>317.4</ele>
        <time>2017-01-18T11:44:02Z</time>
      </trkpt>
      <trkpt lat="43.43916" lon="6.29262">
        <ele>315.1</ele>
        <time>2017-01-18T11:44:14Z</time>
      </trkpt>
      <trkpt lat="43.43925" lon="6.29267">
        <ele>313.1</ele>
        <time>2017-01-18T11:44:25Z</time>
      </trkpt>
      <trkpt lat="43.43935" lon="6.29267">
        <ele>311.7</ele>
        <time>2017-01-18T11:44:34Z</time>
      </trkpt>
      <trkpt lat="43.43944" lon="6.29268">
        <ele>310.6</ele>
        <time>2017-01-18T11:44:42Z</time>
      </trkpt>
      <trkpt lat="43.43954" lon="6.2927">
        <ele>309.7</ele>
        <time>2017-01-18T11:44:53Z</time>
      </trkpt>
      <trkpt lat="43.43963" lon="6.29271">
        <ele>309.1</ele>
        <time>2017-01-18T11:45:04Z</time>
      </trkpt>
      <trkpt lat="43.43973" lon="6.29271">
        <ele>308.1</ele>
        <time>2017-01-18T11:45:14Z</time>
      </trkpt>
      <trkpt lat="43.43982" lon="6.29271">
        <ele>306.7</ele>
        <time>2017-01-18T11:45:24Z</time>
      </trkpt>
      <trkpt lat="43.43991" lon="6.29271">
        <ele>304.6</ele>
        <time>2017-01-18T11:45:39Z</time>
      </trkpt>
      <trkpt lat="43.43998" lon="6.2928">
        <ele>303.3</ele>
        <time>2017-01-18T11:45:49Z</time>
      </trkpt>
      <trkpt lat="43.44006" lon="6.29284">
        <ele>301.4</ele>
        <time>2017-01-18T11:46:00Z</time>
      </trkpt>
      <trkpt lat="43.44015" lon="6.29291">
        <ele>299.3</ele>
        <time>2017-01-18T11:46:11Z</time>
      </trkpt>
      <trkpt lat="43.44023" lon="6.29297">
        <ele>297.7</ele>
        <time>2017-01-18T11:46:21Z</time>
      </trkpt>
      <trkpt lat="43.44031" lon="6.29305">
        <ele>296.9</ele>
        <time>2017-01-18T11:46:28Z</time>
      </trkpt>
      <trkpt lat="43.4404" lon="6.29313">
        <ele>295.6</ele>
        <time>2017-01-18T11:46:37Z</time>
      </trkpt>
      <trkpt lat="43.44047" lon="6.29319">
        <ele>294.7</ele>
        <time>2017-01-18T11:46:44Z</time>
      </trkpt>
      <trkpt lat="43.44056" lon="6.29324">
        <ele>293.6</ele>
        <time>2017-01-18T11:46:53Z</time>
      </trkpt>
      <trkpt lat="43.44065" lon="6.2932">
        <ele>293</ele>
        <time>2017-01-18T11:47:00Z</time>
      </trkpt>
      <trkpt lat="43.44074" lon="6.29313">
        <ele>292.3</ele>
        <time>2017-01-18T11:47:08Z</time>
      </trkpt>
      <trkpt lat="43.44078" lon="6.29302">
        <ele>291.1</ele>
        <time>2017-01-18T11:47:18Z</time>
      </trkpt>
      <trkpt lat="43.44084" lon="6.29293">
        <ele>289.3</ele>
        <time>2017-01-18T11:47:32Z</time>
      </trkpt>
      <trkpt lat="43.4409" lon="6.29283">
        <ele>286.2</ele>
        <time>2017-01-18T11:47:56Z</time>
      </trkpt>
      <trkpt lat="43.44099" lon="6.29276">
        <ele>284.3</ele>
        <time>2017-01-18T11:48:11Z</time>
      </trkpt>
      <trkpt lat="43.44106" lon="6.29268">
        <ele>283.1</ele>
        <time>2017-01-18T11:48:20Z</time>
      </trkpt>
      <trkpt lat="43.44114" lon="6.29259">
        <ele>281.7</ele>
        <time>2017-01-18T11:48:30Z</time>
      </trkpt>
      <trkpt lat="43.44121" lon="6.29252">
        <ele>280.6</ele>
        <time>2017-01-18T11:48:38Z</time>
      </trkpt>
      <trkpt lat="43.44129" lon="6.29244">
        <ele>279.2</ele>
        <time>2017-01-18T11:48:48Z</time>
      </trkpt>
      <trkpt lat="43.44135" lon="6.29235">
        <ele>277.7</ele>
        <time>2017-01-18T11:49:00Z</time>
      </trkpt>
      <trkpt lat="43.44142" lon="6.29226">
        <ele>276.4</ele>
        <time>2017-01-18T11:49:11Z</time>
      </trkpt>
      <trkpt lat="43.4415" lon="6.29217">
        <ele>274.5</ele>
        <time>2017-01-18T11:49:24Z</time>
      </trkpt>
      <trkpt lat="43.44157" lon="6.2921">
        <ele>273.3</ele>
        <time>2017-01-18T11:49:33Z</time>
      </trkpt>
      <trkpt lat="43.44165" lon="6.29202">
        <ele>271.5</ele>
        <time>2017-01-18T11:49:44Z</time>
      </trkpt>
      <trkpt lat="43.44173" lon="6.29195">
        <ele>269.3</ele>
        <time>2017-01-18T11:50:00Z</time>
      </trkpt>
      <trkpt lat="43.44182" lon="6.29191">
        <ele>267.3</ele>
        <time>2017-01-18T11:50:14Z</time>
      </trkpt>
      <trkpt lat="43.44192" lon="6.29185">
        <ele>265.8</ele>
        <time>2017-01-18T11:50:27Z</time>
      </trkpt>
      <trkpt lat="43.44201" lon="6.2918">
        <ele>264.9</ele>
        <time>2017-01-18T11:50:36Z</time>
      </trkpt>
      <trkpt lat="43.44207" lon="6.2917">
        <ele>264.3</ele>
        <time>2017-01-18T11:50:45Z</time>
      </trkpt>
      <trkpt lat="43.44214" lon="6.29161">
        <ele>263.6</ele>
        <time>2017-01-18T11:50:51Z</time>
      </trkpt>
      <trkpt lat="43.4422" lon="6.2915">
        <ele>263</ele>
        <time>2017-01-18T11:50:58Z</time>
      </trkpt>
      <trkpt lat="43.44226" lon="6.29139">
        <ele>262.1</ele>
        <time>2017-01-18T11:51:07Z</time>
      </trkpt>
      <trkpt lat="43.44233" lon="6.29131">
        <ele>261.2</ele>
        <time>2017-01-18T11:51:16Z</time>
      </trkpt>
      <trkpt lat="43.44239" lon="6.29119">
        <ele>260</ele>
        <time>2017-01-18T11:51:26Z</time>
      </trkpt>
      <trkpt lat="43.44244" lon="6.29106">
        <ele>258.6</ele>
        <time>2017-01-18T11:51:38Z</time>
      </trkpt>
      <trkpt lat="43.44251" lon="6.29097">
        <ele>256.8</ele>
        <time>2017-01-18T11:51:49Z</time>
      </trkpt>
      <trkpt lat="43.44255" lon="6.29085">
        <ele>255.4</ele>
        <time>2017-01-18T11:52:00Z</time>
      </trkpt>
      <trkpt lat="43.44261" lon="6.29076">
        <ele>254.3</ele>
        <time>2017-01-18T11:52:10Z</time>
      </trkpt>
      <trkpt lat="43.44267" lon="6.29065">
        <ele>253</ele>
        <time>2017-01-18T11:52:23Z</time>
      </trkpt>
      <trkpt lat="43.44274" lon="6.29057">
        <ele>251.4</ele>
        <time>2017-01-18T11:52:37Z</time>
      </trkpt>
      <trkpt lat="43.4428" lon="6.29047">
        <ele>250.4</ele>
        <time>2017-01-18T11:52:45Z</time>
      </trkpt>
      <trkpt lat="43.44286" lon="6.29037">
        <ele>247.9</ele>
        <time>2017-01-18T11:53:04Z</time>
      </trkpt>
      <trkpt lat="43.44292" lon="6.29027">
        <ele>245.9</ele>
        <time>2017-01-18T11:53:15Z</time>
      </trkpt>
      <trkpt lat="43.44299" lon="6.29017">
        <ele>244.4</ele>
        <time>2017-01-18T11:53:24Z</time>
      </trkpt>
      <trkpt lat="43.44304" lon="6.29007">
        <ele>242.5</ele>
        <time>2017-01-18T11:53:36Z</time>
      </trkpt>
      <trkpt lat="43.44303" lon="6.28994">
        <ele>239.6</ele>
        <time>2017-01-18T11:53:54Z</time>
      </trkpt>
      <trkpt lat="43.44302" lon="6.28982">
        <ele>236.3</ele>
        <time>2017-01-18T11:54:16Z</time>
      </trkpt>
      <trkpt lat="43.44297" lon="6.28971">
        <ele>234.9</ele>
        <time>2017-01-18T11:54:33Z</time>
      </trkpt>
      <trkpt lat="43.44292" lon="6.28961">
        <ele>236.2</ele>
        <time>2017-01-18T11:54:56Z</time>
      </trkpt>
      <trkpt lat="43.44285" lon="6.28954">
        <ele>237.7</ele>
        <time>2017-01-18T11:55:08Z</time>
      </trkpt>
      <trkpt lat="43.44277" lon="6.28945">
        <ele>239.8</ele>
        <time>2017-01-18T11:55:21Z</time>
      </trkpt>
      <trkpt lat="43.44269" lon="6.2895">
        <ele>243.4</ele>
        <time>2017-01-18T11:55:58Z</time>
      </trkpt>
      <trkpt lat="43.44273" lon="6.28939">
        <ele>243.9</ele>
        <time>2017-01-18T11:56:50Z</time>
      </trkpt>
      <trkpt lat="43.44265" lon="6.28947">
        <ele>243.7</ele>
        <time>2017-01-18T11:57:30Z</time>
      </trkpt>
      <trkpt lat="43.44259" lon="6.28937">
        <ele>243.8</ele>
        <time>2017-01-18T11:58:19Z</time>
      </trkpt>
      <trkpt lat="43.44251" lon="6.28929">
        <ele>244.8</ele>
        <time>2017-01-18T11:58:34Z</time>
      </trkpt>
      <trkpt lat="43.44243" lon="6.28924">
        <ele>246</ele>
        <time>2017-01-18T11:58:45Z</time>
      </trkpt>
      <trkpt lat="43.44236" lon="6.28915">
        <ele>248.6</ele>
        <time>2017-01-18T11:59:10Z</time>
      </trkpt>
      <trkpt lat="43.44228" lon="6.28908">
        <ele>250.7</ele>
        <time>2017-01-18T11:59:29Z</time>
      </trkpt>
      <trkpt lat="43.44225" lon="6.28896">
        <ele>253.2</ele>
        <time>2017-01-18T11:59:45Z</time>
      </trkpt>
      <trkpt lat="43.4422" lon="6.28885">
        <ele>255.8</ele>
        <time>2017-01-18T12:00:01Z</time>
      </trkpt>
      <trkpt lat="43.44215" lon="6.28874">
        <ele>257.3</ele>
        <time>2017-01-18T12:00:11Z</time>
      </trkpt>
      <trkpt lat="43.44213" lon="6.28862">
        <ele>258.7</ele>
        <time>2017-01-18T12:00:23Z</time>
      </trkpt>
      <trkpt lat="43.44212" lon="6.28848">
        <ele>259.2</ele>
        <time>2017-01-18T12:00:34Z</time>
      </trkpt>
      <trkpt lat="43.44216" lon="6.28836">
        <ele>258.9</ele>
        <time>2017-01-18T12:00:43Z</time>
      </trkpt>
      <trkpt lat="43.44218" lon="6.28824">
        <ele>257.8</ele>
        <time>2017-01-18T12:00:52Z</time>
      </trkpt>
      <trkpt lat="43.44221" lon="6.28811">
        <ele>257.3</ele>
        <time>2017-01-18T12:01:01Z</time>
      </trkpt>
      <trkpt lat="43.44222" lon="6.28798">
        <ele>256.8</ele>
        <time>2017-01-18T12:01:12Z</time>
      </trkpt>
      <trkpt lat="43.44227" lon="6.28787">
        <ele>256.2</ele>
        <time>2017-01-18T12:01:20Z</time>
      </trkpt>
      <trkpt lat="43.44229" lon="6.28775">
        <ele>255.9</ele>
        <time>2017-01-18T12:01:29Z</time>
      </trkpt>
      <trkpt lat="43.44235" lon="6.28764">
        <ele>255.5</ele>
        <time>2017-01-18T12:01:36Z</time>
      </trkpt>
      <trkpt lat="43.44241" lon="6.28753">
        <ele>255.1</ele>
        <time>2017-01-18T12:01:45Z</time>
      </trkpt>
      <trkpt lat="43.44244" lon="6.28741">
        <ele>254.6</ele>
        <time>2017-01-18T12:01:56Z</time>
      </trkpt>
      <trkpt lat="43.44245" lon="6.28727">
        <ele>254.1</ele>
        <time>2017-01-18T12:02:05Z</time>
      </trkpt>
      <trkpt lat="43.44245" lon="6.28713">
        <ele>253.7</ele>
        <time>2017-01-18T12:02:12Z</time>
      </trkpt>
      <trkpt lat="43.44239" lon="6.28702">
        <ele>253.6</ele>
        <time>2017-01-18T12:02:20Z</time>
      </trkpt>
      <trkpt lat="43.44233" lon="6.28692">
        <ele>253.8</ele>
        <time>2017-01-18T12:02:28Z</time>
      </trkpt>
      <trkpt lat="43.44225" lon="6.28683">
        <ele>253.8</ele>
        <time>2017-01-18T12:02:36Z</time>
      </trkpt>
      <trkpt lat="43.44218" lon="6.28673">
        <ele>254.2</ele>
        <time>2017-01-18T12:02:47Z</time>
      </trkpt>
      <trkpt lat="43.44213" lon="6.28662">
        <ele>254.5</ele>
        <time>2017-01-18T12:02:56Z</time>
      </trkpt>
      <trkpt lat="43.44205" lon="6.28652">
        <ele>254.8</ele>
        <time>2017-01-18T12:03:05Z</time>
      </trkpt>
      <trkpt lat="43.44197" lon="6.28645">
        <ele>255.3</ele>
        <time>2017-01-18T12:03:13Z</time>
      </trkpt>
      <trkpt lat="43.44191" lon="6.28634">
        <ele>255.9</ele>
        <time>2017-01-18T12:03:23Z</time>
      </trkpt>
      <trkpt lat="43.44183" lon="6.28627">
        <ele>256.3</ele>
        <time>2017-01-18T12:03:30Z</time>
      </trkpt>
      <trkpt lat="43.44174" lon="6.28622">
        <ele>257</ele>
        <time>2017-01-18T12:03:39Z</time>
      </trkpt>
      <trkpt lat="43.44165" lon="6.28619">
        <ele>258.4</ele>
        <time>2017-01-18T12:03:49Z</time>
      </trkpt>
      <trkpt lat="43.44159" lon="6.2861">
        <ele>262.6</ele>
        <time>2017-01-18T12:04:12Z</time>
      </trkpt>
      <trkpt lat="43.44152" lon="6.28602">
        <ele>264</ele>
        <time>2017-01-18T12:04:23Z</time>
      </trkpt>
      <trkpt lat="43.44145" lon="6.28592">
        <ele>265.4</ele>
        <time>2017-01-18T12:04:33Z</time>
      </trkpt>
      <trkpt lat="43.44139" lon="6.28581">
        <ele>266.3</ele>
        <time>2017-01-18T12:04:41Z</time>
      </trkpt>
      <trkpt lat="43.44142" lon="6.28568">
        <ele>266.8</ele>
        <time>2017-01-18T12:04:52Z</time>
      </trkpt>
      <trkpt lat="43.44144" lon="6.28556">
        <ele>267.4</ele>
        <time>2017-01-18T12:05:02Z</time>
      </trkpt>
      <trkpt lat="43.44142" lon="6.28544">
        <ele>268.5</ele>
        <time>2017-01-18T12:05:14Z</time>
      </trkpt>
      <trkpt lat="43.4415" lon="6.28535">
        <ele>270.7</ele>
        <time>2017-01-18T12:05:33Z</time>
      </trkpt>
      <trkpt lat="43.44158" lon="6.28526">
        <ele>271.9</ele>
        <time>2017-01-18T12:05:41Z</time>
      </trkpt>
      <trkpt lat="43.44164" lon="6.28516">
        <ele>273.4</ele>
        <time>2017-01-18T12:05:50Z</time>
      </trkpt>
      <trkpt lat="43.44165" lon="6.28503">
        <ele>274.9</ele>
        <time>2017-01-18T12:06:01Z</time>
      </trkpt>
      <trkpt lat="43.44172" lon="6.28496">
        <ele>276</ele>
        <time>2017-01-18T12:06:13Z</time>
      </trkpt>
      <trkpt lat="43.44175" lon="6.28484">
        <ele>277.2</ele>
        <time>2017-01-18T12:07:53Z</time>
      </trkpt>
      <trkpt lat="43.44182" lon="6.28474">
        <ele>276.7</ele>
        <time>2017-01-18T12:08:06Z</time>
      </trkpt>
      <trkpt lat="43.44187" lon="6.28463">
        <ele>275.6</ele>
        <time>2017-01-18T12:08:18Z</time>
      </trkpt>
      <trkpt lat="43.4419" lon="6.28451">
        <ele>274</ele>
        <time>2017-01-18T12:08:33Z</time>
      </trkpt>
      <trkpt lat="43.44194" lon="6.2844">
        <ele>273</ele>
        <time>2017-01-18T12:08:40Z</time>
      </trkpt>
      <trkpt lat="43.44199" lon="6.28428">
        <ele>271.6</ele>
        <time>2017-01-18T12:08:53Z</time>
      </trkpt>
      <trkpt lat="43.44204" lon="6.28417">
        <ele>269.7</ele>
        <time>2017-01-18T12:09:07Z</time>
      </trkpt>
      <trkpt lat="43.4421" lon="6.28407">
        <ele>268.3</ele>
        <time>2017-01-18T12:09:17Z</time>
      </trkpt>
      <trkpt lat="43.44217" lon="6.28398">
        <ele>267.5</ele>
        <time>2017-01-18T12:09:23Z</time>
      </trkpt>
      <trkpt lat="43.44221" lon="6.28386">
        <ele>266.4</ele>
        <time>2017-01-18T12:09:35Z</time>
      </trkpt>
      <trkpt lat="43.44225" lon="6.28375">
        <ele>265.3</ele>
        <time>2017-01-18T12:09:48Z</time>
      </trkpt>
      <trkpt lat="43.44227" lon="6.28363">
        <ele>264.4</ele>
        <time>2017-01-18T12:09:58Z</time>
      </trkpt>
      <trkpt lat="43.44231" lon="6.28351">
        <ele>263.3</ele>
        <time>2017-01-18T12:10:10Z</time>
      </trkpt>
      <trkpt lat="43.44233" lon="6.28338">
        <ele>262.5</ele>
        <time>2017-01-18T12:10:20Z</time>
      </trkpt>
      <trkpt lat="43.44232" lon="6.28326">
        <ele>262.2</ele>
        <time>2017-01-18T12:10:30Z</time>
      </trkpt>
      <trkpt lat="43.44235" lon="6.28313">
        <ele>262.1</ele>
        <time>2017-01-18T12:10:37Z</time>
      </trkpt>
      <trkpt lat="43.44233" lon="6.28299">
        <ele>262.3</ele>
        <time>2017-01-18T12:10:45Z</time>
      </trkpt>
      <trkpt lat="43.44229" lon="6.28287">
        <ele>262.8</ele>
        <time>2017-01-18T12:10:57Z</time>
      </trkpt>
      <trkpt lat="43.44225" lon="6.28275">
        <ele>264.3</ele>
        <time>2017-01-18T12:11:11Z</time>
      </trkpt>
      <trkpt lat="43.44218" lon="6.28265">
        <ele>265.7</ele>
        <time>2017-01-18T12:11:23Z</time>
      </trkpt>
      <trkpt lat="43.44212" lon="6.28256">
        <ele>267.2</ele>
        <time>2017-01-18T12:11:36Z</time>
      </trkpt>
      <trkpt lat="43.44206" lon="6.28246">
        <ele>268.7</ele>
        <time>2017-01-18T12:11:47Z</time>
      </trkpt>
      <trkpt lat="43.44202" lon="6.28234">
        <ele>270.1</ele>
        <time>2017-01-18T12:12:00Z</time>
      </trkpt>
      <trkpt lat="43.44199" lon="6.28221">
        <ele>271.3</ele>
        <time>2017-01-18T12:12:11Z</time>
      </trkpt>
      <trkpt lat="43.44197" lon="6.28209">
        <ele>272.4</ele>
        <time>2017-01-18T12:12:21Z</time>
      </trkpt>
      <trkpt lat="43.44197" lon="6.28195">
        <ele>273.7</ele>
        <time>2017-01-18T12:12:33Z</time>
      </trkpt>
      <trkpt lat="43.44194" lon="6.28182">
        <ele>274.3</ele>
        <time>2017-01-18T12:12:43Z</time>
      </trkpt>
      <trkpt lat="43.44193" lon="6.28169">
        <ele>274.9</ele>
        <time>2017-01-18T12:12:52Z</time>
      </trkpt>
      <trkpt lat="43.44196" lon="6.28156">
        <ele>275.5</ele>
        <time>2017-01-18T12:13:02Z</time>
      </trkpt>
      <trkpt lat="43.44195" lon="6.28143">
        <ele>276</ele>
        <time>2017-01-18T12:13:11Z</time>
      </trkpt>
      <trkpt lat="43.4419" lon="6.28131">
        <ele>276.3</ele>
        <time>2017-01-18T12:13:20Z</time>
      </trkpt>
      <trkpt lat="43.44187" lon="6.28117">
        <ele>276.5</ele>
        <time>2017-01-18T12:13:30Z</time>
      </trkpt>
      <trkpt lat="43.44184" lon="6.28105">
        <ele>276.8</ele>
        <time>2017-01-18T12:13:40Z</time>
      </trkpt>
      <trkpt lat="43.44183" lon="6.28093">
        <ele>276.5</ele>
        <time>2017-01-18T12:13:52Z</time>
      </trkpt>
      <trkpt lat="43.44182" lon="6.28079">
        <ele>275.7</ele>
        <time>2017-01-18T12:14:02Z</time>
      </trkpt>
      <trkpt lat="43.44183" lon="6.28066">
        <ele>275.2</ele>
        <time>2017-01-18T12:14:10Z</time>
      </trkpt>
      <trkpt lat="43.44183" lon="6.28052">
        <ele>275.2</ele>
        <time>2017-01-18T12:14:23Z</time>
      </trkpt>
      <trkpt lat="43.44179" lon="6.28041">
        <ele>276.5</ele>
        <time>2017-01-18T12:14:38Z</time>
      </trkpt>
      <trkpt lat="43.44176" lon="6.28029">
        <ele>278.2</ele>
        <time>2017-01-18T12:14:50Z</time>
      </trkpt>
      <trkpt lat="43.44174" lon="6.28017">
        <ele>281</ele>
        <time>2017-01-18T12:15:07Z</time>
      </trkpt>
      <trkpt lat="43.44172" lon="6.28005">
        <ele>282.7</ele>
        <time>2017-01-18T12:15:19Z</time>
      </trkpt>
      <trkpt lat="43.44165" lon="6.27995">
        <ele>283.8</ele>
        <time>2017-01-18T12:15:29Z</time>
      </trkpt>
      <trkpt lat="43.44163" lon="6.27983">
        <ele>285.5</ele>
        <time>2017-01-18T12:15:46Z</time>
      </trkpt>
      <trkpt lat="43.44162" lon="6.2797">
        <ele>287</ele>
        <time>2017-01-18T12:15:58Z</time>
      </trkpt>
      <trkpt lat="43.44157" lon="6.27958">
        <ele>289.2</ele>
        <time>2017-01-18T12:16:16Z</time>
      </trkpt>
      <trkpt lat="43.44157" lon="6.27946">
        <ele>291.2</ele>
        <time>2017-01-18T12:16:31Z</time>
      </trkpt>
      <trkpt lat="43.44158" lon="6.27933">
        <ele>292.8</ele>
        <time>2017-01-18T12:16:43Z</time>
      </trkpt>
      <trkpt lat="43.44158" lon="6.2792">
        <ele>294</ele>
        <time>2017-01-18T12:16:54Z</time>
      </trkpt>
      <trkpt lat="43.4416" lon="6.27908">
        <ele>295.1</ele>
        <time>2017-01-18T12:17:04Z</time>
      </trkpt>
      <trkpt lat="43.44162" lon="6.27895">
        <ele>296.2</ele>
        <time>2017-01-18T12:17:14Z</time>
      </trkpt>
      <trkpt lat="43.44167" lon="6.27884">
        <ele>297.2</ele>
        <time>2017-01-18T12:17:24Z</time>
      </trkpt>
      <trkpt lat="43.44174" lon="6.27875">
        <ele>296.9</ele>
        <time>2017-01-18T12:17:39Z</time>
      </trkpt>
      <trkpt lat="43.44182" lon="6.27867">
        <ele>295.6</ele>
        <time>2017-01-18T12:17:51Z</time>
      </trkpt>
      <trkpt lat="43.44188" lon="6.27857">
        <ele>294.6</ele>
        <time>2017-01-18T12:18:01Z</time>
      </trkpt>
      <trkpt lat="43.44191" lon="6.27844">
        <ele>293.6</ele>
        <time>2017-01-18T12:18:09Z</time>
      </trkpt>
      <trkpt lat="43.44194" lon="6.27832">
        <ele>292.8</ele>
        <time>2017-01-18T12:18:20Z</time>
      </trkpt>
      <trkpt lat="43.44197" lon="6.27819">
        <ele>292.2</ele>
        <time>2017-01-18T12:18:28Z</time>
      </trkpt>
      <trkpt lat="43.44197" lon="6.27806">
        <ele>291.8</ele>
        <time>2017-01-18T12:18:38Z</time>
      </trkpt>
      <trkpt lat="43.44199" lon="6.27793">
        <ele>290.9</ele>
        <time>2017-01-18T12:18:49Z</time>
      </trkpt>
      <trkpt lat="43.44202" lon="6.2778">
        <ele>290.3</ele>
        <time>2017-01-18T12:18:58Z</time>
      </trkpt>
      <trkpt lat="43.44203" lon="6.27767">
        <ele>289.5</ele>
        <time>2017-01-18T12:19:07Z</time>
      </trkpt>
      <trkpt lat="43.44201" lon="6.27754">
        <ele>288.9</ele>
        <time>2017-01-18T12:19:17Z</time>
      </trkpt>
      <trkpt lat="43.44204" lon="6.27742">
        <ele>288.4</ele>
        <time>2017-01-18T12:19:25Z</time>
      </trkpt>
      <trkpt lat="43.44206" lon="6.27729">
        <ele>287.9</ele>
        <time>2017-01-18T12:19:34Z</time>
      </trkpt>
      <trkpt lat="43.44202" lon="6.27718">
        <ele>285.6</ele>
        <time>2017-01-18T12:19:55Z</time>
      </trkpt>
      <trkpt lat="43.44209" lon="6.27708">
        <ele>283.6</ele>
        <time>2017-01-18T12:20:11Z</time>
      </trkpt>
      <trkpt lat="43.44216" lon="6.277">
        <ele>280</ele>
        <time>2017-01-18T12:20:37Z</time>
      </trkpt>
      <trkpt lat="43.44225" lon="6.27696">
        <ele>278.6</ele>
        <time>2017-01-18T12:20:50Z</time>
      </trkpt>
      <trkpt lat="43.44224" lon="6.27683">
        <ele>277.5</ele>
        <time>2017-01-18T12:21:43Z</time>
      </trkpt>
      <trkpt lat="43.44226" lon="6.27671">
        <ele>277.8</ele>
        <time>2017-01-18T12:22:42Z</time>
      </trkpt>
      <trkpt lat="43.44223" lon="6.27683">
        <ele>277.7</ele>
        <time>2017-01-18T12:23:02Z</time>
      </trkpt>
      <trkpt lat="43.44232" lon="6.27687">
        <ele>278</ele>
        <time>2017-01-18T12:28:58Z</time>
      </trkpt>
      <trkpt lat="43.44244" lon="6.27687">
        <ele>278</ele>
        <time>2017-01-18T12:29:44Z</time>
      </trkpt>
      <trkpt lat="43.44253" lon="6.27689">
        <ele>278</ele>
        <time>2017-01-18T12:29:52Z</time>
      </trkpt>
      <trkpt lat="43.44244" lon="6.2769">
        <ele>278.6</ele>
        <time>2017-01-18T12:30:02Z</time>
      </trkpt>
      <trkpt lat="43.44235" lon="6.27688">
        <ele>278.7</ele>
        <time>2017-01-18T12:30:10Z</time>
      </trkpt>
      <trkpt lat="43.44226" lon="6.27692">
        <ele>278.8</ele>
        <time>2017-01-18T12:30:41Z</time>
      </trkpt>
      <trkpt lat="43.44232" lon="6.27682">
        <ele>278.9</ele>
        <time>2017-01-18T12:31:20Z</time>
      </trkpt>
      <trkpt lat="43.44235" lon="6.27694">
        <ele>279.2</ele>
        <time>2017-01-18T12:31:52Z</time>
      </trkpt>
      <trkpt lat="43.44242" lon="6.27684">
        <ele>279.9</ele>
        <time>2017-01-18T12:32:30Z</time>
      </trkpt>
      <trkpt lat="43.44251" lon="6.27684">
        <ele>282.6</ele>
        <time>2017-01-18T12:32:52Z</time>
      </trkpt>
      <trkpt lat="43.44258" lon="6.27675">
        <ele>283.8</ele>
        <time>2017-01-18T12:33:03Z</time>
      </trkpt>
      <trkpt lat="43.44265" lon="6.27667">
        <ele>284.6</ele>
        <time>2017-01-18T12:33:12Z</time>
      </trkpt>
      <trkpt lat="43.44271" lon="6.27657">
        <ele>284.7</ele>
        <time>2017-01-18T12:33:25Z</time>
      </trkpt>
      <trkpt lat="43.44277" lon="6.27648">
        <ele>284</ele>
        <time>2017-01-18T12:33:38Z</time>
      </trkpt>
      <trkpt lat="43.44286" lon="6.27643">
        <ele>282.3</ele>
        <time>2017-01-18T12:33:51Z</time>
      </trkpt>
      <trkpt lat="43.44295" lon="6.27641">
        <ele>282.5</ele>
        <time>2017-01-18T12:34:12Z</time>
      </trkpt>
      <trkpt lat="43.443" lon="6.27652">
        <ele>283.8</ele>
        <time>2017-01-18T12:34:30Z</time>
      </trkpt>
      <trkpt lat="43.44307" lon="6.27662">
        <ele>283.7</ele>
        <time>2017-01-18T12:34:41Z</time>
      </trkpt>
      <trkpt lat="43.44312" lon="6.27673">
        <ele>283</ele>
        <time>2017-01-18T12:34:51Z</time>
      </trkpt>
      <trkpt lat="43.44318" lon="6.27683">
        <ele>282.6</ele>
        <time>2017-01-18T12:34:59Z</time>
      </trkpt>
      <trkpt lat="43.44323" lon="6.27695">
        <ele>281.9</ele>
        <time>2017-01-18T12:35:10Z</time>
      </trkpt>
      <trkpt lat="43.44332" lon="6.27698">
        <ele>281.4</ele>
        <time>2017-01-18T12:35:16Z</time>
      </trkpt>
      <trkpt lat="43.44341" lon="6.27699">
        <ele>280.9</ele>
        <time>2017-01-18T12:35:22Z</time>
      </trkpt>
      <trkpt lat="43.44351" lon="6.27691">
        <ele>280.1</ele>
        <time>2017-01-18T12:35:29Z</time>
      </trkpt>
      <trkpt lat="43.4436" lon="6.27682">
        <ele>279.6</ele>
        <time>2017-01-18T12:35:35Z</time>
      </trkpt>
      <trkpt lat="43.44368" lon="6.27673">
        <ele>279.1</ele>
        <time>2017-01-18T12:35:41Z</time>
      </trkpt>
      <trkpt lat="43.44372" lon="6.27661">
        <ele>278.1</ele>
        <time>2017-01-18T12:35:50Z</time>
      </trkpt>
      <trkpt lat="43.44378" lon="6.27651">
        <ele>277.6</ele>
        <time>2017-01-18T12:35:57Z</time>
      </trkpt>
      <trkpt lat="43.44384" lon="6.27641">
        <ele>277.2</ele>
        <time>2017-01-18T12:36:03Z</time>
      </trkpt>
      <trkpt lat="43.44386" lon="6.27628">
        <ele>276.9</ele>
        <time>2017-01-18T12:36:11Z</time>
      </trkpt>
      <trkpt lat="43.44386" lon="6.27615">
        <ele>276.7</ele>
        <time>2017-01-18T12:36:21Z</time>
      </trkpt>
      <trkpt lat="43.44387" lon="6.27603">
        <ele>276.9</ele>
        <time>2017-01-18T12:36:29Z</time>
      </trkpt>
      <trkpt lat="43.44388" lon="6.2759">
        <ele>277.2</ele>
        <time>2017-01-18T12:36:38Z</time>
      </trkpt>
      <trkpt lat="43.44387" lon="6.27576">
        <ele>277.5</ele>
        <time>2017-01-18T12:36:48Z</time>
      </trkpt>
      <trkpt lat="43.44391" lon="6.27565">
        <ele>277</ele>
        <time>2017-01-18T12:36:56Z</time>
      </trkpt>
      <trkpt lat="43.44398" lon="6.27558">
        <ele>276.6</ele>
        <time>2017-01-18T12:37:02Z</time>
      </trkpt>
      <trkpt lat="43.44407" lon="6.27554">
        <ele>276.2</ele>
        <time>2017-01-18T12:37:07Z</time>
      </trkpt>
      <trkpt lat="43.44415" lon="6.27546">
        <ele>275.9</ele>
        <time>2017-01-18T12:37:13Z</time>
      </trkpt>
      <trkpt lat="43.44419" lon="6.27535">
        <ele>275.5</ele>
        <time>2017-01-18T12:37:21Z</time>
      </trkpt>
      <trkpt lat="43.44421" lon="6.27523">
        <ele>275.1</ele>
        <time>2017-01-18T12:37:31Z</time>
      </trkpt>
      <trkpt lat="43.44426" lon="6.27512">
        <ele>275.2</ele>
        <time>2017-01-18T12:37:43Z</time>
      </trkpt>
      <trkpt lat="43.44431" lon="6.27501">
        <ele>275.9</ele>
        <time>2017-01-18T12:37:51Z</time>
      </trkpt>
      <trkpt lat="43.44435" lon="6.27488">
        <ele>276.6</ele>
        <time>2017-01-18T12:38:00Z</time>
      </trkpt>
      <trkpt lat="43.4444" lon="6.27477">
        <ele>277</ele>
        <time>2017-01-18T12:38:10Z</time>
      </trkpt>
      <trkpt lat="43.44445" lon="6.27466">
        <ele>277.1</ele>
        <time>2017-01-18T12:38:18Z</time>
      </trkpt>
      <trkpt lat="43.44451" lon="6.27455">
        <ele>277.2</ele>
        <time>2017-01-18T12:38:26Z</time>
      </trkpt>
      <trkpt lat="43.44456" lon="6.27444">
        <ele>277.4</ele>
        <time>2017-01-18T12:38:34Z</time>
      </trkpt>
      <trkpt lat="43.44465" lon="6.27437">
        <ele>277.8</ele>
        <time>2017-01-18T12:38:42Z</time>
      </trkpt>
      <trkpt lat="43.44473" lon="6.27431">
        <ele>278.2</ele>
        <time>2017-01-18T12:38:56Z</time>
      </trkpt>
      <trkpt lat="43.4448" lon="6.27424">
        <ele>278.5</ele>
        <time>2017-01-18T12:39:05Z</time>
      </trkpt>
      <trkpt lat="43.4449" lon="6.27417">
        <ele>279.2</ele>
        <time>2017-01-18T12:39:11Z</time>
      </trkpt>
      <trkpt lat="43.44495" lon="6.27405">
        <ele>279.8</ele>
        <time>2017-01-18T12:39:21Z</time>
      </trkpt>
      <trkpt lat="43.445" lon="6.27395">
        <ele>280</ele>
        <time>2017-01-18T12:39:27Z</time>
      </trkpt>
      <trkpt lat="43.44505" lon="6.27382">
        <ele>279.6</ele>
        <time>2017-01-18T12:39:36Z</time>
      </trkpt>
      <trkpt lat="43.44509" lon="6.27371">
        <ele>279.1</ele>
        <time>2017-01-18T12:39:44Z</time>
      </trkpt>
      <trkpt lat="43.44513" lon="6.2736">
        <ele>278.5</ele>
        <time>2017-01-18T12:39:51Z</time>
      </trkpt>
      <trkpt lat="43.44521" lon="6.27352">
        <ele>278</ele>
        <time>2017-01-18T12:39:57Z</time>
      </trkpt>
      <trkpt lat="43.44525" lon="6.2734">
        <ele>277.7</ele>
        <time>2017-01-18T12:40:06Z</time>
      </trkpt>
      <trkpt lat="43.44532" lon="6.27331">
        <ele>277.3</ele>
        <time>2017-01-18T12:40:19Z</time>
      </trkpt>
      <trkpt lat="43.44536" lon="6.27319">
        <ele>277</ele>
        <time>2017-01-18T12:40:31Z</time>
      </trkpt>
      <trkpt lat="43.44535" lon="6.27307">
        <ele>276.4</ele>
        <time>2017-01-18T12:40:41Z</time>
      </trkpt>
      <trkpt lat="43.44537" lon="6.27294">
        <ele>276</ele>
        <time>2017-01-18T12:40:50Z</time>
      </trkpt>
      <trkpt lat="43.44538" lon="6.27282">
        <ele>275.7</ele>
        <time>2017-01-18T12:41:19Z</time>
      </trkpt>
      <trkpt lat="43.44545" lon="6.27274">
        <ele>275.3</ele>
        <time>2017-01-18T12:41:28Z</time>
      </trkpt>
      <trkpt lat="43.44555" lon="6.27269">
        <ele>274.4</ele>
        <time>2017-01-18T12:41:45Z</time>
      </trkpt>
      <trkpt lat="43.44559" lon="6.27258">
        <ele>274.2</ele>
        <time>2017-01-18T12:42:03Z</time>
      </trkpt>
      <trkpt lat="43.44561" lon="6.27245">
        <ele>273.3</ele>
        <time>2017-01-18T12:42:13Z</time>
      </trkpt>
      <trkpt lat="43.44564" lon="6.27232">
        <ele>272.3</ele>
        <time>2017-01-18T12:42:23Z</time>
      </trkpt>
      <trkpt lat="43.4457" lon="6.27222">
        <ele>271.8</ele>
        <time>2017-01-18T12:42:31Z</time>
      </trkpt>
      <trkpt lat="43.44574" lon="6.27209">
        <ele>271.3</ele>
        <time>2017-01-18T12:42:40Z</time>
      </trkpt>
      <trkpt lat="43.4458" lon="6.27199">
        <ele>271</ele>
        <time>2017-01-18T12:42:48Z</time>
      </trkpt>
      <trkpt lat="43.44585" lon="6.27188">
        <ele>270.6</ele>
        <time>2017-01-18T12:42:56Z</time>
      </trkpt>
      <trkpt lat="43.44588" lon="6.27176">
        <ele>270.4</ele>
        <time>2017-01-18T12:43:06Z</time>
      </trkpt>
      <trkpt lat="43.44595" lon="6.27167">
        <ele>270.2</ele>
        <time>2017-01-18T12:43:16Z</time>
      </trkpt>
      <trkpt lat="43.44603" lon="6.27173">
        <ele>270.8</ele>
        <time>2017-01-18T12:43:35Z</time>
      </trkpt>
      <trkpt lat="43.44612" lon="6.27176">
        <ele>272.3</ele>
        <time>2017-01-18T12:43:55Z</time>
      </trkpt>
      <trkpt lat="43.44621" lon="6.27175">
        <ele>273.2</ele>
        <time>2017-01-18T12:44:03Z</time>
      </trkpt>
      <trkpt lat="43.4463" lon="6.27175">
        <ele>274.5</ele>
        <time>2017-01-18T12:44:18Z</time>
      </trkpt>
      <trkpt lat="43.4464" lon="6.27175">
        <ele>274.9</ele>
        <time>2017-01-18T12:44:25Z</time>
      </trkpt>
      <trkpt lat="43.44649" lon="6.27174">
        <ele>275.5</ele>
        <time>2017-01-18T12:44:31Z</time>
      </trkpt>
      <trkpt lat="43.44658" lon="6.27173">
        <ele>276.1</ele>
        <time>2017-01-18T12:44:40Z</time>
      </trkpt>
      <trkpt lat="43.44666" lon="6.27166">
        <ele>277.4</ele>
        <time>2017-01-18T12:45:01Z</time>
      </trkpt>
      <trkpt lat="43.44675" lon="6.27164">
        <ele>277.7</ele>
        <time>2017-01-18T12:45:10Z</time>
      </trkpt>
      <trkpt lat="43.44685" lon="6.27164">
        <ele>278.3</ele>
        <time>2017-01-18T12:45:28Z</time>
      </trkpt>
      <trkpt lat="43.44694" lon="6.27162">
        <ele>278.5</ele>
        <time>2017-01-18T12:45:38Z</time>
      </trkpt>
      <trkpt lat="43.44703" lon="6.27159">
        <ele>279.9</ele>
        <time>2017-01-18T12:45:54Z</time>
      </trkpt>
      <trkpt lat="43.44712" lon="6.27154">
        <ele>281.3</ele>
        <time>2017-01-18T12:46:07Z</time>
      </trkpt>
      <trkpt lat="43.44719" lon="6.27145">
        <ele>282.4</ele>
        <time>2017-01-18T12:46:15Z</time>
      </trkpt>
      <trkpt lat="43.44721" lon="6.27133">
        <ele>283.1</ele>
        <time>2017-01-18T12:46:24Z</time>
      </trkpt>
      <trkpt lat="43.44723" lon="6.2712">
        <ele>283.8</ele>
        <time>2017-01-18T12:46:33Z</time>
      </trkpt>
      <trkpt lat="43.4472" lon="6.27107">
        <ele>284.2</ele>
        <time>2017-01-18T12:46:41Z</time>
      </trkpt>
      <trkpt lat="43.44722" lon="6.27093">
        <ele>284.7</ele>
        <time>2017-01-18T12:46:49Z</time>
      </trkpt>
      <trkpt lat="43.44726" lon="6.27081">
        <ele>284.8</ele>
        <time>2017-01-18T12:46:57Z</time>
      </trkpt>
      <trkpt lat="43.44727" lon="6.27068">
        <ele>284.9</ele>
        <time>2017-01-18T12:47:07Z</time>
      </trkpt>
      <trkpt lat="43.44728" lon="6.27054">
        <ele>284.8</ele>
        <time>2017-01-18T12:47:18Z</time>
      </trkpt>
      <trkpt lat="43.44725" lon="6.27042">
        <ele>284.5</ele>
        <time>2017-01-18T12:47:25Z</time>
      </trkpt>
      <trkpt lat="43.44729" lon="6.27031">
        <ele>283.8</ele>
        <time>2017-01-18T12:47:33Z</time>
      </trkpt>
      <trkpt lat="43.44737" lon="6.27025">
        <ele>283.1</ele>
        <time>2017-01-18T12:47:40Z</time>
      </trkpt>
      <trkpt lat="43.44746" lon="6.27028">
        <ele>282.6</ele>
        <time>2017-01-18T12:47:52Z</time>
      </trkpt>
      <trkpt lat="43.44756" lon="6.2703">
        <ele>282.9</ele>
        <time>2017-01-18T12:48:06Z</time>
      </trkpt>
      <trkpt lat="43.44765" lon="6.27032">
        <ele>283.6</ele>
        <time>2017-01-18T12:48:15Z</time>
      </trkpt>
      <trkpt lat="43.44775" lon="6.27035">
        <ele>284.6</ele>
        <time>2017-01-18T12:48:27Z</time>
      </trkpt>
      <trkpt lat="43.44783" lon="6.27042">
        <ele>285.6</ele>
        <time>2017-01-18T12:48:41Z</time>
      </trkpt>
      <trkpt lat="43.44785" lon="6.27055">
        <ele>285.4</ele>
        <time>2017-01-18T12:48:53Z</time>
      </trkpt>
      <trkpt lat="43.44786" lon="6.27067">
        <ele>284.9</ele>
        <time>2017-01-18T12:49:05Z</time>
      </trkpt>
      <trkpt lat="43.44793" lon="6.27077">
        <ele>284.2</ele>
        <time>2017-01-18T12:49:17Z</time>
      </trkpt>
      <trkpt lat="43.44796" lon="6.27089">
        <ele>283.1</ele>
        <time>2017-01-18T12:49:27Z</time>
      </trkpt>
      <trkpt lat="43.44803" lon="6.27098">
        <ele>282.1</ele>
        <time>2017-01-18T12:49:38Z</time>
      </trkpt>
      <trkpt lat="43.44808" lon="6.27108">
        <ele>281.6</ele>
        <time>2017-01-18T12:49:49Z</time>
      </trkpt>
      <trkpt lat="43.44817" lon="6.27114">
        <ele>281.9</ele>
        <time>2017-01-18T12:49:58Z</time>
      </trkpt>
      <trkpt lat="43.44825" lon="6.27119">
        <ele>282.7</ele>
        <time>2017-01-18T12:50:11Z</time>
      </trkpt>
      <trkpt lat="43.44835" lon="6.27121">
        <ele>283.6</ele>
        <time>2017-01-18T12:50:24Z</time>
      </trkpt>
      <trkpt lat="43.44844" lon="6.27124">
        <ele>284.3</ele>
        <time>2017-01-18T12:50:33Z</time>
      </trkpt>
      <trkpt lat="43.44852" lon="6.27127">
        <ele>284.9</ele>
        <time>2017-01-18T12:50:43Z</time>
      </trkpt>
      <trkpt lat="43.44861" lon="6.27134">
        <ele>285.5</ele>
        <time>2017-01-18T12:50:53Z</time>
      </trkpt>
      <trkpt lat="43.4487" lon="6.27138">
        <ele>286</ele>
        <time>2017-01-18T12:51:02Z</time>
      </trkpt>
      <trkpt lat="43.44879" lon="6.2714">
        <ele>286.3</ele>
        <time>2017-01-18T12:51:16Z</time>
      </trkpt>
      <trkpt lat="43.44887" lon="6.27147">
        <ele>286.6</ele>
        <time>2017-01-18T12:51:27Z</time>
      </trkpt>
      <trkpt lat="43.44891" lon="6.27159">
        <ele>286.7</ele>
        <time>2017-01-18T12:51:35Z</time>
      </trkpt>
      <trkpt lat="43.44894" lon="6.27171">
        <ele>286.7</ele>
        <time>2017-01-18T12:51:44Z</time>
      </trkpt>
      <trkpt lat="43.44896" lon="6.27185">
        <ele>286.7</ele>
        <time>2017-01-18T12:51:52Z</time>
      </trkpt>
      <trkpt lat="43.44897" lon="6.27197">
        <ele>286.5</ele>
        <time>2017-01-18T12:52:00Z</time>
      </trkpt>
      <trkpt lat="43.44899" lon="6.27211">
        <ele>286.4</ele>
        <time>2017-01-18T12:52:11Z</time>
      </trkpt>
      <trkpt lat="43.449" lon="6.27225">
        <ele>286.2</ele>
        <time>2017-01-18T12:52:20Z</time>
      </trkpt>
      <trkpt lat="43.44904" lon="6.27236">
        <ele>286.4</ele>
        <time>2017-01-18T12:52:28Z</time>
      </trkpt>
      <trkpt lat="43.44908" lon="6.27248">
        <ele>286.3</ele>
        <time>2017-01-18T12:52:36Z</time>
      </trkpt>
      <trkpt lat="43.4491" lon="6.27261">
        <ele>286.2</ele>
        <time>2017-01-18T12:52:44Z</time>
      </trkpt>
      <trkpt lat="43.44914" lon="6.27273">
        <ele>286.1</ele>
        <time>2017-01-18T12:52:52Z</time>
      </trkpt>
      <trkpt lat="43.44918" lon="6.27286">
        <ele>285.5</ele>
        <time>2017-01-18T12:53:01Z</time>
      </trkpt>
      <trkpt lat="43.44921" lon="6.273">
        <ele>285.1</ele>
        <time>2017-01-18T12:53:10Z</time>
      </trkpt>
      <trkpt lat="43.44925" lon="6.27312">
        <ele>285</ele>
        <time>2017-01-18T12:53:20Z</time>
      </trkpt>
      <trkpt lat="43.44925" lon="6.27325">
        <ele>284.6</ele>
        <time>2017-01-18T12:53:27Z</time>
      </trkpt>
      <trkpt lat="43.44925" lon="6.27339">
        <ele>284.3</ele>
        <time>2017-01-18T12:53:35Z</time>
      </trkpt>
      <trkpt lat="43.44927" lon="6.27352">
        <ele>284.1</ele>
        <time>2017-01-18T12:53:43Z</time>
      </trkpt>
      <trkpt lat="43.44928" lon="6.27365">
        <ele>283.8</ele>
        <time>2017-01-18T12:53:55Z</time>
      </trkpt>
      <trkpt lat="43.44925" lon="6.27379">
        <ele>283.6</ele>
        <time>2017-01-18T12:54:04Z</time>
      </trkpt>
      <trkpt lat="43.44924" lon="6.27392">
        <ele>283.3</ele>
        <time>2017-01-18T12:54:12Z</time>
      </trkpt>
      <trkpt lat="43.44918" lon="6.27402">
        <ele>283</ele>
        <time>2017-01-18T12:54:20Z</time>
      </trkpt>
      <trkpt lat="43.44915" lon="6.27415">
        <ele>282.7</ele>
        <time>2017-01-18T12:54:28Z</time>
      </trkpt>
      <trkpt lat="43.44911" lon="6.27427">
        <ele>282.5</ele>
        <time>2017-01-18T12:54:36Z</time>
      </trkpt>
      <trkpt lat="43.44907" lon="6.27439">
        <ele>282.4</ele>
        <time>2017-01-18T12:54:44Z</time>
      </trkpt>
      <trkpt lat="43.44905" lon="6.27452">
        <ele>282.4</ele>
        <time>2017-01-18T12:54:52Z</time>
      </trkpt>
      <trkpt lat="43.44901" lon="6.27465">
        <ele>283</ele>
        <time>2017-01-18T12:55:00Z</time>
      </trkpt>
      <trkpt lat="43.44901" lon="6.27478">
        <ele>283.5</ele>
        <time>2017-01-18T12:55:09Z</time>
      </trkpt>
      <trkpt lat="43.449" lon="6.27491">
        <ele>283.9</ele>
        <time>2017-01-18T12:55:19Z</time>
      </trkpt>
      <trkpt lat="43.44903" lon="6.27503">
        <ele>284.7</ele>
        <time>2017-01-18T12:55:29Z</time>
      </trkpt>
      <trkpt lat="43.44904" lon="6.27515">
        <ele>285.7</ele>
        <time>2017-01-18T12:55:37Z</time>
      </trkpt>
      <trkpt lat="43.44905" lon="6.27528">
        <ele>286.5</ele>
        <time>2017-01-18T12:55:48Z</time>
      </trkpt>
      <trkpt lat="43.44909" lon="6.27541">
        <ele>287.4</ele>
        <time>2017-01-18T12:56:00Z</time>
      </trkpt>
      <trkpt lat="43.44917" lon="6.27544">
        <ele>288.8</ele>
        <time>2017-01-18T12:56:10Z</time>
      </trkpt>
      <trkpt lat="43.44926" lon="6.2755">
        <ele>289.7</ele>
        <time>2017-01-18T12:56:21Z</time>
      </trkpt>
      <trkpt lat="43.44935" lon="6.27553">
        <ele>290.6</ele>
        <time>2017-01-18T12:56:31Z</time>
      </trkpt>
      <trkpt lat="43.44944" lon="6.27557">
        <ele>291.3</ele>
        <time>2017-01-18T12:56:41Z</time>
      </trkpt>
      <trkpt lat="43.44954" lon="6.27559">
        <ele>292.4</ele>
        <time>2017-01-18T12:56:50Z</time>
      </trkpt>
      <trkpt lat="43.44963" lon="6.27564">
        <ele>292.9</ele>
        <time>2017-01-18T12:57:01Z</time>
      </trkpt>
      <trkpt lat="43.44972" lon="6.2757">
        <ele>293</ele>
        <time>2017-01-18T12:57:10Z</time>
      </trkpt>
      <trkpt lat="43.4498" lon="6.27578">
        <ele>293.2</ele>
        <time>2017-01-18T12:57:18Z</time>
      </trkpt>
      <trkpt lat="43.44988" lon="6.27587">
        <ele>293.4</ele>
        <time>2017-01-18T12:57:31Z</time>
      </trkpt>
      <trkpt lat="43.44997" lon="6.27593">
        <ele>293.2</ele>
        <time>2017-01-18T12:57:40Z</time>
      </trkpt>
      <trkpt lat="43.45003" lon="6.27603">
        <ele>292.6</ele>
        <time>2017-01-18T12:57:51Z</time>
      </trkpt>
      <trkpt lat="43.4501" lon="6.27611">
        <ele>292</ele>
        <time>2017-01-18T12:57:59Z</time>
      </trkpt>
      <trkpt lat="43.45017" lon="6.27621">
        <ele>291.4</ele>
        <time>2017-01-18T12:58:09Z</time>
      </trkpt>
      <trkpt lat="43.45024" lon="6.2763">
        <ele>290.9</ele>
        <time>2017-01-18T12:58:18Z</time>
      </trkpt>
      <trkpt lat="43.45033" lon="6.27636">
        <ele>290.5</ele>
        <time>2017-01-18T12:58:28Z</time>
      </trkpt>
      <trkpt lat="43.4504" lon="6.27644">
        <ele>290.2</ele>
        <time>2017-01-18T12:58:35Z</time>
      </trkpt>
      <trkpt lat="43.45047" lon="6.27655">
        <ele>290.1</ele>
        <time>2017-01-18T12:58:42Z</time>
      </trkpt>
      <trkpt lat="43.45047" lon="6.27669">
        <ele>289.9</ele>
        <time>2017-01-18T12:58:51Z</time>
      </trkpt>
      <trkpt lat="43.45046" lon="6.27681">
        <ele>289.8</ele>
        <time>2017-01-18T12:58:58Z</time>
      </trkpt>
      <trkpt lat="43.45044" lon="6.27694">
        <ele>289.6</ele>
        <time>2017-01-18T12:59:06Z</time>
      </trkpt>
      <trkpt lat="43.45039" lon="6.27706">
        <ele>289.1</ele>
        <time>2017-01-18T12:59:17Z</time>
      </trkpt>
      <trkpt lat="43.45035" lon="6.27718">
        <ele>288.5</ele>
        <time>2017-01-18T12:59:25Z</time>
      </trkpt>
      <trkpt lat="43.45031" lon="6.27729">
        <ele>287.1</ele>
        <time>2017-01-18T12:59:35Z</time>
      </trkpt>
      <trkpt lat="43.45028" lon="6.27742">
        <ele>286</ele>
        <time>2017-01-18T12:59:44Z</time>
      </trkpt>
      <trkpt lat="43.45027" lon="6.27755">
        <ele>285.5</ele>
        <time>2017-01-18T12:59:52Z</time>
      </trkpt>
      <trkpt lat="43.45025" lon="6.27768">
        <ele>284.8</ele>
        <time>2017-01-18T12:59:59Z</time>
      </trkpt>
      <trkpt lat="43.45025" lon="6.27782">
        <ele>284</ele>
        <time>2017-01-18T13:00:08Z</time>
      </trkpt>
      <trkpt lat="43.45026" lon="6.27795">
        <ele>283.1</ele>
        <time>2017-01-18T13:00:16Z</time>
      </trkpt>
      <trkpt lat="43.45026" lon="6.27809">
        <ele>282.3</ele>
        <time>2017-01-18T13:00:25Z</time>
      </trkpt>
      <trkpt lat="43.45025" lon="6.27822">
        <ele>281.6</ele>
        <time>2017-01-18T13:00:30Z</time>
      </trkpt>
      <trkpt lat="43.45028" lon="6.27835">
        <ele>280.8</ele>
        <time>2017-01-18T13:00:39Z</time>
      </trkpt>
      <trkpt lat="43.45031" lon="6.27848">
        <ele>279.9</ele>
        <time>2017-01-18T13:00:48Z</time>
      </trkpt>
      <trkpt lat="43.45035" lon="6.2786">
        <ele>279.1</ele>
        <time>2017-01-18T13:00:57Z</time>
      </trkpt>
      <trkpt lat="43.45039" lon="6.27872">
        <ele>278</ele>
        <time>2017-01-18T13:01:08Z</time>
      </trkpt>
      <trkpt lat="43.45043" lon="6.27883">
        <ele>276.7</ele>
        <time>2017-01-18T13:01:16Z</time>
      </trkpt>
      <trkpt lat="43.45047" lon="6.27894">
        <ele>275.1</ele>
        <time>2017-01-18T13:01:26Z</time>
      </trkpt>
      <trkpt lat="43.45046" lon="6.27908">
        <ele>273.7</ele>
        <time>2017-01-18T13:01:34Z</time>
      </trkpt>
      <trkpt lat="43.45052" lon="6.27918">
        <ele>272.1</ele>
        <time>2017-01-18T13:01:45Z</time>
      </trkpt>
      <trkpt lat="43.45054" lon="6.27931">
        <ele>271.1</ele>
        <time>2017-01-18T13:01:54Z</time>
      </trkpt>
      <trkpt lat="43.45055" lon="6.27944">
        <ele>270.2</ele>
        <time>2017-01-18T13:02:02Z</time>
      </trkpt>
      <trkpt lat="43.45053" lon="6.27956">
        <ele>269.4</ele>
        <time>2017-01-18T13:02:10Z</time>
      </trkpt>
      <trkpt lat="43.45051" lon="6.27969">
        <ele>268.6</ele>
        <time>2017-01-18T13:02:18Z</time>
      </trkpt>
      <trkpt lat="43.45051" lon="6.27982">
        <ele>267.8</ele>
        <time>2017-01-18T13:02:25Z</time>
      </trkpt>
      <trkpt lat="43.45049" lon="6.27995">
        <ele>267.2</ele>
        <time>2017-01-18T13:02:32Z</time>
      </trkpt>
      <trkpt lat="43.45049" lon="6.28008">
        <ele>266.5</ele>
        <time>2017-01-18T13:02:41Z</time>
      </trkpt>
      <trkpt lat="43.4505" lon="6.28023">
        <ele>266</ele>
        <time>2017-01-18T13:02:50Z</time>
      </trkpt>
      <trkpt lat="43.45049" lon="6.28035">
        <ele>265.4</ele>
        <time>2017-01-18T13:02:59Z</time>
      </trkpt>
      <trkpt lat="43.4505" lon="6.2805">
        <ele>264.5</ele>
        <time>2017-01-18T13:03:10Z</time>
      </trkpt>
      <trkpt lat="43.45049" lon="6.28064">
        <ele>263.8</ele>
        <time>2017-01-18T13:03:18Z</time>
      </trkpt>
      <trkpt lat="43.45048" lon="6.28077">
        <ele>263.1</ele>
        <time>2017-01-18T13:03:24Z</time>
      </trkpt>
      <trkpt lat="43.45049" lon="6.2809">
        <ele>261.7</ele>
        <time>2017-01-18T13:03:34Z</time>
      </trkpt>
      <trkpt lat="43.45047" lon="6.28103">
        <ele>260.8</ele>
        <time>2017-01-18T13:03:40Z</time>
      </trkpt>
      <trkpt lat="43.45047" lon="6.28116">
        <ele>259.8</ele>
        <time>2017-01-18T13:03:48Z</time>
      </trkpt>
      <trkpt lat="43.45051" lon="6.28127">
        <ele>258.9</ele>
        <time>2017-01-18T13:03:55Z</time>
      </trkpt>
      <trkpt lat="43.45053" lon="6.2814">
        <ele>258</ele>
        <time>2017-01-18T13:04:09Z</time>
      </trkpt>
      <trkpt lat="43.45053" lon="6.28155">
        <ele>257.2</ele>
        <time>2017-01-18T13:04:17Z</time>
      </trkpt>
      <trkpt lat="43.45052" lon="6.28168">
        <ele>256</ele>
        <time>2017-01-18T13:04:25Z</time>
      </trkpt>
      <trkpt lat="43.45052" lon="6.28181">
        <ele>254.9</ele>
        <time>2017-01-18T13:04:34Z</time>
      </trkpt>
      <trkpt lat="43.45053" lon="6.28194">
        <ele>254</ele>
        <time>2017-01-18T13:04:42Z</time>
      </trkpt>
      <trkpt lat="43.45055" lon="6.28207">
        <ele>253.3</ele>
        <time>2017-01-18T13:04:49Z</time>
      </trkpt>
      <trkpt lat="43.4506" lon="6.28217">
        <ele>251.9</ele>
        <time>2017-01-18T13:05:04Z</time>
      </trkpt>
      <trkpt lat="43.45066" lon="6.28227">
        <ele>251.2</ele>
        <time>2017-01-18T13:05:11Z</time>
      </trkpt>
      <trkpt lat="43.45074" lon="6.28235">
        <ele>250.1</ele>
        <time>2017-01-18T13:05:19Z</time>
      </trkpt>
      <trkpt lat="43.45082" lon="6.28241">
        <ele>248.9</ele>
        <time>2017-01-18T13:05:27Z</time>
      </trkpt>
      <trkpt lat="43.4509" lon="6.28249">
        <ele>247.8</ele>
        <time>2017-01-18T13:05:34Z</time>
      </trkpt>
      <trkpt lat="43.45099" lon="6.28249">
        <ele>246.2</ele>
        <time>2017-01-18T13:05:43Z</time>
      </trkpt>
      <trkpt lat="43.45109" lon="6.2825">
        <ele>245.3</ele>
        <time>2017-01-18T13:05:49Z</time>
      </trkpt>
      <trkpt lat="43.45118" lon="6.28248">
        <ele>244.2</ele>
        <time>2017-01-18T13:05:55Z</time>
      </trkpt>
      <trkpt lat="43.45128" lon="6.28246">
        <ele>243.1</ele>
        <time>2017-01-18T13:06:03Z</time>
      </trkpt>
      <trkpt lat="43.45137" lon="6.28244">
        <ele>240.8</ele>
        <time>2017-01-18T13:06:38Z</time>
      </trkpt>
      <trkpt lat="43.45134" lon="6.28231">
        <ele>240</ele>
        <time>2017-01-18T13:07:44Z</time>
      </trkpt>
      <trkpt lat="43.45141" lon="6.28221">
        <ele>240</ele>
        <time>2017-01-18T13:08:48Z</time>
      </trkpt>
      <trkpt lat="43.45146" lon="6.28209">
        <ele>239.9</ele>
        <time>2017-01-18T13:08:55Z</time>
      </trkpt>
      <trkpt lat="43.45148" lon="6.28197">
        <ele>239.9</ele>
        <time>2017-01-18T13:09:03Z</time>
      </trkpt>
      <trkpt lat="43.4515" lon="6.28185">
        <ele>239.8</ele>
        <time>2017-01-18T13:09:10Z</time>
      </trkpt>
      <trkpt lat="43.45153" lon="6.28172">
        <ele>239.6</ele>
        <time>2017-01-18T13:09:18Z</time>
      </trkpt>
      <trkpt lat="43.45157" lon="6.28159">
        <ele>239.5</ele>
        <time>2017-01-18T13:09:27Z</time>
      </trkpt>
      <trkpt lat="43.45161" lon="6.28146">
        <ele>239.5</ele>
        <time>2017-01-18T13:09:34Z</time>
      </trkpt>
      <trkpt lat="43.45163" lon="6.28134">
        <ele>239.3</ele>
        <time>2017-01-18T13:09:45Z</time>
      </trkpt>
      <trkpt lat="43.45166" lon="6.28121">
        <ele>239.1</ele>
        <time>2017-01-18T13:09:54Z</time>
      </trkpt>
      <trkpt lat="43.45169" lon="6.28109">
        <ele>238.9</ele>
        <time>2017-01-18T13:10:02Z</time>
      </trkpt>
      <trkpt lat="43.45173" lon="6.28098">
        <ele>238.7</ele>
        <time>2017-01-18T13:10:10Z</time>
      </trkpt>
      <trkpt lat="43.45179" lon="6.28087">
        <ele>238.5</ele>
        <time>2017-01-18T13:10:17Z</time>
      </trkpt>
      <trkpt lat="43.45184" lon="6.28076">
        <ele>238.2</ele>
        <time>2017-01-18T13:10:26Z</time>
      </trkpt>
      <trkpt lat="43.45187" lon="6.28063">
        <ele>238</ele>
        <time>2017-01-18T13:10:34Z</time>
      </trkpt>
      <trkpt lat="43.45192" lon="6.28052">
        <ele>238.1</ele>
        <time>2017-01-18T13:10:42Z</time>
      </trkpt>
      <trkpt lat="43.45196" lon="6.28039">
        <ele>238.3</ele>
        <time>2017-01-18T13:10:53Z</time>
      </trkpt>
      <trkpt lat="43.452" lon="6.28029">
        <ele>238.7</ele>
        <time>2017-01-18T13:11:01Z</time>
      </trkpt>
      <trkpt lat="43.45205" lon="6.28017">
        <ele>239.3</ele>
        <time>2017-01-18T13:11:11Z</time>
      </trkpt>
      <trkpt lat="43.45207" lon="6.28003">
        <ele>239.7</ele>
        <time>2017-01-18T13:11:19Z</time>
      </trkpt>
      <trkpt lat="43.45209" lon="6.2799">
        <ele>240</ele>
        <time>2017-01-18T13:11:26Z</time>
      </trkpt>
      <trkpt lat="43.45214" lon="6.27977">
        <ele>240.2</ele>
        <time>2017-01-18T13:11:34Z</time>
      </trkpt>
      <trkpt lat="43.45217" lon="6.27965">
        <ele>240.5</ele>
        <time>2017-01-18T13:11:43Z</time>
      </trkpt>
      <trkpt lat="43.45221" lon="6.27953">
        <ele>240.8</ele>
        <time>2017-01-18T13:11:49Z</time>
      </trkpt>
      <trkpt lat="43.45223" lon="6.27939">
        <ele>241</ele>
        <time>2017-01-18T13:11:57Z</time>
      </trkpt>
      <trkpt lat="43.45226" lon="6.27927">
        <ele>241.1</ele>
        <time>2017-01-18T13:12:03Z</time>
      </trkpt>
      <trkpt lat="43.45228" lon="6.27914">
        <ele>241.1</ele>
        <time>2017-01-18T13:12:11Z</time>
      </trkpt>
      <trkpt lat="43.45233" lon="6.27901">
        <ele>241.1</ele>
        <time>2017-01-18T13:12:18Z</time>
      </trkpt>
      <trkpt lat="43.45233" lon="6.27889">
        <ele>240.8</ele>
        <time>2017-01-18T13:12:26Z</time>
      </trkpt>
      <trkpt lat="43.45234" lon="6.27876">
        <ele>240.6</ele>
        <time>2017-01-18T13:12:34Z</time>
      </trkpt>
      <trkpt lat="43.45235" lon="6.27864">
        <ele>240.5</ele>
        <time>2017-01-18T13:12:40Z</time>
      </trkpt>
      <trkpt lat="43.45236" lon="6.27851">
        <ele>240.4</ele>
        <time>2017-01-18T13:12:50Z</time>
      </trkpt>
      <trkpt lat="43.45239" lon="6.27839">
        <ele>240.3</ele>
        <time>2017-01-18T13:12:56Z</time>
      </trkpt>
      <trkpt lat="43.45237" lon="6.27826">
        <ele>240.2</ele>
        <time>2017-01-18T13:13:06Z</time>
      </trkpt>
      <trkpt lat="43.45237" lon="6.27812">
        <ele>240.3</ele>
        <time>2017-01-18T13:13:15Z</time>
      </trkpt>
      <trkpt lat="43.45237" lon="6.27799">
        <ele>240.5</ele>
        <time>2017-01-18T13:13:22Z</time>
      </trkpt>
      <trkpt lat="43.45236" lon="6.27787">
        <ele>240.8</ele>
        <time>2017-01-18T13:13:30Z</time>
      </trkpt>
      <trkpt lat="43.45232" lon="6.27775">
        <ele>241.3</ele>
        <time>2017-01-18T13:13:48Z</time>
      </trkpt>
      <trkpt lat="43.45239" lon="6.27765">
        <ele>241.5</ele>
        <time>2017-01-18T13:13:58Z</time>
      </trkpt>
      <trkpt lat="43.45245" lon="6.27756">
        <ele>241.9</ele>
        <time>2017-01-18T13:14:07Z</time>
      </trkpt>
      <trkpt lat="43.45252" lon="6.27747">
        <ele>242.1</ele>
        <time>2017-01-18T13:14:16Z</time>
      </trkpt>
      <trkpt lat="43.45254" lon="6.27735">
        <ele>242.4</ele>
        <time>2017-01-18T13:14:26Z</time>
      </trkpt>
      <trkpt lat="43.45262" lon="6.27729">
        <ele>242.8</ele>
        <time>2017-01-18T13:14:33Z</time>
      </trkpt>
      <trkpt lat="43.45269" lon="6.2772">
        <ele>243.3</ele>
        <time>2017-01-18T13:14:42Z</time>
      </trkpt>
      <trkpt lat="43.45276" lon="6.27712">
        <ele>243.5</ele>
        <time>2017-01-18T13:14:50Z</time>
      </trkpt>
      <trkpt lat="43.45283" lon="6.27702">
        <ele>243.5</ele>
        <time>2017-01-18T13:14:59Z</time>
      </trkpt>
      <trkpt lat="43.45291" lon="6.27695">
        <ele>243.1</ele>
        <time>2017-01-18T13:15:07Z</time>
      </trkpt>
      <trkpt lat="43.45299" lon="6.27687">
        <ele>242.6</ele>
        <time>2017-01-18T13:15:14Z</time>
      </trkpt>
      <trkpt lat="43.45306" lon="6.2768">
        <ele>242</ele>
        <time>2017-01-18T13:15:21Z</time>
      </trkpt>
      <trkpt lat="43.45314" lon="6.27673">
        <ele>240.8</ele>
        <time>2017-01-18T13:15:38Z</time>
      </trkpt>
      <trkpt lat="43.45323" lon="6.27666">
        <ele>239.9</ele>
        <time>2017-01-18T13:15:48Z</time>
      </trkpt>
      <trkpt lat="43.45331" lon="6.2766">
        <ele>239.2</ele>
        <time>2017-01-18T13:15:56Z</time>
      </trkpt>
      <trkpt lat="43.45336" lon="6.27648">
        <ele>238.3</ele>
        <time>2017-01-18T13:16:05Z</time>
      </trkpt>
      <trkpt lat="43.45343" lon="6.27638">
        <ele>237.6</ele>
        <time>2017-01-18T13:16:13Z</time>
      </trkpt>
      <trkpt lat="43.45349" lon="6.27629">
        <ele>237</ele>
        <time>2017-01-18T13:16:20Z</time>
      </trkpt>
      <trkpt lat="43.45355" lon="6.27619">
        <ele>236.1</ele>
        <time>2017-01-18T13:16:28Z</time>
      </trkpt>
      <trkpt lat="43.45363" lon="6.27612">
        <ele>235.4</ele>
        <time>2017-01-18T13:16:35Z</time>
      </trkpt>
      <trkpt lat="43.45371" lon="6.27601">
        <ele>234.3</ele>
        <time>2017-01-18T13:16:44Z</time>
      </trkpt>
      <trkpt lat="43.45377" lon="6.27591">
        <ele>233.3</ele>
        <time>2017-01-18T13:16:51Z</time>
      </trkpt>
      <trkpt lat="43.45384" lon="6.27583">
        <ele>231.9</ele>
        <time>2017-01-18T13:17:01Z</time>
      </trkpt>
      <trkpt lat="43.45391" lon="6.27573">
        <ele>230.8</ele>
        <time>2017-01-18T13:17:10Z</time>
      </trkpt>
      <trkpt lat="43.45398" lon="6.27562">
        <ele>229.7</ele>
        <time>2017-01-18T13:17:17Z</time>
      </trkpt>
      <trkpt lat="43.45404" lon="6.27552">
        <ele>228.3</ele>
        <time>2017-01-18T13:17:25Z</time>
      </trkpt>
      <trkpt lat="43.45409" lon="6.27542">
        <ele>227.2</ele>
        <time>2017-01-18T13:17:32Z</time>
      </trkpt>
      <trkpt lat="43.45415" lon="6.27532">
        <ele>226.4</ele>
        <time>2017-01-18T13:17:39Z</time>
      </trkpt>
      <trkpt lat="43.45419" lon="6.27521">
        <ele>225.6</ele>
        <time>2017-01-18T13:17:47Z</time>
      </trkpt>
      <trkpt lat="43.45423" lon="6.27509">
        <ele>224.8</ele>
        <time>2017-01-18T13:17:55Z</time>
      </trkpt>
      <trkpt lat="43.45427" lon="6.27497">
        <ele>224.1</ele>
        <time>2017-01-18T13:18:04Z</time>
      </trkpt>
      <trkpt lat="43.45431" lon="6.27483">
        <ele>223.4</ele>
        <time>2017-01-18T13:18:12Z</time>
      </trkpt>
      <trkpt lat="43.45434" lon="6.27471">
        <ele>222.6</ele>
        <time>2017-01-18T13:18:20Z</time>
      </trkpt>
      <trkpt lat="43.45438" lon="6.27459">
        <ele>221.9</ele>
        <time>2017-01-18T13:18:27Z</time>
      </trkpt>
      <trkpt lat="43.45441" lon="6.27447">
        <ele>221.3</ele>
        <time>2017-01-18T13:18:35Z</time>
      </trkpt>
      <trkpt lat="43.45446" lon="6.27437">
        <ele>220.8</ele>
        <time>2017-01-18T13:18:42Z</time>
      </trkpt>
      <trkpt lat="43.45453" lon="6.27427">
        <ele>220.3</ele>
        <time>2017-01-18T13:18:50Z</time>
      </trkpt>
      <trkpt lat="43.45461" lon="6.2742">
        <ele>219.6</ele>
        <time>2017-01-18T13:18:59Z</time>
      </trkpt>
      <trkpt lat="43.45467" lon="6.27411">
        <ele>218.9</ele>
        <time>2017-01-18T13:19:07Z</time>
      </trkpt>
      <trkpt lat="43.45474" lon="6.27401">
        <ele>218.2</ele>
        <time>2017-01-18T13:19:14Z</time>
      </trkpt>
      <trkpt lat="43.45481" lon="6.27392">
        <ele>217.5</ele>
        <time>2017-01-18T13:19:23Z</time>
      </trkpt>
      <trkpt lat="43.45489" lon="6.27382">
        <ele>217.4</ele>
        <time>2017-01-18T13:19:32Z</time>
      </trkpt>
      <trkpt lat="43.45498" lon="6.27376">
        <ele>217</ele>
        <time>2017-01-18T13:19:41Z</time>
      </trkpt>
      <trkpt lat="43.45507" lon="6.27373">
        <ele>216.6</ele>
        <time>2017-01-18T13:19:51Z</time>
      </trkpt>
      <trkpt lat="43.45517" lon="6.27375">
        <ele>216.2</ele>
        <time>2017-01-18T13:19:59Z</time>
      </trkpt>
      <trkpt lat="43.45526" lon="6.27375">
        <ele>215.8</ele>
        <time>2017-01-18T13:20:09Z</time>
      </trkpt>
      <trkpt lat="43.45535" lon="6.27376">
        <ele>214.8</ele>
        <time>2017-01-18T13:20:30Z</time>
      </trkpt>
      <trkpt lat="43.45544" lon="6.27378">
        <ele>214</ele>
        <time>2017-01-18T13:20:40Z</time>
      </trkpt>
      <trkpt lat="43.45552" lon="6.27385">
        <ele>213.3</ele>
        <time>2017-01-18T13:20:47Z</time>
      </trkpt>
      <trkpt lat="43.45561" lon="6.2739">
        <ele>212.6</ele>
        <time>2017-01-18T13:20:54Z</time>
      </trkpt>
      <trkpt lat="43.4557" lon="6.27389">
        <ele>211.5</ele>
        <time>2017-01-18T13:21:02Z</time>
      </trkpt>
      <trkpt lat="43.45579" lon="6.27388">
        <ele>210.7</ele>
        <time>2017-01-18T13:21:09Z</time>
      </trkpt>
      <trkpt lat="43.45588" lon="6.27391">
        <ele>209.7</ele>
        <time>2017-01-18T13:21:18Z</time>
      </trkpt>
      <trkpt lat="43.45598" lon="6.27391">
        <ele>208.9</ele>
        <time>2017-01-18T13:21:25Z</time>
      </trkpt>
      <trkpt lat="43.45607" lon="6.27392">
        <ele>208</ele>
        <time>2017-01-18T13:21:32Z</time>
      </trkpt>
      <trkpt lat="43.45616" lon="6.27392">
        <ele>206.7</ele>
        <time>2017-01-18T13:21:41Z</time>
      </trkpt>
      <trkpt lat="43.45624" lon="6.27385">
        <ele>205.5</ele>
        <time>2017-01-18T13:21:49Z</time>
      </trkpt>
      <trkpt lat="43.45632" lon="6.27377">
        <ele>204.5</ele>
        <time>2017-01-18T13:21:58Z</time>
      </trkpt>
      <trkpt lat="43.45634" lon="6.27364">
        <ele>203.6</ele>
        <time>2017-01-18T13:22:09Z</time>
      </trkpt>
      <trkpt lat="43.45638" lon="6.27352">
        <ele>202.6</ele>
        <time>2017-01-18T13:22:18Z</time>
      </trkpt>
      <trkpt lat="43.45644" lon="6.27341">
        <ele>201.8</ele>
        <time>2017-01-18T13:22:27Z</time>
      </trkpt>
      <trkpt lat="43.45649" lon="6.2733">
        <ele>201.3</ele>
        <time>2017-01-18T13:22:34Z</time>
      </trkpt>
      <trkpt lat="43.45652" lon="6.27318">
        <ele>201</ele>
        <time>2017-01-18T13:22:42Z</time>
      </trkpt>
      <trkpt lat="43.45656" lon="6.27306">
        <ele>200.8</ele>
        <time>2017-01-18T13:22:52Z</time>
      </trkpt>
      <trkpt lat="43.45661" lon="6.27295">
        <ele>200.6</ele>
        <time>2017-01-18T13:23:02Z</time>
      </trkpt>
      <trkpt lat="43.45666" lon="6.27283">
        <ele>200.5</ele>
        <time>2017-01-18T13:23:13Z</time>
      </trkpt>
      <trkpt lat="43.45665" lon="6.2727">
        <ele>199.8</ele>
        <time>2017-01-18T13:23:52Z</time>
      </trkpt>
      <trkpt lat="43.45657" lon="6.27265">
        <ele>199.7</ele>
        <time>2017-01-18T13:24:08Z</time>
      </trkpt>
      <trkpt lat="43.45666" lon="6.27267">
        <ele>199.6</ele>
        <time>2017-01-18T13:24:26Z</time>
      </trkpt>
      <trkpt lat="43.45671" lon="6.27257">
        <ele>199.6</ele>
        <time>2017-01-18T13:25:28Z</time>
      </trkpt>
      <trkpt lat="43.45674" lon="6.27245">
        <ele>199.5</ele>
        <time>2017-01-18T13:25:39Z</time>
      </trkpt>
      <trkpt lat="43.45677" lon="6.27233">
        <ele>199.4</ele>
        <time>2017-01-18T13:25:49Z</time>
      </trkpt>
      <trkpt lat="43.4568" lon="6.2722">
        <ele>198.8</ele>
        <time>2017-01-18T13:26:11Z</time>
      </trkpt>
      <trkpt lat="43.45684" lon="6.27208">
        <ele>198.5</ele>
        <time>2017-01-18T13:26:21Z</time>
      </trkpt>
      <trkpt lat="43.45688" lon="6.27197">
        <ele>198.3</ele>
        <time>2017-01-18T13:26:34Z</time>
      </trkpt>
      <trkpt lat="43.45694" lon="6.27187">
        <ele>198</ele>
        <time>2017-01-18T13:26:46Z</time>
      </trkpt>
      <trkpt lat="43.45699" lon="6.27177">
        <ele>197.7</ele>
        <time>2017-01-18T13:27:00Z</time>
      </trkpt>
      <trkpt lat="43.45701" lon="6.27165">
        <ele>197.4</ele>
        <time>2017-01-18T13:27:09Z</time>
      </trkpt>
      <trkpt lat="43.45702" lon="6.27152">
        <ele>197.3</ele>
        <time>2017-01-18T13:27:18Z</time>
      </trkpt>
      <trkpt lat="43.45706" lon="6.2714">
        <ele>197.2</ele>
        <time>2017-01-18T13:27:27Z</time>
      </trkpt>
      <trkpt lat="43.45709" lon="6.27127">
        <ele>197.1</ele>
        <time>2017-01-18T13:27:35Z</time>
      </trkpt>
      <trkpt lat="43.45712" lon="6.27115">
        <ele>197.1</ele>
        <time>2017-01-18T13:27:44Z</time>
      </trkpt>
      <trkpt lat="43.45715" lon="6.27103">
        <ele>197</ele>
        <time>2017-01-18T13:27:52Z</time>
      </trkpt>
      <trkpt lat="43.45719" lon="6.27091">
        <ele>197</ele>
        <time>2017-01-18T13:28:01Z</time>
      </trkpt>
      <trkpt lat="43.45717" lon="6.27078">
        <ele>197</ele>
        <time>2017-01-18T13:28:11Z</time>
      </trkpt>
      <trkpt lat="43.45713" lon="6.27067">
        <ele>197.1</ele>
        <time>2017-01-18T13:28:20Z</time>
      </trkpt>
      <trkpt lat="43.45705" lon="6.27059">
        <ele>198.1</ele>
        <time>2017-01-18T13:28:43Z</time>
      </trkpt>
      <trkpt lat="43.45697" lon="6.27053">
        <ele>198.7</ele>
        <time>2017-01-18T13:28:53Z</time>
      </trkpt>
      <trkpt lat="43.45689" lon="6.27047">
        <ele>199.4</ele>
        <time>2017-01-18T13:29:02Z</time>
      </trkpt>
      <trkpt lat="43.45686" lon="6.27036">
        <ele>200.8</ele>
        <time>2017-01-18T13:29:15Z</time>
      </trkpt>
      <trkpt lat="43.4568" lon="6.27026">
        <ele>201.9</ele>
        <time>2017-01-18T13:29:27Z</time>
      </trkpt>
      <trkpt lat="43.45673" lon="6.27016">
        <ele>202.7</ele>
        <time>2017-01-18T13:29:43Z</time>
      </trkpt>
      <trkpt lat="43.4567" lon="6.27005">
        <ele>203.8</ele>
        <time>2017-01-18T13:29:58Z</time>
      </trkpt>
      <trkpt lat="43.45668" lon="6.26992">
        <ele>205</ele>
        <time>2017-01-18T13:30:10Z</time>
      </trkpt>
      <trkpt lat="43.45669" lon="6.26979">
        <ele>206.2</ele>
        <time>2017-01-18T13:30:23Z</time>
      </trkpt>
      <trkpt lat="43.45668" lon="6.26966">
        <ele>208.2</ele>
        <time>2017-01-18T13:30:46Z</time>
      </trkpt>
      <trkpt lat="43.4567" lon="6.26954">
        <ele>209.1</ele>
        <time>2017-01-18T13:31:02Z</time>
      </trkpt>
      <trkpt lat="43.45674" lon="6.26943">
        <ele>209.5</ele>
        <time>2017-01-18T13:31:13Z</time>
      </trkpt>
      <trkpt lat="43.45681" lon="6.26932">
        <ele>209.7</ele>
        <time>2017-01-18T13:31:22Z</time>
      </trkpt>
      <trkpt lat="43.45686" lon="6.26922">
        <ele>209.9</ele>
        <time>2017-01-18T13:31:32Z</time>
      </trkpt>
      <trkpt lat="43.45692" lon="6.26911">
        <ele>210</ele>
        <time>2017-01-18T13:31:42Z</time>
      </trkpt>
      <trkpt lat="43.45696" lon="6.26898">
        <ele>210</ele>
        <time>2017-01-18T13:31:51Z</time>
      </trkpt>
      <trkpt lat="43.45702" lon="6.26889">
        <ele>210</ele>
        <time>2017-01-18T13:31:58Z</time>
      </trkpt>
      <trkpt lat="43.45707" lon="6.26877">
        <ele>209.9</ele>
        <time>2017-01-18T13:32:06Z</time>
      </trkpt>
      <trkpt lat="43.45712" lon="6.26864">
        <ele>209.8</ele>
        <time>2017-01-18T13:32:16Z</time>
      </trkpt>
      <trkpt lat="43.45717" lon="6.26854">
        <ele>209.7</ele>
        <time>2017-01-18T13:32:24Z</time>
      </trkpt>
      <trkpt lat="43.45724" lon="6.26844">
        <ele>209.8</ele>
        <time>2017-01-18T13:32:32Z</time>
      </trkpt>
      <trkpt lat="43.45732" lon="6.26835">
        <ele>209.8</ele>
        <time>2017-01-18T13:32:41Z</time>
      </trkpt>
      <trkpt lat="43.4574" lon="6.26831">
        <ele>209.8</ele>
        <time>2017-01-18T13:32:47Z</time>
      </trkpt>
      <trkpt lat="43.45747" lon="6.26822">
        <ele>209.8</ele>
        <time>2017-01-18T13:32:55Z</time>
      </trkpt>
      <trkpt lat="43.45752" lon="6.26812">
        <ele>210</ele>
        <time>2017-01-18T13:33:03Z</time>
      </trkpt>
      <trkpt lat="43.45756" lon="6.268">
        <ele>210.6</ele>
        <time>2017-01-18T13:33:16Z</time>
      </trkpt>
      <trkpt lat="43.45762" lon="6.2679">
        <ele>211</ele>
        <time>2017-01-18T13:33:25Z</time>
      </trkpt>
      <trkpt lat="43.45764" lon="6.26777">
        <ele>211.6</ele>
        <time>2017-01-18T13:33:36Z</time>
      </trkpt>
      <trkpt lat="43.45768" lon="6.26764">
        <ele>212</ele>
        <time>2017-01-18T13:33:44Z</time>
      </trkpt>
      <trkpt lat="43.45771" lon="6.26752">
        <ele>212.3</ele>
        <time>2017-01-18T13:33:53Z</time>
      </trkpt>
      <trkpt lat="43.45778" lon="6.26744">
        <ele>212.6</ele>
        <time>2017-01-18T13:34:00Z</time>
      </trkpt>
      <trkpt lat="43.45783" lon="6.26732">
        <ele>213.4</ele>
        <time>2017-01-18T13:34:10Z</time>
      </trkpt>
      <trkpt lat="43.45787" lon="6.26721">
        <ele>214.1</ele>
        <time>2017-01-18T13:34:22Z</time>
      </trkpt>
      <trkpt lat="43.45792" lon="6.26711">
        <ele>214.9</ele>
        <time>2017-01-18T13:34:31Z</time>
      </trkpt>
      <trkpt lat="43.45799" lon="6.26701">
        <ele>215.7</ele>
        <time>2017-01-18T13:34:43Z</time>
      </trkpt>
      <trkpt lat="43.45806" lon="6.26692">
        <ele>216.3</ele>
        <time>2017-01-18T13:34:52Z</time>
      </trkpt>
      <trkpt lat="43.45811" lon="6.26681">
        <ele>216.5</ele>
        <time>2017-01-18T13:35:01Z</time>
      </trkpt>
      <trkpt lat="43.45817" lon="6.2667">
        <ele>216.9</ele>
        <time>2017-01-18T13:35:11Z</time>
      </trkpt>
      <trkpt lat="43.45819" lon="6.26658">
        <ele>217.4</ele>
        <time>2017-01-18T13:35:22Z</time>
      </trkpt>
      <trkpt lat="43.45824" lon="6.26647">
        <ele>218.8</ele>
        <time>2017-01-18T13:36:06Z</time>
      </trkpt>
      <trkpt lat="43.4582" lon="6.26635">
        <ele>219.3</ele>
        <time>2017-01-18T13:38:45Z</time>
      </trkpt>
      <trkpt lat="43.45828" lon="6.26629">
        <ele>219.5</ele>
        <time>2017-01-18T13:39:25Z</time>
      </trkpt>
      <trkpt lat="43.45837" lon="6.26623">
        <ele>219.1</ele>
        <time>2017-01-18T13:39:36Z</time>
      </trkpt>
      <trkpt lat="43.45841" lon="6.26612">
        <ele>218.1</ele>
        <time>2017-01-18T13:39:47Z</time>
      </trkpt>
      <trkpt lat="43.45843" lon="6.266">
        <ele>216.9</ele>
        <time>2017-01-18T13:39:59Z</time>
      </trkpt>
      <trkpt lat="43.45849" lon="6.2659">
        <ele>216.4</ele>
        <time>2017-01-18T13:40:08Z</time>
      </trkpt>
      <trkpt lat="43.45852" lon="6.26578">
        <ele>216.3</ele>
        <time>2017-01-18T13:40:21Z</time>
      </trkpt>
      <trkpt lat="43.45861" lon="6.26575">
        <ele>215.3</ele>
        <time>2017-01-18T13:41:06Z</time>
      </trkpt>
      <trkpt lat="43.45868" lon="6.26567">
        <ele>213.8</ele>
        <time>2017-01-18T13:41:42Z</time>
      </trkpt>
      <trkpt lat="43.45873" lon="6.26557">
        <ele>213.3</ele>
        <time>2017-01-18T13:41:53Z</time>
      </trkpt>
      <trkpt lat="43.45876" lon="6.26545">
        <ele>212.4</ele>
        <time>2017-01-18T13:42:13Z</time>
      </trkpt>
      <trkpt lat="43.45883" lon="6.26536">
        <ele>211.3</ele>
        <time>2017-01-18T13:42:40Z</time>
      </trkpt>
      <trkpt lat="43.45888" lon="6.26525">
        <ele>210.7</ele>
        <time>2017-01-18T13:42:57Z</time>
      </trkpt>
      <trkpt lat="43.45896" lon="6.26519">
        <ele>208.9</ele>
        <time>2017-01-18T13:43:23Z</time>
      </trkpt>
      <trkpt lat="43.45902" lon="6.2651">
        <ele>207.7</ele>
        <time>2017-01-18T13:43:38Z</time>
      </trkpt>
      <trkpt lat="43.45912" lon="6.26506">
        <ele>206.5</ele>
        <time>2017-01-18T13:43:51Z</time>
      </trkpt>
      <trkpt lat="43.45921" lon="6.26505">
        <ele>204</ele>
        <time>2017-01-18T13:44:17Z</time>
      </trkpt>
      <trkpt lat="43.45926" lon="6.26516">
        <ele>202.4</ele>
        <time>2017-01-18T13:44:41Z</time>
      </trkpt>
      <trkpt lat="43.45932" lon="6.26525">
        <ele>199.9</ele>
        <time>2017-01-18T13:46:45Z</time>
      </trkpt>
      <trkpt lat="43.45937" lon="6.26515">
        <ele>197</ele>
        <time>2017-01-18T13:47:40Z</time>
      </trkpt>
      <trkpt lat="43.45945" lon="6.26522">
        <ele>196.3</ele>
        <time>2017-01-18T13:47:56Z</time>
      </trkpt>
      <trkpt lat="43.45948" lon="6.26534">
        <ele>193.5</ele>
        <time>2017-01-18T13:48:22Z</time>
      </trkpt>
      <trkpt lat="43.45955" lon="6.26526">
        <ele>192.6</ele>
        <time>2017-01-18T13:48:36Z</time>
      </trkpt>
      <trkpt lat="43.4596" lon="6.26515">
        <ele>192.4</ele>
        <time>2017-01-18T13:48:43Z</time>
      </trkpt>
      <trkpt lat="43.45965" lon="6.26504">
        <ele>192.2</ele>
        <time>2017-01-18T13:48:51Z</time>
      </trkpt>
      <trkpt lat="43.45968" lon="6.26492">
        <ele>192.1</ele>
        <time>2017-01-18T13:49:01Z</time>
      </trkpt>
      <trkpt lat="43.4597" lon="6.26479">
        <ele>192.3</ele>
        <time>2017-01-18T13:49:19Z</time>
      </trkpt>
      <trkpt lat="43.45967" lon="6.26467">
        <ele>192.5</ele>
        <time>2017-01-18T13:49:31Z</time>
      </trkpt>
      <trkpt lat="43.45964" lon="6.26454">
        <ele>193.8</ele>
        <time>2017-01-18T13:49:58Z</time>
      </trkpt>
      <trkpt lat="43.45958" lon="6.26444">
        <ele>195.6</ele>
        <time>2017-01-18T13:50:13Z</time>
      </trkpt>
      <trkpt lat="43.45952" lon="6.26433">
        <ele>196.9</ele>
        <time>2017-01-18T13:50:25Z</time>
      </trkpt>
      <trkpt lat="43.45949" lon="6.26422">
        <ele>197.5</ele>
        <time>2017-01-18T13:50:37Z</time>
      </trkpt>
      <trkpt lat="43.45941" lon="6.26413">
        <ele>198.3</ele>
        <time>2017-01-18T13:50:50Z</time>
      </trkpt>
      <trkpt lat="43.45939" lon="6.26401">
        <ele>199.5</ele>
        <time>2017-01-18T13:51:05Z</time>
      </trkpt>
      <trkpt lat="43.45934" lon="6.26389">
        <ele>200.1</ele>
        <time>2017-01-18T13:51:16Z</time>
      </trkpt>
      <trkpt lat="43.45929" lon="6.26378">
        <ele>201.2</ele>
        <time>2017-01-18T13:51:32Z</time>
      </trkpt>
      <trkpt lat="43.45927" lon="6.26366">
        <ele>202.6</ele>
        <time>2017-01-18T13:51:51Z</time>
      </trkpt>
      <trkpt lat="43.4593" lon="6.26354">
        <ele>201.5</ele>
        <time>2017-01-18T13:52:09Z</time>
      </trkpt>
      <trkpt lat="43.45932" lon="6.26341">
        <ele>200.5</ele>
        <time>2017-01-18T13:52:21Z</time>
      </trkpt>
      <trkpt lat="43.45934" lon="6.26329">
        <ele>199.2</ele>
        <time>2017-01-18T13:52:35Z</time>
      </trkpt>
      <trkpt lat="43.45929" lon="6.26319">
        <ele>197.8</ele>
        <time>2017-01-18T13:53:07Z</time>
      </trkpt>
      <trkpt lat="43.45938" lon="6.26319">
        <ele>195.3</ele>
        <time>2017-01-18T13:53:49Z</time>
      </trkpt>
      <trkpt lat="43.45946" lon="6.26312">
        <ele>194.3</ele>
        <time>2017-01-18T13:54:01Z</time>
      </trkpt>
      <trkpt lat="43.45956" lon="6.26311">
        <ele>192.9</ele>
        <time>2017-01-18T13:54:13Z</time>
      </trkpt>
      <trkpt lat="43.45957" lon="6.26298">
        <ele>190.4</ele>
        <time>2017-01-18T13:54:59Z</time>
      </trkpt>
      <trkpt lat="43.45958" lon="6.26286">
        <ele>189.1</ele>
        <time>2017-01-18T13:55:13Z</time>
      </trkpt>
      <trkpt lat="43.45966" lon="6.2628">
        <ele>186.9</ele>
        <time>2017-01-18T13:55:37Z</time>
      </trkpt>
      <trkpt lat="43.45972" lon="6.2627">
        <ele>185.2</ele>
        <time>2017-01-18T13:56:05Z</time>
      </trkpt>
      <trkpt lat="43.45979" lon="6.26262">
        <ele>184.4</ele>
        <time>2017-01-18T13:56:16Z</time>
      </trkpt>
      <trkpt lat="43.45987" lon="6.26255">
        <ele>183.5</ele>
        <time>2017-01-18T13:56:42Z</time>
      </trkpt>
      <trkpt lat="43.45992" lon="6.26244">
        <ele>183.1</ele>
        <time>2017-01-18T13:57:12Z</time>
      </trkpt>
      <trkpt lat="43.46001" lon="6.26238">
        <ele>183.2</ele>
        <time>2017-01-18T13:57:19Z</time>
      </trkpt>
      <trkpt lat="43.46009" lon="6.26231">
        <ele>182.9</ele>
        <time>2017-01-18T13:57:41Z</time>
      </trkpt>
      <trkpt lat="43.46017" lon="6.26224">
        <ele>183.3</ele>
        <time>2017-01-18T13:57:52Z</time>
      </trkpt>
      <trkpt lat="43.46022" lon="6.26214">
        <ele>183.6</ele>
        <time>2017-01-18T13:58:04Z</time>
      </trkpt>
      <trkpt lat="43.46021" lon="6.26202">
        <ele>184.3</ele>
        <time>2017-01-18T13:58:37Z</time>
      </trkpt>
    </trkseg>
  </trk>
</gpx>